Darstellungsparameter: Aktuell verwendete Einstellungen:
Skalierung der Graphiken ... ?
xyx+y,   Skalierungsfaktor:      Skalierung: Modus: x, Faktor: 1
Darstellungszeitraum ... ?
Vom - - bis: - -   Zeitraum: 23.10.2019 - 22.04.2020
Min/Max/Avg-Anzeige ... ?
Zeige MMA aktuell
Zeige MMA Monat
Zeige MMA alles
Zeige --A aktuell
Zeige --A Monat
Zeige --A alles
Keine MMA-Anzeige
MMA:
Average (ber die Originaldaten)
MMA-Basis: 23.10.2019 - 22.04.2020
Quicknavigation für Darstellung... ?
Tage:      1T, 2T, 3T, 5T -1T -2T -3T -5T +1T +2T +3T +5T
Wochen: 1W, 2W, 3W -1W -2W -3W +1W +2W +3W
Monate: 1M, 3M, 6M -1M -3M -6M +1M +3M +6M
Jahre:    1J, 3J, 5J, 10J -1J -3J -5J -10J +1J +3J +5J +10J
Nutze für die Darstellung ... ?
Originaldaten oder Mittelwerte auf ...
Stundenbasis Tagesbasis Wochenbasis
Monatsbasis Jahresbasis      Datenbasis: Original-Daten
Darstellen als:
Statistik (Auto) Statistik J:M      Darstellung:
Zur Graphik,    zurück zur Übersicht aller Sensoren.
 
Tabellarische Datenbersicht: ?
 
Sensor: Nr:Datum:Temp:Abs-Feuchte:Windchill:Wind:
Aussen-T/F 1 23-10-2019 00:00:00 9.3 C 8.54 g/m*3 9.3 C 0 km/h
2 23-10-2019 00:05:00 9.3 C 8.54 g/m*3 9.3 C 0 km/h
3 23-10-2019 00:10:00 9.2 C 8.57 g/m*3 9.2 C 0 km/h
4 23-10-2019 00:15:00 9.1 C 8.52 g/m*3 9.1 C 0 km/h
5 23-10-2019 00:20:00 9.1 C 8.43 g/m*3 9.1 C 0 km/h
6 23-10-2019 00:25:00 9 C 8.46 g/m*3 9 C 0 km/h
7 23-10-2019 00:30:00 8.9 C 8.41 g/m*3 8.9 C 0 km/h
8 23-10-2019 00:35:00 8.8 C 8.36 g/m*3 8.8 C 0 km/h
9 23-10-2019 00:40:00 8.8 C 8.36 g/m*3 8.8 C 0 km/h
10 23-10-2019 00:45:00 8.8 C 8.36 g/m*3 8.8 C 0 km/h
11 23-10-2019 00:50:00 8.8 C 8.36 g/m*3 8.8 C 0 km/h
12 23-10-2019 00:55:00 8.7 C 8.3 g/m*3 8.7 C 0 km/h
13 23-10-2019 01:00:00 8.7 C 8.3 g/m*3 8.7 C 0 km/h
14 23-10-2019 01:05:00 8.7 C 8.3 g/m*3 8.7 C 0 km/h
15 23-10-2019 01:10:00 8.7 C 8.3 g/m*3 8.7 C 0 km/h
16 23-10-2019 01:15:00 8.7 C 8.3 g/m*3 8.7 C 0 km/h
17 23-10-2019 01:20:00 8.6 C 8.25 g/m*3 8.6 C 0 km/h
18 23-10-2019 01:25:00 8.6 C 8.25 g/m*3 8.6 C 0 km/h
19 23-10-2019 01:30:00 8.6 C 8.25 g/m*3 8.6 C 0 km/h
20 23-10-2019 01:35:00 8.5 C 8.2 g/m*3 8.5 C 0 km/h
21 23-10-2019 01:40:00 8.5 C 8.2 g/m*3 8.5 C 0 km/h
22 23-10-2019 01:45:00 8.6 C 8.25 g/m*3 8.6 C 0 km/h
23 23-10-2019 01:50:00 8.6 C 8.25 g/m*3 8.6 C 0 km/h
24 23-10-2019 01:55:00 8.6 C 8.25 g/m*3 8.6 C 0 km/h
25 23-10-2019 02:00:00 8.6 C 8.25 g/m*3 8.6 C 0 km/h
Sensor: Nr:Datum:Temp:Abs-Feuchte:Windchill:Wind:
Aussen-T/F 26 23-10-2019 02:05:00 8.4 C 8.14 g/m*3 8.4 C 0 km/h
27 23-10-2019 02:10:00 8.4 C 8.14 g/m*3 8.4 C 0 km/h
28 23-10-2019 02:15:00 8.3 C 8.09 g/m*3 8.3 C 0 km/h
29 23-10-2019 02:20:00 8.2 C 8.04 g/m*3 8.2 C 0 km/h
30 23-10-2019 02:25:00 8.2 C 8.04 g/m*3 8.2 C 0 km/h
31 23-10-2019 02:30:00 8.2 C 8.04 g/m*3 8.2 C 0 km/h
32 23-10-2019 02:35:00 8.1 C 7.99 g/m*3 8.1 C 0 km/h
33 23-10-2019 02:40:00 8.1 C 7.99 g/m*3 8.1 C 0 km/h
34 23-10-2019 02:45:00 8.1 C 7.99 g/m*3 8.1 C 0 km/h
35 23-10-2019 02:50:00 8 C 7.94 g/m*3 8 C 0 km/h
36 23-10-2019 02:55:00 7.9 C 7.89 g/m*3 7.9 C 0 km/h
37 23-10-2019 03:00:00 7.9 C 7.89 g/m*3 7.9 C 0 km/h
38 23-10-2019 03:05:00 8.1 C 8.07 g/m*3 8.1 C 0 km/h
39 23-10-2019 03:10:00 8.1 C 8.07 g/m*3 8.1 C 0 km/h
40 23-10-2019 03:15:00 8.1 C 8.07 g/m*3 8.1 C 0 km/h
41 23-10-2019 03:20:00 8 C 8.02 g/m*3 8 C 0 km/h
42 23-10-2019 03:25:00 8 C 7.94 g/m*3 8 C 0 km/h
43 23-10-2019 03:30:00 7.9 C 7.89 g/m*3 7.9 C 0 km/h
44 23-10-2019 03:35:00 8 C 8.02 g/m*3 8 C 0 km/h
45 23-10-2019 03:40:00 8 C 8.02 g/m*3 8 C 0 km/h
46 23-10-2019 03:45:00 8 C 8.02 g/m*3 8 C 0 km/h
47 23-10-2019 03:50:00 8 C 8.02 g/m*3 8 C 0 km/h
48 23-10-2019 03:55:00 8 C 8.02 g/m*3 8 C 0 km/h
49 23-10-2019 04:00:00 8.1 C 8.07 g/m*3 8.1 C 0 km/h
50 23-10-2019 04:05:00 8.1 C 8.07 g/m*3 8.1 C 0 km/h
Sensor: Nr:Datum:Temp:Abs-Feuchte:Windchill:Wind:
Aussen-T/F 51 23-10-2019 04:10:00 8.2 C 8.12 g/m*3 8.2 C 0 km/h
52 23-10-2019 04:15:00 8.1 C 8.07 g/m*3 8.1 C 0 km/h
53 23-10-2019 04:20:00 7.9 C 7.97 g/m*3 7.9 C 0 km/h
54 23-10-2019 04:25:00 7.8 C 7.92 g/m*3 7.8 C 0 km/h
55 23-10-2019 04:30:00 7.7 C 7.87 g/m*3 7.7 C 0 km/h
56 23-10-2019 04:35:00 7.7 C 7.87 g/m*3 7.7 C 0 km/h
57 23-10-2019 04:40:00 7.6 C 7.73 g/m*3 7.6 C 0 km/h
58 23-10-2019 04:45:00 7.6 C 7.81 g/m*3 7.6 C 0 km/h
59 23-10-2019 04:50:00 7.6 C 7.81 g/m*3 7.6 C 0 km/h
60 23-10-2019 04:55:00 7.6 C 7.81 g/m*3 7.6 C 0 km/h
61 23-10-2019 05:00:00 7.7 C 7.87 g/m*3 7.7 C 0 km/h
62 23-10-2019 05:05:00 7.8 C 7.92 g/m*3 7.8 C 0 km/h
63 23-10-2019 05:10:00 8 C 8.02 g/m*3 8 C 0 km/h
64 23-10-2019 05:15:00 8.1 C 8.07 g/m*3 8.1 C 0 km/h
65 23-10-2019 05:20:00 8.2 C 8.12 g/m*3 8.2 C 0 km/h
66 23-10-2019 05:25:00 8.3 C 8.18 g/m*3 8.3 C 0 km/h
67 23-10-2019 05:30:00 8.4 C 8.23 g/m*3 8.4 C 0 km/h
68 23-10-2019 05:35:00 8.4 C 8.23 g/m*3 8.4 C 0 km/h
69 23-10-2019 05:40:00 8.4 C 8.23 g/m*3 8.4 C 0 km/h
70 23-10-2019 05:45:00 8.3 C 8.18 g/m*3 8.3 C 0 km/h
71 23-10-2019 05:50:00 8.2 C 8.12 g/m*3 8.2 C 0 km/h
72 23-10-2019 05:55:00 8.2 C 8.12 g/m*3 8.2 C 0 km/h
73 23-10-2019 06:00:00 8.2 C 8.12 g/m*3 8.2 C 0 km/h
74 23-10-2019 06:05:00 8.3 C 8.18 g/m*3 8.3 C 0 km/h
75 23-10-2019 06:10:00 8.3 C 8.18 g/m*3 8.3 C 0 km/h
Sensor: Nr:Datum:Temp:Abs-Feuchte:Windchill:Wind:
Aussen-T/F 76 23-10-2019 06:15:00 8.3 C 8.18 g/m*3 8.3 C 0 km/h
77 23-10-2019 06:20:00 8.3 C 8.18 g/m*3 8.3 C 0 km/h
78 23-10-2019 06:25:00 8.1 C 8.07 g/m*3 8.1 C 0 km/h
79 23-10-2019 06:30:00 8 C 8.02 g/m*3 8 C 0 km/h
80 23-10-2019 06:35:00 7.9 C 7.97 g/m*3 7.9 C 0 km/h
81 23-10-2019 06:40:00 7.9 C 7.97 g/m*3 7.9 C 0 km/h
82 23-10-2019 06:45:00 8 C 8.02 g/m*3 8 C 0 km/h
83 23-10-2019 06:50:00 8.1 C 8.07 g/m*3 8.1 C 0 km/h
84 23-10-2019 06:55:00 8.2 C 8.12 g/m*3 8.2 C 0 km/h
85 23-10-2019 07:00:00 8.3 C 8.18 g/m*3 8.3 C 0 km/h
86 23-10-2019 07:05:00 8.3 C 8.18 g/m*3 8.3 C 0 km/h
87 23-10-2019 07:10:00 8.2 C 8.12 g/m*3 8.2 C 0 km/h
88 23-10-2019 07:15:00 8.2 C 8.12 g/m*3 8.2 C 0 km/h
89 23-10-2019 07:20:00 8.1 C 8.07 g/m*3 8.1 C 0 km/h
90 23-10-2019 07:25:00 8 C 8.02 g/m*3 8 C 0 km/h
91 23-10-2019 07:30:00 7.9 C 7.97 g/m*3 7.9 C 0 km/h
92 23-10-2019 07:35:00 7.8 C 7.92 g/m*3 7.8 C 0 km/h
93 23-10-2019 07:40:00 7.8 C 7.92 g/m*3 7.8 C 0 km/h
94 23-10-2019 07:45:00 7.7 C 7.87 g/m*3 7.7 C 0 km/h
95 23-10-2019 07:50:00 7.6 C 7.81 g/m*3 7.6 C 0 km/h
96 23-10-2019 07:55:00 7.5 C 7.76 g/m*3 7.5 C 0 km/h
97 23-10-2019 08:00:00 7.4 C 7.71 g/m*3 7.4 C 0 km/h
98 23-10-2019 08:05:00 7.4 C 7.71 g/m*3 7.4 C 0 km/h
99 23-10-2019 08:10:00 7.4 C 7.71 g/m*3 7.4 C 0 km/h
100 23-10-2019 08:15:00 7.6 C 7.81 g/m*3 7.6 C 0 km/h
Sensor: Nr:Datum:Temp:Abs-Feuchte:Windchill:Wind:
Aussen-T/F 101 23-10-2019 08:20:00 7.8 C 7.92 g/m*3 7.8 C 0 km/h
102 23-10-2019 08:25:00 7.9 C 8.05 g/m*3 7.9 C 1.6 km/h
103 23-10-2019 08:30:00 8 C 8.02 g/m*3 8 C 0 km/h
104 23-10-2019 08:35:00 8.1 C 8.07 g/m*3 8.1 C 0 km/h
105 23-10-2019 08:40:00 8.1 C 8.07 g/m*3 8.1 C 0 km/h
106 23-10-2019 08:45:00 8.2 C 8.12 g/m*3 8.2 C 0 km/h
107 23-10-2019 08:50:00 8.2 C 8.21 g/m*3 8.2 C 0 km/h
108 23-10-2019 08:55:00 8.3 C 8.26 g/m*3 8.3 C 0 km/h
109 23-10-2019 09:00:00 8.3 C 8.26 g/m*3 8.3 C 0 km/h
110 23-10-2019 09:05:00 8.4 C 8.23 g/m*3 8.4 C 0 km/h
111 23-10-2019 09:10:00 8.4 C 8.23 g/m*3 8.4 C 0 km/h
112 23-10-2019 09:15:00 8.6 C 8.42 g/m*3 8.6 C 0 km/h
113 23-10-2019 09:20:00 8.6 C 8.42 g/m*3 8.6 C 1.6 km/h
114 23-10-2019 09:25:00 8.7 C 8.48 g/m*3 8.7 C 1.6 km/h
115 23-10-2019 09:30:00 8.8 C 8.53 g/m*3 8.8 C 0 km/h
116 23-10-2019 09:35:00 8.8 C 8.53 g/m*3 8.8 C 0 km/h
117 23-10-2019 09:40:00 8.9 C 8.58 g/m*3 8.9 C 3.2 km/h
118 23-10-2019 09:45:00 8.9 C 8.58 g/m*3 8.9 C 3.2 km/h
119 23-10-2019 09:50:00 9 C 8.64 g/m*3 9 C 1.6 km/h
120 23-10-2019 09:55:00 9.1 C 8.7 g/m*3 9.1 C 1.6 km/h
121 23-10-2019 10:00:00 9.1 C 8.7 g/m*3 9.1 C 1.6 km/h
122 23-10-2019 10:05:00 9.2 C 8.75 g/m*3 9.2 C 0 km/h
123 23-10-2019 10:10:00 9.3 C 8.81 g/m*3 9.3 C 0 km/h
124 23-10-2019 10:15:00 9.4 C 8.86 g/m*3 9.4 C 0 km/h
125 23-10-2019 10:20:00 9.4 C 8.86 g/m*3 9.4 C 0 km/h
Sensor: Nr:Datum:Temp:Abs-Feuchte:Windchill:Wind:
Aussen-T/F 126 23-10-2019 10:25:00 9.6 C 8.98 g/m*3 9.6 C 0 km/h
127 23-10-2019 10:30:00 9.6 C 8.98 g/m*3 9.6 C 0 km/h
128 23-10-2019 10:35:00 9.7 C 9.03 g/m*3 9.7 C 0 km/h
129 23-10-2019 10:40:00 9.8 C 9.09 g/m*3 9.8 C 0 km/h
130 23-10-2019 10:45:00 9.9 C 9.15 g/m*3 9.9 C 0 km/h
131 23-10-2019 10:50:00 10.1 C 9.27 g/m*3 10.1 C 0 km/h
132 23-10-2019 10:55:00 10.2 C 9.33 g/m*3 10.2 C 0 km/h
133 23-10-2019 11:00:00 10.3 C 9.39 g/m*3 10.3 C 1.6 km/h
134 23-10-2019 11:05:00 10.4 C 9.44 g/m*3 10.4 C 0 km/h
135 23-10-2019 11:10:00 10.6 C 9.57 g/m*3 10.6 C 0 km/h
136 23-10-2019 11:15:00 10.7 C 9.63 g/m*3 10.7 C 0 km/h
137 23-10-2019 11:20:00 10.9 C 9.75 g/m*3 10.9 C 4.8 km/h
138 23-10-2019 11:25:00 11.1 C 9.87 g/m*3 11.1 C 0 km/h
139 23-10-2019 11:30:00 11.2 C 9.93 g/m*3 11.2 C 0 km/h
140 23-10-2019 11:35:00 11.3 C 10 g/m*3 11.3 C 6.4 km/h
141 23-10-2019 11:40:00 11.3 C 10 g/m*3 11.3 C 8.1 km/h
142 23-10-2019 11:45:00 11.3 C 10 g/m*3 11.3 C 4.8 km/h
143 23-10-2019 11:50:00 11.3 C 10 g/m*3 11.3 C 6.4 km/h
144 23-10-2019 11:55:00 11.4 C 10.06 g/m*3 11.4 C 6.4 km/h
145 23-10-2019 12:00:00 11.4 C 10.06 g/m*3 11.4 C 3.2 km/h
146 23-10-2019 12:05:00 11.5 C 10.12 g/m*3 11.5 C 4.8 km/h
147 23-10-2019 12:10:00 11.6 C 10.19 g/m*3 11.6 C 9.7 km/h
148 23-10-2019 12:15:00 11.7 C 10.25 g/m*3 11.7 C 9.7 km/h
149 23-10-2019 12:20:00 11.7 C 10.15 g/m*3 11.7 C 6.4 km/h
150 23-10-2019 12:25:00 11.7 C 10.15 g/m*3 11.7 C 8.1 km/h
Sensor: Nr:Datum:Temp:Abs-Feuchte:Windchill:Wind:
Aussen-T/F 151 23-10-2019 12:30:00 11.8 C 10.1 g/m*3 11.8 C 8.1 km/h
152 23-10-2019 12:35:00 11.9 C 10.17 g/m*3 11.9 C 6.4 km/h
153 23-10-2019 12:40:00 12 C 10.12 g/m*3 12 C 9.7 km/h
154 23-10-2019 12:45:00 12.1 C 10.19 g/m*3 12.1 C 4.8 km/h
155 23-10-2019 12:50:00 12.2 C 10.25 g/m*3 12.2 C 6.4 km/h
156 23-10-2019 12:55:00 12.3 C 10.21 g/m*3 12.3 C 8.1 km/h
157 23-10-2019 13:00:00 12.4 C 10.27 g/m*3 12.4 C 6.4 km/h
158 23-10-2019 13:05:00 12.6 C 10.29 g/m*3 12.6 C 1.6 km/h
159 23-10-2019 13:10:00 12.7 C 10.35 g/m*3 12.7 C 8.1 km/h
160 23-10-2019 13:15:00 12.8 C 10.42 g/m*3 12.8 C 9.7 km/h
161 23-10-2019 13:20:00 12.8 C 10.3 g/m*3 12.8 C 11.3 km/h
162 23-10-2019 13:25:00 12.9 C 10.37 g/m*3 12.9 C 3.2 km/h
163 23-10-2019 13:30:00 13 C 10.43 g/m*3 13 C 3.2 km/h
164 23-10-2019 13:35:00 13.1 C 10.5 g/m*3 13.1 C 0 km/h
165 23-10-2019 13:40:00 13.2 C 10.56 g/m*3 13.2 C 3.2 km/h
166 23-10-2019 13:45:00 13.3 C 10.63 g/m*3 13.3 C 1.6 km/h
167 23-10-2019 13:50:00 13.3 C 10.51 g/m*3 13.3 C 8.1 km/h
168 23-10-2019 13:55:00 13.4 C 10.58 g/m*3 13.4 C 9.7 km/h
169 23-10-2019 14:00:00 13.4 C 10.46 g/m*3 13.4 C 8.1 km/h
170 23-10-2019 14:05:00 13.6 C 10.71 g/m*3 13.6 C 9.7 km/h
171 23-10-2019 14:10:00 13.7 C 10.66 g/m*3 13.7 C 8.1 km/h
172 23-10-2019 14:15:00 13.7 C 10.66 g/m*3 13.7 C 6.4 km/h
173 23-10-2019 14:20:00 13.8 C 10.72 g/m*3 13.8 C 6.4 km/h
174 23-10-2019 14:25:00 13.8 C 10.72 g/m*3 13.8 C 6.4 km/h
175 23-10-2019 14:30:00 13.9 C 10.79 g/m*3 13.9 C 4.8 km/h
Sensor: Nr:Datum:Temp:Abs-Feuchte:Windchill:Wind:
Aussen-T/F 176 23-10-2019 14:35:00 13.9 C 10.79 g/m*3 13.9 C 4.8 km/h
177 23-10-2019 14:40:00 14 C 10.74 g/m*3 14 C 3.2 km/h
178 23-10-2019 14:45:00 14.1 C 10.8 g/m*3 14.1 C 6.4 km/h
179 23-10-2019 14:50:00 14.1 C 10.8 g/m*3 14.1 C 11.3 km/h
180 23-10-2019 14:55:00 14.1 C 10.8 g/m*3 14.1 C 8.1 km/h
181 23-10-2019 15:00:00 14.1 C 10.8 g/m*3 14.1 C 8.1 km/h
182 23-10-2019 15:05:00 14.2 C 10.87 g/m*3 14.2 C 4.8 km/h
183 23-10-2019 15:10:00 14.2 C 10.87 g/m*3 14.2 C 6.4 km/h
184 23-10-2019 15:15:00 14.2 C 10.87 g/m*3 14.2 C 4.8 km/h
185 23-10-2019 15:20:00 14.2 C 10.87 g/m*3 14.2 C 3.2 km/h
186 23-10-2019 15:25:00 14.3 C 10.93 g/m*3 14.3 C 1.6 km/h
187 23-10-2019 15:30:00 14.3 C 10.93 g/m*3 14.3 C 3.2 km/h
188 23-10-2019 15:35:00 14.3 C 10.93 g/m*3 14.3 C 1.6 km/h
189 23-10-2019 15:40:00 14.4 C 11 g/m*3 14.4 C 1.6 km/h
190 23-10-2019 15:45:00 14.4 C 11 g/m*3 14.4 C 0 km/h
191 23-10-2019 15:50:00 14.5 C 11.19 g/m*3 14.5 C 0 km/h
192 23-10-2019 15:55:00 14.5 C 11.07 g/m*3 14.5 C 4.8 km/h
193 23-10-2019 16:00:00 14.6 C 11.14 g/m*3 14.6 C 0 km/h
194 23-10-2019 16:05:00 14.6 C 11.14 g/m*3 14.6 C 3.2 km/h
195 23-10-2019 16:10:00 14.7 C 11.33 g/m*3 14.7 C 0 km/h
196 23-10-2019 16:15:00 14.7 C 11.33 g/m*3 14.7 C 3.2 km/h
197 23-10-2019 16:20:00 14.8 C 11.27 g/m*3 14.8 C 3.2 km/h
198 23-10-2019 16:25:00 14.8 C 11.27 g/m*3 14.8 C 0 km/h
199 23-10-2019 16:30:00 14.8 C 11.4 g/m*3 14.8 C 0 km/h
200 23-10-2019 16:35:00 14.9 C 11.34 g/m*3 14.9 C 0 km/h
Sensor: Nr:Datum:Temp:Abs-Feuchte:Windchill:Wind:
Aussen-T/F 201 23-10-2019 16:40:00 14.9 C 11.34 g/m*3 14.9 C 0 km/h
202 23-10-2019 16:45:00 14.9 C 11.34 g/m*3 14.9 C 0 km/h
203 23-10-2019 16:50:00 14.9 C 11.34 g/m*3 14.9 C 0 km/h
204 23-10-2019 16:55:00 14.9 C 11.34 g/m*3 14.9 C 1.6 km/h
205 23-10-2019 17:00:00 14.9 C 11.22 g/m*3 14.9 C 1.6 km/h
206 23-10-2019 17:05:00 14.9 C 11.34 g/m*3 14.9 C 0 km/h
207 23-10-2019 17:10:00 15 C 11.54 g/m*3 15 C 0 km/h
208 23-10-2019 17:15:00 15.1 C 11.61 g/m*3 15.1 C 0 km/h
209 23-10-2019 17:20:00 15.1 C 11.61 g/m*3 15.1 C 0 km/h
210 23-10-2019 17:25:00 15 C 11.54 g/m*3 15 C 0 km/h
211 23-10-2019 17:30:00 15 C 11.54 g/m*3 15 C 0 km/h
212 23-10-2019 17:35:00 15 C 11.54 g/m*3 15 C 0 km/h
213 23-10-2019 17:40:00 14.9 C 11.6 g/m*3 14.9 C 0 km/h
214 23-10-2019 17:45:00 14.9 C 11.6 g/m*3 14.9 C 0 km/h
215 23-10-2019 17:50:00 14.8 C 11.53 g/m*3 14.8 C 0 km/h
216 23-10-2019 17:55:00 14.7 C 11.46 g/m*3 14.7 C 0 km/h
217 23-10-2019 18:00:00 14.7 C 11.46 g/m*3 14.7 C 0 km/h
218 23-10-2019 18:05:00 14.6 C 11.39 g/m*3 14.6 C 0 km/h
219 23-10-2019 18:10:00 14.4 C 11.25 g/m*3 14.4 C 0 km/h
220 23-10-2019 18:15:00 14.4 C 11.25 g/m*3 14.4 C 0 km/h
221 23-10-2019 18:20:00 14.3 C 11.3 g/m*3 14.3 C 0 km/h
222 23-10-2019 18:25:00 14.2 C 11.23 g/m*3 14.2 C 0 km/h
223 23-10-2019 18:30:00 14.1 C 11.17 g/m*3 14.1 C 0 km/h
224 23-10-2019 18:35:00 14.1 C 11.17 g/m*3 14.1 C 0 km/h
225 23-10-2019 18:40:00 13.9 C 11.03 g/m*3 13.9 C 0 km/h
Sensor: Nr:Datum:Temp:Abs-Feuchte:Windchill:Wind:
Aussen-T/F 226 23-10-2019 18:45:00 13.9 C 11.03 g/m*3 13.9 C 0 km/h
227 23-10-2019 18:50:00 13.8 C 10.96 g/m*3 13.8 C 0 km/h
228 23-10-2019 18:55:00 13.7 C 10.89 g/m*3 13.7 C 0 km/h
229 23-10-2019 19:00:00 13.6 C 10.95 g/m*3 13.6 C 0 km/h
230 23-10-2019 19:05:00 13.6 C 10.95 g/m*3 13.6 C 0 km/h
231 23-10-2019 19:10:00 13.5 C 10.88 g/m*3 13.5 C 1.6 km/h
232 23-10-2019 19:15:00 13.4 C 10.81 g/m*3 13.4 C 0 km/h
233 23-10-2019 19:20:00 13.4 C 10.81 g/m*3 13.4 C 0 km/h
234 23-10-2019 19:25:00 13.4 C 10.81 g/m*3 13.4 C 0 km/h
235 23-10-2019 19:30:00 13.3 C 10.86 g/m*3 13.3 C 0 km/h
236 23-10-2019 19:35:00 13.3 C 10.86 g/m*3 13.3 C 0 km/h
237 23-10-2019 19:40:00 13.3 C 10.86 g/m*3 13.3 C 0 km/h
238 23-10-2019 19:45:00 13.3 C 10.86 g/m*3 13.3 C 0 km/h
239 23-10-2019 19:50:00 13.3 C 10.86 g/m*3 13.3 C 0 km/h
240 23-10-2019 19:55:00 13.3 C 10.86 g/m*3 13.3 C 0 km/h
241 23-10-2019 20:00:00 13.3 C 10.86 g/m*3 13.3 C 0 km/h
242 23-10-2019 20:05:00 13.3 C 10.86 g/m*3 13.3 C 0 km/h
243 23-10-2019 20:10:00 13.3 C 10.86 g/m*3 13.3 C 0 km/h
244 23-10-2019 20:15:00 13.3 C 10.86 g/m*3 13.3 C 0 km/h
245 23-10-2019 20:20:00 13.3 C 10.86 g/m*3 13.3 C 0 km/h
246 23-10-2019 20:25:00 13.2 C 10.79 g/m*3 13.2 C 0 km/h
247 23-10-2019 20:30:00 13.2 C 10.79 g/m*3 13.2 C 0 km/h
248 23-10-2019 20:35:00 13.2 C 10.79 g/m*3 13.2 C 0 km/h
249 23-10-2019 20:40:00 13.2 C 10.91 g/m*3 13.2 C 0 km/h
250 23-10-2019 20:45:00 13.2 C 10.91 g/m*3 13.2 C 0 km/h
Sensor: Nr:Datum:Temp:Abs-Feuchte:Windchill:Wind:
Aussen-T/F 251 23-10-2019 20:50:00 13.2 C 10.91 g/m*3 13.2 C 0 km/h
252 23-10-2019 20:55:00 13.2 C 10.91 g/m*3 13.2 C 0 km/h
253 23-10-2019 21:00:00 13.2 C 10.91 g/m*3 13.2 C 0 km/h
254 23-10-2019 21:05:00 13.2 C 10.91 g/m*3 13.2 C 0 km/h
255 23-10-2019 21:10:00 13.2 C 10.91 g/m*3 13.2 C 0 km/h
256 23-10-2019 21:15:00 13.2 C 10.91 g/m*3 13.2 C 0 km/h
257 23-10-2019 21:20:00 13.2 C 10.91 g/m*3 13.2 C 0 km/h
258 23-10-2019 21:25:00 13.2 C 10.91 g/m*3 13.2 C 0 km/h
259 23-10-2019 21:30:00 13.2 C 10.91 g/m*3 13.2 C 0 km/h
260 23-10-2019 21:35:00 13.2 C 10.91 g/m*3 13.2 C 0 km/h
261 23-10-2019 21:40:00 13.2 C 10.91 g/m*3 13.2 C 0 km/h
262 23-10-2019 21:45:00 13.2 C 10.91 g/m*3 13.2 C 0 km/h
263 23-10-2019 21:50:00 13.2 C 10.91 g/m*3 13.2 C 0 km/h
264 23-10-2019 21:55:00 13.1 C 10.84 g/m*3 13.1 C 0 km/h
265 23-10-2019 22:00:00 13.1 C 10.84 g/m*3 13.1 C 0 km/h
266 23-10-2019 22:05:00 13.1 C 10.84 g/m*3 13.1 C 0 km/h
267 23-10-2019 22:10:00 13 C 10.77 g/m*3 13 C 0 km/h
268 23-10-2019 22:15:00 12.9 C 10.71 g/m*3 12.9 C 0 km/h
269 23-10-2019 22:20:00 12.9 C 10.71 g/m*3 12.9 C 0 km/h
270 23-10-2019 22:25:00 12.9 C 10.71 g/m*3 12.9 C 0 km/h
271 23-10-2019 22:30:00 12.9 C 10.71 g/m*3 12.9 C 0 km/h
272 23-10-2019 22:35:00 12.9 C 10.71 g/m*3 12.9 C 0 km/h
273 23-10-2019 22:40:00 12.9 C 10.71 g/m*3 12.9 C 0 km/h
274 23-10-2019 22:45:00 12.9 C 10.71 g/m*3 12.9 C 0 km/h
275 23-10-2019 22:50:00 12.9 C 10.71 g/m*3 12.9 C 0 km/h
Sensor: Nr:Datum:Temp:Abs-Feuchte:Windchill:Wind:
Aussen-T/F 276 23-10-2019 22:55:00 12.9 C 10.71 g/m*3 12.9 C 0 km/h
277 23-10-2019 23:00:00 12.9 C 10.71 g/m*3 12.9 C 0 km/h
278 23-10-2019 23:05:00 12.8 C 10.64 g/m*3 12.8 C 0 km/h
279 23-10-2019 23:10:00 12.8 C 10.64 g/m*3 12.8 C 0 km/h
280 23-10-2019 23:15:00 12.8 C 10.64 g/m*3 12.8 C 0 km/h
281 23-10-2019 23:20:00 12.8 C 10.64 g/m*3 12.8 C 0 km/h
282 23-10-2019 23:25:00 12.8 C 10.64 g/m*3 12.8 C 0 km/h
283 23-10-2019 23:30:00 12.8 C 10.64 g/m*3 12.8 C 0 km/h
284 23-10-2019 23:35:00 12.8 C 10.64 g/m*3 12.8 C 0 km/h
285 23-10-2019 23:40:00 12.7 C 10.58 g/m*3 12.7 C 0 km/h
286 23-10-2019 23:45:00 12.7 C 10.58 g/m*3 12.7 C 0 km/h
287 23-10-2019 23:50:00 12.7 C 10.58 g/m*3 12.7 C 0 km/h
288 23-10-2019 23:55:00 12.6 C 10.51 g/m*3 12.6 C 0 km/h
289 24-10-2019 00:00:00 12.6 C 10.51 g/m*3 12.6 C 0 km/h
290 24-10-2019 00:05:00 12.6 C 10.62 g/m*3 12.6 C 0 km/h
291 24-10-2019 00:10:00 12.6 C 10.62 g/m*3 12.6 C 0 km/h
292 24-10-2019 00:15:00 12.5 C 10.44 g/m*3 12.5 C 0 km/h
293 24-10-2019 00:20:00 12.4 C 10.38 g/m*3 12.4 C 0 km/h
294 24-10-2019 00:25:00 12.4 C 10.38 g/m*3 12.4 C 0 km/h
295 24-10-2019 00:30:00 12.4 C 10.38 g/m*3 12.4 C 0 km/h
296 24-10-2019 00:35:00 12.3 C 10.42 g/m*3 12.3 C 0 km/h
297 24-10-2019 00:40:00 12.3 C 10.42 g/m*3 12.3 C 0 km/h
298 24-10-2019 00:45:00 12.2 C 10.36 g/m*3 12.2 C 0 km/h
299 24-10-2019 00:50:00 12.2 C 10.36 g/m*3 12.2 C 0 km/h
300 24-10-2019 00:55:00 12.2 C 10.36 g/m*3 12.2 C 0 km/h
Sensor: Nr:Datum:Temp:Abs-Feuchte:Windchill:Wind:
Aussen-T/F 301 24-10-2019 01:00:00 12.2 C 10.36 g/m*3 12.2 C 0 km/h
302 24-10-2019 01:05:00 12.1 C 10.29 g/m*3 12.1 C 0 km/h
303 24-10-2019 01:10:00 12.1 C 10.29 g/m*3 12.1 C 0 km/h
304 24-10-2019 01:15:00 12.1 C 10.29 g/m*3 12.1 C 0 km/h
305 24-10-2019 01:20:00 12.1 C 10.29 g/m*3 12.1 C 0 km/h
306 24-10-2019 01:25:00 12.1 C 10.29 g/m*3 12.1 C 0 km/h
307 24-10-2019 01:30:00 12.1 C 10.29 g/m*3 12.1 C 1.6 km/h
308 24-10-2019 01:35:00 12.1 C 10.29 g/m*3 12.1 C 0 km/h
309 24-10-2019 01:40:00 12.2 C 10.36 g/m*3 12.2 C 6.4 km/h
310 24-10-2019 01:45:00 12.2 C 10.36 g/m*3 12.2 C 0 km/h
311 24-10-2019 01:50:00 12.3 C 10.42 g/m*3 12.3 C 0 km/h
312 24-10-2019 01:55:00 12.3 C 10.42 g/m*3 12.3 C 0 km/h
313 24-10-2019 02:00:00 12.3 C 10.42 g/m*3 12.3 C 0 km/h
314 24-10-2019 02:05:00 12.4 C 10.6 g/m*3 12.4 C 0 km/h
315 24-10-2019 02:10:00 12.4 C 10.6 g/m*3 12.4 C 0 km/h
316 24-10-2019 02:15:00 12.4 C 10.6 g/m*3 12.4 C 0 km/h
317 24-10-2019 02:20:00 12.4 C 10.6 g/m*3 12.4 C 0 km/h
318 24-10-2019 02:25:00 12.3 C 10.42 g/m*3 12.3 C 0 km/h
319 24-10-2019 02:30:00 12.2 C 10.36 g/m*3 12.2 C 0 km/h
320 24-10-2019 02:35:00 12.2 C 10.36 g/m*3 12.2 C 0 km/h
321 24-10-2019 02:40:00 12.2 C 10.36 g/m*3 12.2 C 0 km/h
322 24-10-2019 02:45:00 12.1 C 10.29 g/m*3 12.1 C 0 km/h
323 24-10-2019 02:50:00 12.1 C 10.29 g/m*3 12.1 C 0 km/h
324 24-10-2019 02:55:00 12.1 C 10.29 g/m*3 12.1 C 0 km/h
325 24-10-2019 03:00:00 12 C 10.23 g/m*3 12 C 0 km/h
Sensor: Nr:Datum:Temp:Abs-Feuchte:Windchill:Wind:
Aussen-T/F 326 24-10-2019 03:05:00 12 C 10.23 g/m*3 12 C 0 km/h
327 24-10-2019 03:10:00 11.9 C 10.17 g/m*3 11.9 C 0 km/h
328 24-10-2019 03:15:00 11.9 C 10.17 g/m*3 11.9 C 0 km/h
329 24-10-2019 03:20:00 11.9 C 10.17 g/m*3 11.9 C 0 km/h
330 24-10-2019 03:25:00 11.9 C 10.17 g/m*3 11.9 C 0 km/h
331 24-10-2019 03:30:00 11.8 C 10.1 g/m*3 11.8 C 0 km/h
332 24-10-2019 03:35:00 11.7 C 10.04 g/m*3 11.7 C 0 km/h
333 24-10-2019 03:40:00 11.7 C 10.04 g/m*3 11.7 C 0 km/h
334 24-10-2019 03:45:00 11.7 C 10.04 g/m*3 11.7 C 0 km/h
335 24-10-2019 03:50:00 11.7 C 10.04 g/m*3 11.7 C 0 km/h
336 24-10-2019 03:55:00 11.6 C 9.98 g/m*3 11.6 C 0 km/h
337 24-10-2019 04:00:00 11.6 C 9.98 g/m*3 11.6 C 0 km/h
338 24-10-2019 04:05:00 11.6 C 10.08 g/m*3 11.6 C 0 km/h
339 24-10-2019 04:10:00 11.6 C 10.08 g/m*3 11.6 C 0 km/h
340 24-10-2019 04:15:00 11.4 C 9.85 g/m*3 11.4 C 0 km/h
341 24-10-2019 04:20:00 11.4 C 9.96 g/m*3 11.4 C 0 km/h
342 24-10-2019 04:25:00 11.4 C 9.96 g/m*3 11.4 C 0 km/h
343 24-10-2019 04:30:00 11.6 C 10.08 g/m*3 11.6 C 0 km/h
344 24-10-2019 04:35:00 11.6 C 10.08 g/m*3 11.6 C 0 km/h
345 24-10-2019 04:40:00 11.7 C 10.15 g/m*3 11.7 C 0 km/h
346 24-10-2019 04:45:00 11.7 C 10.15 g/m*3 11.7 C 0 km/h
347 24-10-2019 04:50:00 11.7 C 10.15 g/m*3 11.7 C 0 km/h
348 24-10-2019 04:55:00 11.8 C 10.21 g/m*3 11.8 C 0 km/h
349 24-10-2019 05:00:00 11.7 C 10.15 g/m*3 11.7 C 0 km/h
350 24-10-2019 05:05:00 11.8 C 10.21 g/m*3 11.8 C 0 km/h
Sensor: Nr:Datum:Temp:Abs-Feuchte:Windchill:Wind:
Aussen-T/F 351 24-10-2019 05:10:00 11.8 C 10.21 g/m*3 11.8 C 0 km/h
352 24-10-2019 05:15:00 11.8 C 10.21 g/m*3 11.8 C 0 km/h
353 24-10-2019 05:20:00 11.8 C 10.21 g/m*3 11.8 C 0 km/h
354 24-10-2019 05:25:00 11.8 C 10.21 g/m*3 11.8 C 0 km/h
355 24-10-2019 05:30:00 11.8 C 10.21 g/m*3 11.8 C 1.6 km/h
356 24-10-2019 05:35:00 11.9 C 10.27 g/m*3 11.9 C 0 km/h
357 24-10-2019 05:40:00 11.9 C 10.27 g/m*3 11.9 C 0 km/h
358 24-10-2019 05:45:00 11.9 C 10.27 g/m*3 11.9 C 0 km/h
359 24-10-2019 05:50:00 12 C 10.34 g/m*3 12 C 0 km/h
360 24-10-2019 05:55:00 12 C 10.34 g/m*3 12 C 0 km/h
361 24-10-2019 06:00:00 11.9 C 10.27 g/m*3 11.9 C 0 km/h
362 24-10-2019 06:05:00 11.9 C 10.27 g/m*3 11.9 C 0 km/h
363 24-10-2019 06:10:00 11.8 C 10.21 g/m*3 11.8 C 0 km/h
364 24-10-2019 06:15:00 11.8 C 10.21 g/m*3 11.8 C 0 km/h
365 24-10-2019 06:20:00 11.7 C 10.15 g/m*3 11.7 C 0 km/h
366 24-10-2019 06:25:00 11.7 C 10.15 g/m*3 11.7 C 0 km/h
367 24-10-2019 06:30:00 11.7 C 10.15 g/m*3 11.7 C 0 km/h
368 24-10-2019 06:35:00 11.8 C 10.21 g/m*3 11.8 C 0 km/h
369 24-10-2019 06:40:00 11.9 C 10.27 g/m*3 11.9 C 0 km/h
370 24-10-2019 06:45:00 12.1 C 10.4 g/m*3 12.1 C 3.2 km/h
371 24-10-2019 06:50:00 12.2 C 10.47 g/m*3 12.2 C 0 km/h
372 24-10-2019 06:55:00 12.2 C 10.58 g/m*3 12.2 C 3.2 km/h
373 24-10-2019 07:00:00 12.3 C 10.64 g/m*3 12.3 C 1.6 km/h
374 24-10-2019 07:05:00 12.3 C 10.53 g/m*3 12.3 C 3.2 km/h
375 24-10-2019 07:10:00 12.3 C 10.53 g/m*3 12.3 C 0 km/h
Sensor: Nr:Datum:Temp:Abs-Feuchte:Windchill:Wind:
Aussen-T/F 376 24-10-2019 07:15:00 12.3 C 10.53 g/m*3 12.3 C 0 km/h
377 24-10-2019 07:20:00 12.3 C 10.53 g/m*3 12.3 C 0 km/h
378 24-10-2019 07:25:00 12.3 C 10.53 g/m*3 12.3 C 0 km/h
379 24-10-2019 07:30:00 12.3 C 10.53 g/m*3 12.3 C 0 km/h
380 24-10-2019 07:35:00 12.3 C 10.53 g/m*3 12.3 C 1.6 km/h
381 24-10-2019 07:40:00 12.4 C 10.6 g/m*3 12.4 C 0 km/h
382 24-10-2019 07:45:00 12.4 C 10.6 g/m*3 12.4 C 0 km/h
383 24-10-2019 07:50:00 12.4 C 10.6 g/m*3 12.4 C 1.6 km/h
384 24-10-2019 07:55:00 12.4 C 10.6 g/m*3 12.4 C 0 km/h
385 24-10-2019 08:00:00 12.4 C 10.6 g/m*3 12.4 C 0 km/h
386 24-10-2019 08:05:00 12.4 C 10.6 g/m*3 12.4 C 3.2 km/h
387 24-10-2019 08:10:00 12.4 C 10.6 g/m*3 12.4 C 1.6 km/h
388 24-10-2019 08:15:00 12.4 C 10.6 g/m*3 12.4 C 1.6 km/h
389 24-10-2019 08:20:00 12.4 C 10.6 g/m*3 12.4 C 0 km/h
390 24-10-2019 08:25:00 12.4 C 10.6 g/m*3 12.4 C 1.6 km/h
391 24-10-2019 08:30:00 12.5 C 10.66 g/m*3 12.5 C 0 km/h
392 24-10-2019 08:35:00 12.6 C 10.73 g/m*3 12.6 C 0 km/h
393 24-10-2019 08:40:00 12.6 C 10.73 g/m*3 12.6 C 0 km/h
394 24-10-2019 08:45:00 12.6 C 10.73 g/m*3 12.6 C 0 km/h
395 24-10-2019 08:50:00 12.6 C 10.73 g/m*3 12.6 C 0 km/h
396 24-10-2019 08:55:00 12.6 C 10.73 g/m*3 12.6 C 0 km/h
397 24-10-2019 09:00:00 12.7 C 10.8 g/m*3 12.7 C 0 km/h
398 24-10-2019 09:05:00 12.8 C 10.87 g/m*3 12.8 C 0 km/h
399 24-10-2019 09:10:00 12.9 C 10.93 g/m*3 12.9 C 0 km/h
400 24-10-2019 09:15:00 12.9 C 10.93 g/m*3 12.9 C 0 km/h
Sensor: Nr:Datum:Temp:Abs-Feuchte:Windchill:Wind:
Aussen-T/F 401 24-10-2019 09:20:00 13 C 11 g/m*3 13 C 0 km/h
402 24-10-2019 09:25:00 13 C 11 g/m*3 13 C 0 km/h
403 24-10-2019 09:30:00 13.1 C 11.07 g/m*3 13.1 C 0 km/h
404 24-10-2019 09:35:00 13.1 C 11.07 g/m*3 13.1 C 0 km/h
405 24-10-2019 09:40:00 13.1 C 11.07 g/m*3 13.1 C 0 km/h
406 24-10-2019 09:45:00 13.1 C 11.07 g/m*3 13.1 C 0 km/h
407 24-10-2019 09:50:00 13.2 C 11.14 g/m*3 13.2 C 0 km/h
408 24-10-2019 09:55:00 13.3 C 11.21 g/m*3 13.3 C 0 km/h
409 24-10-2019 10:00:00 13.3 C 11.21 g/m*3 13.3 C 0 km/h
410 24-10-2019 10:05:00 13.3 C 11.21 g/m*3 13.3 C 1.6 km/h
411 24-10-2019 10:10:00 13.4 C 11.28 g/m*3 13.4 C 0 km/h
412 24-10-2019 10:15:00 13.4 C 11.28 g/m*3 13.4 C 1.6 km/h
413 24-10-2019 10:20:00 13.5 C 11.35 g/m*3 13.5 C 0 km/h
414 24-10-2019 10:25:00 13.5 C 11.35 g/m*3 13.5 C 0 km/h
415 24-10-2019 10:30:00 13.6 C 11.42 g/m*3 13.6 C 0 km/h
416 24-10-2019 10:35:00 13.7 C 11.49 g/m*3 13.7 C 0 km/h
417 24-10-2019 10:40:00 13.8 C 11.56 g/m*3 13.8 C 0 km/h
418 24-10-2019 10:45:00 13.8 C 11.56 g/m*3 13.8 C 6.4 km/h
419 24-10-2019 10:50:00 13.8 C 11.44 g/m*3 13.8 C 1.6 km/h
420 24-10-2019 10:55:00 13.9 C 11.51 g/m*3 13.9 C 0 km/h
421 24-10-2019 11:00:00 14.1 C 11.65 g/m*3 14.1 C 0 km/h
422 24-10-2019 11:05:00 14.1 C 11.53 g/m*3 14.1 C 0 km/h
423 24-10-2019 11:10:00 14.2 C 11.6 g/m*3 14.2 C 0 km/h
424 24-10-2019 11:15:00 14.3 C 11.67 g/m*3 14.3 C 1.6 km/h
425 24-10-2019 11:20:00 14.4 C 11.62 g/m*3 14.4 C 0 km/h
Sensor: Nr:Datum:Temp:Abs-Feuchte:Windchill:Wind:
Aussen-T/F 426 24-10-2019 11:25:00 14.5 C 11.69 g/m*3 14.5 C 0 km/h
427 24-10-2019 11:30:00 14.6 C 11.64 g/m*3 14.6 C 1.6 km/h
428 24-10-2019 11:35:00 14.7 C 11.71 g/m*3 14.7 C 1.6 km/h
429 24-10-2019 11:40:00 14.8 C 11.65 g/m*3 14.8 C 1.6 km/h
430 24-10-2019 11:45:00 14.8 C 11.65 g/m*3 14.8 C 0 km/h
431 24-10-2019 11:50:00 14.8 C 11.65 g/m*3 14.8 C 0 km/h
432 24-10-2019 11:55:00 14.9 C 11.73 g/m*3 14.9 C 0 km/h
433 24-10-2019 12:00:00 14.9 C 11.73 g/m*3 14.9 C 0 km/h
434 24-10-2019 12:05:00 15 C 11.8 g/m*3 15 C 0 km/h
435 24-10-2019 12:10:00 15 C 11.8 g/m*3 15 C 0 km/h
436 24-10-2019 12:15:00 15 C 11.8 g/m*3 15 C 0 km/h
437 24-10-2019 12:20:00 15 C 11.8 g/m*3 15 C 0 km/h
438 24-10-2019 12:25:00 15.1 C 12 g/m*3 15.1 C 0 km/h
439 24-10-2019 12:30:00 15.1 C 12 g/m*3 15.1 C 0 km/h
440 24-10-2019 12:35:00 15.1 C 12 g/m*3 15.1 C 0 km/h
441 24-10-2019 12:40:00 15.2 C 12.07 g/m*3 15.2 C 0 km/h
442 24-10-2019 12:45:00 15.4 C 12.22 g/m*3 15.4 C 0 km/h
443 24-10-2019 12:50:00 15.6 C 12.37 g/m*3 15.6 C 0 km/h
444 24-10-2019 12:55:00 15.7 C 12.44 g/m*3 15.7 C 0 km/h
445 24-10-2019 13:00:00 15.9 C 12.59 g/m*3 15.9 C 0 km/h
446 24-10-2019 13:05:00 15.9 C 12.46 g/m*3 15.9 C 0 km/h
447 24-10-2019 13:10:00 16.2 C 12.69 g/m*3 16.2 C 0 km/h
448 24-10-2019 13:15:00 16.3 C 12.76 g/m*3 16.3 C 0 km/h
449 24-10-2019 13:20:00 16.4 C 12.7 g/m*3 16.4 C 0 km/h
450 24-10-2019 13:25:00 16.4 C 12.56 g/m*3 16.4 C 1.6 km/h
Sensor: Nr:Datum:Temp:Abs-Feuchte:Windchill:Wind:
Aussen-T/F 451 24-10-2019 13:30:00 16.4 C 12.56 g/m*3 16.4 C 0 km/h
452 24-10-2019 13:35:00 16.4 C 12.42 g/m*3 16.4 C 1.6 km/h
453 24-10-2019 13:40:00 16.6 C 12.43 g/m*3 16.6 C 8.1 km/h
454 24-10-2019 13:45:00 16.8 C 12.3 g/m*3 16.8 C 4.8 km/h
455 24-10-2019 13:50:00 17 C 12.59 g/m*3 17 C 3.2 km/h
456 24-10-2019 13:55:00 17.2 C 12.74 g/m*3 17.2 C 1.6 km/h
457 24-10-2019 14:00:00 17.3 C 12.67 g/m*3 17.3 C 1.6 km/h
458 24-10-2019 14:05:00 17.3 C 12.67 g/m*3 17.3 C 1.6 km/h
459 24-10-2019 14:10:00 17.3 C 12.82 g/m*3 17.3 C 0 km/h
460 24-10-2019 14:15:00 17.3 C 12.82 g/m*3 17.3 C 0 km/h
461 24-10-2019 14:20:00 17.3 C 12.96 g/m*3 17.3 C 0 km/h
462 24-10-2019 14:25:00 17.3 C 12.52 g/m*3 17.3 C 4.8 km/h
463 24-10-2019 14:30:00 17.4 C 13.04 g/m*3 17.4 C 0 km/h
464 24-10-2019 14:35:00 17.4 C 12.75 g/m*3 17.4 C 0 km/h
465 24-10-2019 14:40:00 17.6 C 13.05 g/m*3 17.6 C 0 km/h
466 24-10-2019 14:45:00 17.7 C 13.13 g/m*3 17.7 C 0 km/h
467 24-10-2019 14:50:00 17.8 C 13.36 g/m*3 17.8 C 0 km/h
468 24-10-2019 14:55:00 17.9 C 13.44 g/m*3 17.9 C 0 km/h
469 24-10-2019 15:00:00 18 C 13.36 g/m*3 18 C 0 km/h
470 24-10-2019 15:05:00 18.1 C 13.6 g/m*3 18.1 C 0 km/h
471 24-10-2019 15:10:00 18.2 C 13.37 g/m*3 18.2 C 0 km/h
472 24-10-2019 15:15:00 18.3 C 13.29 g/m*3 18.3 C 3.2 km/h
473 24-10-2019 15:20:00 18.4 C 13.05 g/m*3 18.4 C 1.6 km/h
474 24-10-2019 15:25:00 18.7 C 13.61 g/m*3 18.7 C 0 km/h
475 24-10-2019 15:30:00 18.8 C 13.69 g/m*3 18.8 C 0 km/h
Sensor: Nr:Datum:Temp:Abs-Feuchte:Windchill:Wind:
Aussen-T/F 476 24-10-2019 15:35:00 18.8 C 13.53 g/m*3 18.8 C 0 km/h
477 24-10-2019 15:40:00 18.9 C 13.61 g/m*3 18.9 C 0 km/h
478 24-10-2019 15:45:00 18.8 C 13.37 g/m*3 18.8 C 4.8 km/h
479 24-10-2019 15:50:00 18.7 C 12.97 g/m*3 18.7 C 1.6 km/h
480 24-10-2019 15:55:00 18.6 C 12.57 g/m*3 18.6 C 3.2 km/h
481 24-10-2019 16:00:00 18.4 C 12.58 g/m*3 18.4 C 1.6 km/h
482 24-10-2019 16:05:00 18.3 C 12.66 g/m*3 18.3 C 0 km/h
483 24-10-2019 16:10:00 18.1 C 12.52 g/m*3 18.1 C 0 km/h
484 24-10-2019 16:15:00 18 C 12.29 g/m*3 18 C 3.2 km/h
485 24-10-2019 16:20:00 18 C 12.75 g/m*3 18 C 1.6 km/h
486 24-10-2019 16:25:00 18.1 C 11.9 g/m*3 18.1 C 11.3 km/h
487 24-10-2019 16:30:00 18.4 C 12.11 g/m*3 18.4 C 4.8 km/h
488 24-10-2019 16:35:00 18.7 C 12.81 g/m*3 18.7 C 6.4 km/h
489 24-10-2019 16:40:00 18.8 C 12.4 g/m*3 18.8 C 9.7 km/h
490 24-10-2019 16:45:00 18.9 C 12.47 g/m*3 18.9 C 6.4 km/h
491 24-10-2019 16:50:00 18.9 C 12.64 g/m*3 18.9 C 0 km/h
492 24-10-2019 16:55:00 18.7 C 12.65 g/m*3 18.7 C 3.2 km/h
493 24-10-2019 17:00:00 18.5 C 12.82 g/m*3 18.5 C 0 km/h
494 24-10-2019 17:05:00 18.3 C 12.66 g/m*3 18.3 C 0 km/h
495 24-10-2019 17:10:00 18.1 C 12.52 g/m*3 18.1 C 0 km/h
496 24-10-2019 17:15:00 17.8 C 12.45 g/m*3 17.8 C 0 km/h
497 24-10-2019 17:20:00 17.8 C 12.45 g/m*3 17.8 C 0 km/h
498 24-10-2019 17:25:00 17.6 C 12.45 g/m*3 17.6 C 8.1 km/h
499 24-10-2019 17:30:00 17.4 C 12.15 g/m*3 17.4 C 9.7 km/h
500 24-10-2019 17:35:00 17.3 C 12.08 g/m*3 17.3 C 3.2 km/h
Sensor: Nr:Datum:Temp:Abs-Feuchte:Windchill:Wind:
Aussen-T/F 501 24-10-2019 17:40:00 17.1 C 11.79 g/m*3 17.1 C 3.2 km/h
502 24-10-2019 17:45:00 16.9 C 11.65 g/m*3 16.9 C 0 km/h
503 24-10-2019 17:50:00 16.8 C 11.72 g/m*3 16.8 C 1.6 km/h
504 24-10-2019 17:55:00 16.7 C 11.65 g/m*3 16.7 C 1.6 km/h
505 24-10-2019 18:00:00 16.6 C 11.72 g/m*3 16.6 C 0 km/h
506 24-10-2019 18:05:00 16.3 C 11.65 g/m*3 16.3 C 0 km/h
507 24-10-2019 18:10:00 16.2 C 11.58 g/m*3 16.2 C 1.6 km/h
508 24-10-2019 18:15:00 16 C 11.58 g/m*3 16 C 1.6 km/h
509 24-10-2019 18:20:00 15.8 C 11.44 g/m*3 15.8 C 3.2 km/h
510 24-10-2019 18:25:00 15.7 C 11.37 g/m*3 15.7 C 1.6 km/h
511 24-10-2019 18:30:00 15.5 C 11.24 g/m*3 15.5 C 1.6 km/h
512 24-10-2019 18:35:00 15.4 C 11.3 g/m*3 15.4 C 3.2 km/h
513 24-10-2019 18:40:00 15.3 C 11.23 g/m*3 15.3 C 1.6 km/h
514 24-10-2019 18:45:00 15.3 C 11.36 g/m*3 15.3 C 1.6 km/h
515 24-10-2019 18:50:00 15.2 C 11.29 g/m*3 15.2 C 3.2 km/h
516 24-10-2019 18:55:00 15.2 C 11.29 g/m*3 15.2 C 3.2 km/h
517 24-10-2019 19:00:00 15.1 C 11.22 g/m*3 15.1 C 1.6 km/h
518 24-10-2019 19:05:00 15.1 C 11.22 g/m*3 15.1 C 1.6 km/h
519 24-10-2019 19:10:00 14.9 C 11.09 g/m*3 14.9 C 1.6 km/h
520 24-10-2019 19:15:00 14.9 C 11.22 g/m*3 14.9 C 0 km/h
521 24-10-2019 19:20:00 14.8 C 11.15 g/m*3 14.8 C 0 km/h
522 24-10-2019 19:25:00 14.8 C 11.15 g/m*3 14.8 C 1.6 km/h
523 24-10-2019 19:30:00 14.7 C 11.21 g/m*3 14.7 C 1.6 km/h
524 24-10-2019 19:35:00 14.6 C 11.14 g/m*3 14.6 C 1.6 km/h
525 24-10-2019 19:40:00 14.5 C 11.07 g/m*3 14.5 C 1.6 km/h
Sensor: Nr:Datum:Temp:Abs-Feuchte:Windchill:Wind:
Aussen-T/F 526 24-10-2019 19:45:00 14.4 C 11 g/m*3 14.4 C 1.6 km/h
527 24-10-2019 19:50:00 14.3 C 10.93 g/m*3 14.3 C 0 km/h
528 24-10-2019 19:55:00 14.2 C 10.87 g/m*3 14.2 C 0 km/h
529 24-10-2019 20:00:00 14.2 C 10.87 g/m*3 14.2 C 1.6 km/h
530 24-10-2019 20:05:00 14.1 C 10.92 g/m*3 14.1 C 1.6 km/h
531 24-10-2019 20:10:00 14 C 10.86 g/m*3 14 C 0 km/h
532 24-10-2019 20:15:00 13.9 C 10.79 g/m*3 13.9 C 1.6 km/h
533 24-10-2019 20:20:00 13.9 C 10.79 g/m*3 13.9 C 1.6 km/h
534 24-10-2019 20:25:00 13.8 C 10.72 g/m*3 13.8 C 0 km/h
535 24-10-2019 20:30:00 13.8 C 10.84 g/m*3 13.8 C 0 km/h
536 24-10-2019 20:35:00 13.8 C 10.84 g/m*3 13.8 C 0 km/h
537 24-10-2019 20:40:00 13.7 C 10.78 g/m*3 13.7 C 1.6 km/h
538 24-10-2019 20:45:00 13.7 C 10.78 g/m*3 13.7 C 0 km/h
539 24-10-2019 20:50:00 13.7 C 10.78 g/m*3 13.7 C 0 km/h
540 24-10-2019 20:55:00 13.7 C 10.78 g/m*3 13.7 C 0 km/h
541 24-10-2019 21:00:00 13.7 C 10.78 g/m*3 13.7 C 0 km/h
542 24-10-2019 21:05:00 13.7 C 10.78 g/m*3 13.7 C 0 km/h
543 24-10-2019 21:10:00 13.7 C 10.78 g/m*3 13.7 C 1.6 km/h
544 24-10-2019 21:15:00 13.7 C 10.78 g/m*3 13.7 C 0 km/h
545 24-10-2019 21:20:00 13.7 C 10.78 g/m*3 13.7 C 0 km/h
546 24-10-2019 21:25:00 13.6 C 10.71 g/m*3 13.6 C 0 km/h
547 24-10-2019 21:30:00 13.5 C 10.64 g/m*3 13.5 C 0 km/h
548 24-10-2019 21:35:00 13.5 C 10.64 g/m*3 13.5 C 0 km/h
549 24-10-2019 21:40:00 13.4 C 10.58 g/m*3 13.4 C 0 km/h
550 24-10-2019 21:45:00 13.4 C 10.58 g/m*3 13.4 C 1.6 km/h
Sensor: Nr:Datum:Temp:Abs-Feuchte:Windchill:Wind:
Aussen-T/F 551 24-10-2019 21:50:00 13.3 C 10.51 g/m*3 13.3 C 0 km/h
552 24-10-2019 21:55:00 13.3 C 10.51 g/m*3 13.3 C 0 km/h
553 24-10-2019 22:00:00 13.2 C 10.56 g/m*3 13.2 C 0 km/h
554 24-10-2019 22:05:00 13.2 C 10.56 g/m*3 13.2 C 0 km/h
555 24-10-2019 22:10:00 13.2 C 10.56 g/m*3 13.2 C 0 km/h
556 24-10-2019 22:15:00 13.2 C 10.56 g/m*3 13.2 C 0 km/h
557 24-10-2019 22:20:00 13.1 C 10.5 g/m*3 13.1 C 0 km/h
558 24-10-2019 22:25:00 13.1 C 10.5 g/m*3 13.1 C 0 km/h
559 24-10-2019 22:30:00 13.1 C 10.5 g/m*3 13.1 C 0 km/h
560 24-10-2019 22:35:00 13 C 10.43 g/m*3 13 C 0 km/h
561 24-10-2019 22:40:00 12.9 C 10.48 g/m*3 12.9 C 0 km/h
562 24-10-2019 22:45:00 12.9 C 10.48 g/m*3 12.9 C 0 km/h
563 24-10-2019 22:50:00 13 C 10.55 g/m*3 13 C 0 km/h
564 24-10-2019 22:55:00 13 C 10.66 g/m*3 13 C 0 km/h
565 24-10-2019 23:00:00 13.1 C 10.73 g/m*3 13.1 C 0 km/h
566 24-10-2019 23:05:00 13.2 C 10.79 g/m*3 13.2 C 0 km/h
567 24-10-2019 23:10:00 13.2 C 10.79 g/m*3 13.2 C 0 km/h
568 24-10-2019 23:15:00 13.3 C 10.86 g/m*3 13.3 C 0 km/h
569 24-10-2019 23:20:00 13.3 C 10.86 g/m*3 13.3 C 0 km/h
570 24-10-2019 23:25:00 13.3 C 10.86 g/m*3 13.3 C 0 km/h
571 24-10-2019 23:30:00 13.3 C 10.86 g/m*3 13.3 C 0 km/h
572 24-10-2019 23:35:00 13.3 C 10.86 g/m*3 13.3 C 0 km/h
573 24-10-2019 23:40:00 13.2 C 10.68 g/m*3 13.2 C 0 km/h
574 24-10-2019 23:45:00 13.1 C 10.61 g/m*3 13.1 C 0 km/h
575 24-10-2019 23:50:00 13 C 10.55 g/m*3 13 C 0 km/h
Sensor: Nr:Datum:Temp:Abs-Feuchte:Windchill:Wind:
Aussen-T/F 576 24-10-2019 23:55:00 12.9 C 10.48 g/m*3 12.9 C 0 km/h
577 25-10-2019 00:00:00 12.8 C 10.42 g/m*3 12.8 C 0 km/h
578 25-10-2019 00:05:00 12.7 C 10.35 g/m*3 12.7 C 0 km/h
579 25-10-2019 00:10:00 12.6 C 10.29 g/m*3 12.6 C 0 km/h
580 25-10-2019 00:15:00 12.6 C 10.29 g/m*3 12.6 C 0 km/h
581 25-10-2019 00:20:00 12.5 C 10.22 g/m*3 12.5 C 0 km/h
582 25-10-2019 00:25:00 12.4 C 10.27 g/m*3 12.4 C 0 km/h
583 25-10-2019 00:30:00 12.3 C 10.21 g/m*3 12.3 C 0 km/h
584 25-10-2019 00:35:00 12.3 C 10.21 g/m*3 12.3 C 0 km/h
585 25-10-2019 00:40:00 12.2 C 10.14 g/m*3 12.2 C 0 km/h
586 25-10-2019 00:45:00 12.2 C 10.14 g/m*3 12.2 C 0 km/h
587 25-10-2019 00:50:00 12.2 C 10.14 g/m*3 12.2 C 0 km/h
588 25-10-2019 00:55:00 12.1 C 10.08 g/m*3 12.1 C 0 km/h
589 25-10-2019 01:00:00 12.1 C 10.19 g/m*3 12.1 C 0 km/h
590 25-10-2019 01:05:00 12.1 C 10.19 g/m*3 12.1 C 0 km/h
591 25-10-2019 01:10:00 12.1 C 10.19 g/m*3 12.1 C 0 km/h
592 25-10-2019 01:15:00 12.1 C 10.19 g/m*3 12.1 C 0 km/h
593 25-10-2019 01:20:00 12 C 10.12 g/m*3 12 C 0 km/h
594 25-10-2019 01:25:00 12 C 10.12 g/m*3 12 C 0 km/h
595 25-10-2019 01:30:00 11.9 C 10.06 g/m*3 11.9 C 0 km/h
596 25-10-2019 01:35:00 11.9 C 10.06 g/m*3 11.9 C 0 km/h
597 25-10-2019 01:40:00 11.9 C 10.06 g/m*3 11.9 C 0 km/h
598 25-10-2019 01:45:00 11.8 C 10 g/m*3 11.8 C 0 km/h
599 25-10-2019 01:50:00 11.8 C 10 g/m*3 11.8 C 0 km/h
600 25-10-2019 01:55:00 11.7 C 9.94 g/m*3 11.7 C 0 km/h
Sensor: Nr:Datum:Temp:Abs-Feuchte:Windchill:Wind:
Aussen-T/F 601 25-10-2019 02:00:00 11.6 C 9.87 g/m*3 11.6 C 0 km/h
602 25-10-2019 02:05:00 11.6 C 9.87 g/m*3 11.6 C 0 km/h
603 25-10-2019 02:10:00 11.5 C 9.81 g/m*3 11.5 C 0 km/h
604 25-10-2019 02:15:00 11.5 C 9.81 g/m*3 11.5 C 0 km/h
605 25-10-2019 02:20:00 11.5 C 9.81 g/m*3 11.5 C 0 km/h
606 25-10-2019 02:25:00 11.4 C 9.75 g/m*3 11.4 C 0 km/h
607 25-10-2019 02:30:00 11.4 C 9.75 g/m*3 11.4 C 0 km/h
608 25-10-2019 02:35:00 11.4 C 9.75 g/m*3 11.4 C 0 km/h
609 25-10-2019 02:40:00 11.3 C 9.69 g/m*3 11.3 C 3.2 km/h
610 25-10-2019 02:45:00 11.4 C 9.85 g/m*3 11.4 C 8.1 km/h
611 25-10-2019 02:50:00 11.6 C 9.98 g/m*3 11.6 C 1.6 km/h
612 25-10-2019 02:55:00 11.7 C 9.94 g/m*3 11.7 C 0 km/h
613 25-10-2019 03:00:00 11.7 C 9.94 g/m*3 11.7 C 6.4 km/h
614 25-10-2019 03:05:00 12 C 10.23 g/m*3 12 C 9.7 km/h
615 25-10-2019 03:10:00 12.2 C 10.25 g/m*3 12.2 C 0 km/h
616 25-10-2019 03:15:00 12.3 C 10.21 g/m*3 12.3 C 1.6 km/h
617 25-10-2019 03:20:00 12.3 C 10.21 g/m*3 12.3 C 0 km/h
618 25-10-2019 03:25:00 12.3 C 10.21 g/m*3 12.3 C 4.8 km/h
619 25-10-2019 03:30:00 12.4 C 10.16 g/m*3 12.4 C 0 km/h
620 25-10-2019 03:35:00 12.4 C 10.16 g/m*3 12.4 C 0 km/h
621 25-10-2019 03:40:00 12.4 C 10.16 g/m*3 12.4 C 0 km/h
622 25-10-2019 03:45:00 12.6 C 10.29 g/m*3 12.6 C 0 km/h
623 25-10-2019 03:50:00 12.7 C 10.35 g/m*3 12.7 C 0 km/h
624 25-10-2019 03:55:00 12.8 C 10.42 g/m*3 12.8 C 0 km/h
625 25-10-2019 04:00:00 12.9 C 10.48 g/m*3 12.9 C 0 km/h
Sensor: Nr:Datum:Temp:Abs-Feuchte:Windchill:Wind:
Aussen-T/F 626 25-10-2019 04:05:00 12.8 C 10.3 g/m*3 12.8 C 0 km/h
627 25-10-2019 04:10:00 12.8 C 10.3 g/m*3 12.8 C 0 km/h
628 25-10-2019 04:15:00 12.8 C 10.3 g/m*3 12.8 C 1.6 km/h
629 25-10-2019 04:20:00 12.8 C 10.3 g/m*3 12.8 C 0 km/h
630 25-10-2019 04:25:00 12.8 C 10.3 g/m*3 12.8 C 4.8 km/h
631 25-10-2019 04:30:00 12.8 C 10.3 g/m*3 12.8 C 1.6 km/h
632 25-10-2019 04:35:00 12.9 C 10.37 g/m*3 12.9 C 6.4 km/h
633 25-10-2019 04:40:00 13 C 10.43 g/m*3 13 C 3.2 km/h
634 25-10-2019 04:45:00 13.1 C 10.38 g/m*3 13.1 C 3.2 km/h
635 25-10-2019 04:50:00 13 C 10.21 g/m*3 13 C 0 km/h
636 25-10-2019 04:55:00 12.9 C 10.14 g/m*3 12.9 C 0 km/h
637 25-10-2019 05:00:00 12.8 C 10.08 g/m*3 12.8 C 0 km/h
638 25-10-2019 05:05:00 12.7 C 10.02 g/m*3 12.7 C 0 km/h
639 25-10-2019 05:10:00 12.6 C 10.07 g/m*3 12.6 C 1.6 km/h
640 25-10-2019 05:15:00 12.6 C 10.07 g/m*3 12.6 C 1.6 km/h
641 25-10-2019 05:20:00 12.6 C 10.07 g/m*3 12.6 C 1.6 km/h
642 25-10-2019 05:25:00 12.6 C 10.07 g/m*3 12.6 C 11.3 km/h
643 25-10-2019 05:30:00 12.7 C 10.13 g/m*3 12.7 C 11.3 km/h
644 25-10-2019 05:35:00 12.7 C 10.13 g/m*3 12.7 C 3.2 km/h
645 25-10-2019 05:40:00 12.7 C 10.13 g/m*3 12.7 C 1.6 km/h
646 25-10-2019 05:45:00 12.7 C 10.13 g/m*3 12.7 C 1.6 km/h
647 25-10-2019 05:50:00 12.6 C 10.07 g/m*3 12.6 C 1.6 km/h
648 25-10-2019 05:55:00 12.6 C 10.07 g/m*3 12.6 C 0 km/h
649 25-10-2019 06:00:00 12.6 C 10.07 g/m*3 12.6 C 0 km/h
650 25-10-2019 06:05:00 12.5 C 10 g/m*3 12.5 C 0 km/h
Sensor: Nr:Datum:Temp:Abs-Feuchte:Windchill:Wind:
Aussen-T/F 651 25-10-2019 06:10:00 12.4 C 9.94 g/m*3 12.4 C 1.6 km/h
652 25-10-2019 06:15:00 12.3 C 9.99 g/m*3 12.3 C 0 km/h
653 25-10-2019 06:20:00 12.4 C 10.05 g/m*3 12.4 C 1.6 km/h
654 25-10-2019 06:25:00 12.4 C 10.16 g/m*3 12.4 C 1.6 km/h
655 25-10-2019 06:30:00 12.5 C 10.22 g/m*3 12.5 C 1.6 km/h
656 25-10-2019 06:35:00 12.6 C 10.29 g/m*3 12.6 C 3.2 km/h
657 25-10-2019 06:40:00 12.8 C 10.3 g/m*3 12.8 C 6.4 km/h
658 25-10-2019 06:45:00 12.9 C 10.37 g/m*3 12.9 C 4.8 km/h
659 25-10-2019 06:50:00 13.1 C 10.5 g/m*3 13.1 C 1.6 km/h
660 25-10-2019 06:55:00 13.1 C 10.5 g/m*3 13.1 C 0 km/h
661 25-10-2019 07:00:00 13.2 C 10.45 g/m*3 13.2 C 6.4 km/h
662 25-10-2019 07:05:00 13.3 C 10.51 g/m*3 13.3 C 1.6 km/h
663 25-10-2019 07:10:00 13.3 C 10.51 g/m*3 13.3 C 3.2 km/h
664 25-10-2019 07:15:00 13.3 C 10.4 g/m*3 13.3 C 0 km/h
665 25-10-2019 07:20:00 13.2 C 10.33 g/m*3 13.2 C 0 km/h
666 25-10-2019 07:25:00 13.2 C 10.33 g/m*3 13.2 C 0 km/h
667 25-10-2019 07:30:00 13.1 C 10.27 g/m*3 13.1 C 1.6 km/h
668 25-10-2019 07:35:00 13.1 C 10.38 g/m*3 13.1 C 8.1 km/h
669 25-10-2019 07:40:00 13.1 C 10.38 g/m*3 13.1 C 6.4 km/h
670 25-10-2019 07:45:00 13.1 C 10.38 g/m*3 13.1 C 0 km/h
671 25-10-2019 07:50:00 13.1 C 10.38 g/m*3 13.1 C 0 km/h
672 25-10-2019 07:55:00 13.1 C 10.38 g/m*3 13.1 C 1.6 km/h
673 25-10-2019 08:00:00 13 C 10.32 g/m*3 13 C 1.6 km/h
674 25-10-2019 08:05:00 12.9 C 10.26 g/m*3 12.9 C 3.2 km/h
675 25-10-2019 08:10:00 12.8 C 10.19 g/m*3 12.8 C 6.4 km/h
Sensor: Nr:Datum:Temp:Abs-Feuchte:Windchill:Wind:
Aussen-T/F 676 25-10-2019 08:15:00 12.8 C 10.19 g/m*3 12.8 C 3.2 km/h
677 25-10-2019 08:20:00 12.8 C 10.19 g/m*3 12.8 C 0 km/h
678 25-10-2019 08:25:00 12.7 C 10.13 g/m*3 12.7 C 0 km/h
679 25-10-2019 08:30:00 12.6 C 10.18 g/m*3 12.6 C 1.6 km/h
680 25-10-2019 08:35:00 12.6 C 10.18 g/m*3 12.6 C 1.6 km/h
681 25-10-2019 08:40:00 12.5 C 10.11 g/m*3 12.5 C 0 km/h
682 25-10-2019 08:45:00 12.5 C 10.11 g/m*3 12.5 C 0 km/h
683 25-10-2019 08:50:00 12.5 C 10.22 g/m*3 12.5 C 0 km/h
684 25-10-2019 08:55:00 12.5 C 10.22 g/m*3 12.5 C 0 km/h
685 25-10-2019 09:00:00 12.6 C 10.29 g/m*3 12.6 C 0 km/h
686 25-10-2019 09:05:00 12.6 C 10.29 g/m*3 12.6 C 0 km/h
687 25-10-2019 09:10:00 12.6 C 10.29 g/m*3 12.6 C 0 km/h
688 25-10-2019 09:15:00 12.7 C 10.35 g/m*3 12.7 C 3.2 km/h
689 25-10-2019 09:20:00 12.8 C 10.53 g/m*3 12.8 C 0 km/h
690 25-10-2019 09:25:00 12.9 C 10.59 g/m*3 12.9 C 0 km/h
691 25-10-2019 09:30:00 12.9 C 10.59 g/m*3 12.9 C 0 km/h
692 25-10-2019 09:35:00 13.1 C 10.61 g/m*3 13.1 C 0 km/h
693 25-10-2019 09:40:00 13.1 C 10.61 g/m*3 13.1 C 6.4 km/h
694 25-10-2019 09:45:00 13.2 C 10.56 g/m*3 13.2 C 6.4 km/h
695 25-10-2019 09:50:00 13.3 C 10.63 g/m*3 13.3 C 4.8 km/h
696 25-10-2019 09:55:00 13.4 C 10.69 g/m*3 13.4 C 1.6 km/h
697 25-10-2019 10:00:00 13.4 C 10.69 g/m*3 13.4 C 1.6 km/h
698 25-10-2019 10:05:00 13.5 C 10.76 g/m*3 13.5 C 0 km/h
699 25-10-2019 10:10:00 13.5 C 10.76 g/m*3 13.5 C 3.2 km/h
700 25-10-2019 10:15:00 13.4 C 10.58 g/m*3 13.4 C 3.2 km/h
Sensor: Nr:Datum:Temp:Abs-Feuchte:Windchill:Wind:
Aussen-T/F 701 25-10-2019 10:20:00 13.5 C 10.53 g/m*3 13.5 C 6.4 km/h
702 25-10-2019 10:25:00 13.6 C 10.59 g/m*3 13.6 C 3.2 km/h
703 25-10-2019 10:30:00 13.7 C 10.54 g/m*3 13.7 C 6.4 km/h
704 25-10-2019 10:35:00 13.8 C 10.6 g/m*3 13.8 C 8.1 km/h
705 25-10-2019 10:40:00 13.9 C 10.55 g/m*3 13.9 C 9.7 km/h
706 25-10-2019 10:45:00 14.1 C 10.56 g/m*3 14.1 C 9.7 km/h
707 25-10-2019 10:50:00 14.3 C 10.44 g/m*3 14.3 C 12.9 km/h
708 25-10-2019 10:55:00 14.6 C 10.51 g/m*3 14.6 C 11.3 km/h
709 25-10-2019 11:00:00 14.7 C 10.58 g/m*3 14.7 C 11.3 km/h
710 25-10-2019 11:05:00 14.7 C 10.45 g/m*3 14.7 C 9.7 km/h
711 25-10-2019 11:10:00 14.8 C 10.51 g/m*3 14.8 C 8.1 km/h
712 25-10-2019 11:15:00 14.8 C 10.51 g/m*3 14.8 C 11.3 km/h
713 25-10-2019 11:20:00 14.9 C 10.58 g/m*3 14.9 C 8.1 km/h
714 25-10-2019 11:25:00 14.9 C 10.45 g/m*3 14.9 C 11.3 km/h
715 25-10-2019 11:30:00 14.9 C 10.45 g/m*3 14.9 C 11.3 km/h
716 25-10-2019 11:35:00 15 C 10.51 g/m*3 15 C 16.1 km/h
717 25-10-2019 11:40:00 15 C 10.51 g/m*3 15 C 6.4 km/h
718 25-10-2019 11:45:00 15 C 10.51 g/m*3 15 C 9.7 km/h
719 25-10-2019 11:50:00 15.1 C 10.58 g/m*3 15.1 C 6.4 km/h
720 25-10-2019 11:55:00 15.1 C 10.58 g/m*3 15.1 C 3.2 km/h
721 25-10-2019 12:00:00 15.1 C 10.45 g/m*3 15.1 C 8.1 km/h
722 25-10-2019 12:05:00 15 C 10.26 g/m*3 15 C 9.7 km/h
723 25-10-2019 12:10:00 15.1 C 10.45 g/m*3 15.1 C 9.7 km/h
724 25-10-2019 12:15:00 15.1 C 10.32 g/m*3 15.1 C 9.7 km/h
725 25-10-2019 12:20:00 15.2 C 10.38 g/m*3 15.2 C 12.9 km/h
Sensor: Nr:Datum:Temp:Abs-Feuchte:Windchill:Wind:
Aussen-T/F 726 25-10-2019 12:25:00 15.2 C 10.25 g/m*3 15.2 C 6.4 km/h
727 25-10-2019 12:30:00 15.2 C 10.25 g/m*3 15.2 C 12.9 km/h
728 25-10-2019 12:35:00 15.3 C 10.32 g/m*3 15.3 C 11.3 km/h
729 25-10-2019 12:40:00 15.4 C 10.25 g/m*3 15.4 C 12.9 km/h
730 25-10-2019 12:45:00 15.4 C 10.25 g/m*3 15.4 C 8.1 km/h
731 25-10-2019 12:50:00 15.6 C 10.51 g/m*3 15.6 C 9.7 km/h
732 25-10-2019 12:55:00 15.7 C 10.44 g/m*3 15.7 C 8.1 km/h
733 25-10-2019 13:00:00 15.7 C 10.17 g/m*3 15.7 C 8.1 km/h
734 25-10-2019 13:05:00 15.9 C 10.56 g/m*3 15.9 C 4.8 km/h
735 25-10-2019 13:10:00 16.1 C 10.28 g/m*3 16.1 C 9.7 km/h
736 25-10-2019 13:15:00 16.2 C 10.2 g/m*3 16.2 C 9.7 km/h
737 25-10-2019 13:20:00 16.2 C 10.34 g/m*3 16.2 C 9.7 km/h
738 25-10-2019 13:25:00 16.3 C 10.41 g/m*3 16.3 C 6.4 km/h
739 25-10-2019 13:30:00 16.4 C 10.19 g/m*3 16.4 C 8.1 km/h
740 25-10-2019 13:35:00 16.5 C 10.25 g/m*3 16.5 C 11.3 km/h
741 25-10-2019 13:40:00 16.4 C 9.77 g/m*3 16.4 C 16.1 km/h
742 25-10-2019 13:45:00 16.3 C 9.85 g/m*3 16.3 C 11.3 km/h
743 25-10-2019 13:50:00 16.2 C 9.93 g/m*3 16.2 C 6.4 km/h
744 25-10-2019 13:55:00 16.1 C 10.01 g/m*3 16.1 C 9.7 km/h
745 25-10-2019 14:00:00 16 C 9.95 g/m*3 16 C 8.1 km/h
746 25-10-2019 14:05:00 16 C 9.95 g/m*3 16 C 9.7 km/h
747 25-10-2019 14:10:00 16.1 C 10.01 g/m*3 16.1 C 11.3 km/h
748 25-10-2019 14:15:00 16.2 C 10.2 g/m*3 16.2 C 6.4 km/h
749 25-10-2019 14:20:00 16.2 C 10.34 g/m*3 16.2 C 8.1 km/h
750 25-10-2019 14:25:00 16.3 C 10.54 g/m*3 16.3 C 4.8 km/h
Sensor: Nr:Datum:Temp:Abs-Feuchte:Windchill:Wind:
Aussen-T/F 751 25-10-2019 14:30:00 16.3 C 10.41 g/m*3 16.3 C 4.8 km/h
752 25-10-2019 14:35:00 16.4 C 10.33 g/m*3 16.4 C 6.4 km/h
753 25-10-2019 14:40:00 16.5 C 10.39 g/m*3 16.5 C 8.1 km/h
754 25-10-2019 14:45:00 16.5 C 10.39 g/m*3 16.5 C 8.1 km/h
755 25-10-2019 14:50:00 16.5 C 10.25 g/m*3 16.5 C 11.3 km/h
756 25-10-2019 14:55:00 16.5 C 10.11 g/m*3 16.5 C 3.2 km/h
757 25-10-2019 15:00:00 16.5 C 10.11 g/m*3 16.5 C 6.4 km/h
758 25-10-2019 15:05:00 16.6 C 10.03 g/m*3 16.6 C 11.3 km/h
759 25-10-2019 15:10:00 16.6 C 10.03 g/m*3 16.6 C 11.3 km/h
760 25-10-2019 15:15:00 16.5 C 9.97 g/m*3 16.5 C 8.1 km/h
761 25-10-2019 15:20:00 16.4 C 9.77 g/m*3 16.4 C 9.7 km/h
762 25-10-2019 15:25:00 16.4 C 9.77 g/m*3 16.4 C 11.3 km/h
763 25-10-2019 15:30:00 16.4 C 9.77 g/m*3 16.4 C 9.7 km/h
764 25-10-2019 15:35:00 16.4 C 10.05 g/m*3 16.4 C 4.8 km/h
765 25-10-2019 15:40:00 16.4 C 9.77 g/m*3 16.4 C 8.1 km/h
766 25-10-2019 15:45:00 16.4 C 9.63 g/m*3 16.4 C 12.9 km/h
767 25-10-2019 15:50:00 16.3 C 9.71 g/m*3 16.3 C 8.1 km/h
768 25-10-2019 15:55:00 16.3 C 9.71 g/m*3 16.3 C 14.5 km/h
769 25-10-2019 16:00:00 16.3 C 9.71 g/m*3 16.3 C 6.4 km/h
770 25-10-2019 16:05:00 16.3 C 9.71 g/m*3 16.3 C 9.7 km/h
771 25-10-2019 16:10:00 16.3 C 10.13 g/m*3 16.3 C 8.1 km/h
772 25-10-2019 16:15:00 16.2 C 9.79 g/m*3 16.2 C 9.7 km/h
773 25-10-2019 16:20:00 16.2 C 10.2 g/m*3 16.2 C 8.1 km/h
774 25-10-2019 16:25:00 16.1 C 9.87 g/m*3 16.1 C 11.3 km/h
775 25-10-2019 16:30:00 16.1 C 10.14 g/m*3 16.1 C 4.8 km/h
Sensor: Nr:Datum:Temp:Abs-Feuchte:Windchill:Wind:
Aussen-T/F 776 25-10-2019 16:35:00 16.1 C 10.01 g/m*3 16.1 C 4.8 km/h
777 25-10-2019 16:40:00 15.9 C 10.16 g/m*3 15.9 C 6.4 km/h
778 25-10-2019 16:45:00 15.8 C 10.23 g/m*3 15.8 C 6.4 km/h
779 25-10-2019 16:50:00 15.7 C 9.9 g/m*3 15.7 C 3.2 km/h
780 25-10-2019 16:55:00 15.7 C 10.17 g/m*3 15.7 C 0 km/h
781 25-10-2019 17:00:00 15.5 C 10.31 g/m*3 15.5 C 0 km/h
782 25-10-2019 17:05:00 15.3 C 10.32 g/m*3 15.3 C 0 km/h
783 25-10-2019 17:10:00 15.1 C 10.32 g/m*3 15.1 C 0 km/h
784 25-10-2019 17:15:00 14.9 C 10.2 g/m*3 14.9 C 1.6 km/h
785 25-10-2019 17:20:00 14.7 C 10.2 g/m*3 14.7 C 0 km/h
786 25-10-2019 17:25:00 14.6 C 10.26 g/m*3 14.6 C 0 km/h
787 25-10-2019 17:30:00 14.4 C 10.14 g/m*3 14.4 C 3.2 km/h
788 25-10-2019 17:35:00 14.3 C 10.2 g/m*3 14.3 C 1.6 km/h
789 25-10-2019 17:40:00 14.2 C 10.14 g/m*3 14.2 C 0 km/h
790 25-10-2019 17:45:00 14.1 C 10.19 g/m*3 14.1 C 1.6 km/h
791 25-10-2019 17:50:00 13.9 C 10.07 g/m*3 13.9 C 0 km/h
792 25-10-2019 17:55:00 13.8 C 10.13 g/m*3 13.8 C 0 km/h
793 25-10-2019 18:00:00 13.7 C 10.07 g/m*3 13.7 C 0 km/h
794 25-10-2019 18:05:00 13.6 C 10 g/m*3 13.6 C 0 km/h
795 25-10-2019 18:10:00 13.4 C 10 g/m*3 13.4 C 0 km/h
796 25-10-2019 18:15:00 13.2 C 9.87 g/m*3 13.2 C 3.2 km/h
797 25-10-2019 18:20:00 13.1 C 9.81 g/m*3 13.1 C 1.6 km/h
798 25-10-2019 18:25:00 13 C 9.87 g/m*3 13 C 1.6 km/h
799 25-10-2019 18:30:00 12.9 C 9.81 g/m*3 12.9 C 1.6 km/h
800 25-10-2019 18:35:00 12.8 C 9.63 g/m*3 12.8 C 0 km/h
Sensor: Nr:Datum:Temp:Abs-Feuchte:Windchill:Wind:
Aussen-T/F 801 25-10-2019 18:40:00 12.7 C 9.68 g/m*3 12.7 C 0 km/h
802 25-10-2019 18:45:00 12.7 C 9.68 g/m*3 12.7 C 1.6 km/h
803 25-10-2019 18:50:00 12.6 C 9.62 g/m*3 12.6 C 0 km/h
804 25-10-2019 18:55:00 12.5 C 9.68 g/m*3 12.5 C 0 km/h
805 25-10-2019 19:00:00 12.4 C 9.62 g/m*3 12.4 C 0 km/h
806 25-10-2019 19:05:00 12.3 C 9.66 g/m*3 12.3 C 0 km/h
807 25-10-2019 19:10:00 12.2 C 9.6 g/m*3 12.2 C 0 km/h
808 25-10-2019 19:15:00 12.2 C 9.6 g/m*3 12.2 C 0 km/h
809 25-10-2019 19:20:00 12.1 C 9.65 g/m*3 12.1 C 0 km/h
810 25-10-2019 19:25:00 12 C 9.59 g/m*3 12 C 0 km/h
811 25-10-2019 19:30:00 11.9 C 9.53 g/m*3 11.9 C 0 km/h
812 25-10-2019 19:35:00 11.8 C 9.47 g/m*3 11.8 C 0 km/h
813 25-10-2019 19:40:00 11.8 C 9.58 g/m*3 11.8 C 1.6 km/h
814 25-10-2019 19:45:00 11.8 C 9.58 g/m*3 11.8 C 0 km/h
815 25-10-2019 19:50:00 11.7 C 9.52 g/m*3 11.7 C 0 km/h
816 25-10-2019 19:55:00 11.7 C 9.52 g/m*3 11.7 C 0 km/h
817 25-10-2019 20:00:00 11.6 C 9.46 g/m*3 11.6 C 0 km/h
818 25-10-2019 20:05:00 11.6 C 9.46 g/m*3 11.6 C 0 km/h
819 25-10-2019 20:10:00 11.6 C 9.56 g/m*3 11.6 C 0 km/h
820 25-10-2019 20:15:00 11.6 C 9.46 g/m*3 11.6 C 0 km/h
821 25-10-2019 20:20:00 11.6 C 9.46 g/m*3 11.6 C 0 km/h
822 25-10-2019 20:25:00 11.5 C 9.4 g/m*3 11.5 C 0 km/h
823 25-10-2019 20:30:00 11.4 C 9.34 g/m*3 11.4 C 0 km/h
824 25-10-2019 20:35:00 11.3 C 9.28 g/m*3 11.3 C 0 km/h
825 25-10-2019 20:40:00 11.3 C 9.28 g/m*3 11.3 C 0 km/h
Sensor: Nr:Datum:Temp:Abs-Feuchte:Windchill:Wind:
Aussen-T/F 826 25-10-2019 20:45:00 11.3 C 9.38 g/m*3 11.3 C 0 km/h
827 25-10-2019 20:50:00 11.3 C 9.38 g/m*3 11.3 C 0 km/h
828 25-10-2019 20:55:00 11.3 C 9.38 g/m*3 11.3 C 0 km/h
829 25-10-2019 21:00:00 11.3 C 9.38 g/m*3 11.3 C 0 km/h
830 25-10-2019 21:05:00 11.3 C 9.38 g/m*3 11.3 C 0 km/h
831 25-10-2019 21:10:00 11.2 C 9.33 g/m*3 11.2 C 0 km/h
832 25-10-2019 21:15:00 11.2 C 9.33 g/m*3 11.2 C 0 km/h
833 25-10-2019 21:20:00 11.1 C 9.27 g/m*3 11.1 C 0 km/h
834 25-10-2019 21:25:00 11.1 C 9.27 g/m*3 11.1 C 0 km/h
835 25-10-2019 21:30:00 10.9 C 9.15 g/m*3 10.9 C 0 km/h
836 25-10-2019 21:35:00 10.9 C 9.15 g/m*3 10.9 C 0 km/h
837 25-10-2019 21:40:00 10.9 C 9.25 g/m*3 10.9 C 0 km/h
838 25-10-2019 21:45:00 10.9 C 9.25 g/m*3 10.9 C 0 km/h
839 25-10-2019 21:50:00 10.8 C 9.19 g/m*3 10.8 C 0 km/h
840 25-10-2019 21:55:00 10.7 C 9.13 g/m*3 10.7 C 0 km/h
841 25-10-2019 22:00:00 10.8 C 9.29 g/m*3 10.8 C 0 km/h
842 25-10-2019 22:05:00 10.9 C 9.35 g/m*3 10.9 C 0 km/h
843 25-10-2019 22:10:00 11.1 C 9.47 g/m*3 11.1 C 1.6 km/h
844 25-10-2019 22:15:00 11.2 C 9.53 g/m*3 11.2 C 0 km/h
845 25-10-2019 22:20:00 11.3 C 9.59 g/m*3 11.3 C 0 km/h
846 25-10-2019 22:25:00 11.3 C 9.59 g/m*3 11.3 C 0 km/h
847 25-10-2019 22:30:00 11.3 C 9.59 g/m*3 11.3 C 1.6 km/h
848 25-10-2019 22:35:00 11.4 C 9.65 g/m*3 11.4 C 0 km/h
849 25-10-2019 22:40:00 11.4 C 9.65 g/m*3 11.4 C 0 km/h
850 25-10-2019 22:45:00 11.6 C 9.67 g/m*3 11.6 C 3.2 km/h
Sensor: Nr:Datum:Temp:Abs-Feuchte:Windchill:Wind:
Aussen-T/F 851 25-10-2019 22:50:00 11.6 C 9.67 g/m*3 11.6 C 0 km/h
852 25-10-2019 22:55:00 11.7 C 9.73 g/m*3 11.7 C 0 km/h
853 25-10-2019 23:00:00 11.8 C 9.79 g/m*3 11.8 C 0 km/h
854 25-10-2019 23:05:00 11.9 C 9.85 g/m*3 11.9 C 0 km/h
855 25-10-2019 23:10:00 12.1 C 9.97 g/m*3 12.1 C 3.2 km/h
856 25-10-2019 23:15:00 12.2 C 10.04 g/m*3 12.2 C 1.6 km/h
857 25-10-2019 23:20:00 12.3 C 10.1 g/m*3 12.3 C 0 km/h
858 25-10-2019 23:25:00 12.4 C 10.16 g/m*3 12.4 C 0 km/h
859 25-10-2019 23:30:00 12.6 C 10.29 g/m*3 12.6 C 4.8 km/h
860 25-10-2019 23:35:00 12.7 C 10.24 g/m*3 12.7 C 0 km/h
861 25-10-2019 23:40:00 12.8 C 10.19 g/m*3 12.8 C 0 km/h
862 25-10-2019 23:45:00 12.8 C 10.19 g/m*3 12.8 C 6.4 km/h
863 25-10-2019 23:50:00 12.9 C 10.26 g/m*3 12.9 C 1.6 km/h
864 25-10-2019 23:55:00 13.1 C 10.38 g/m*3 13.1 C 1.6 km/h
865 26-10-2019 00:00:00 13.1 C 10.27 g/m*3 13.1 C 0 km/h
866 26-10-2019 00:05:00 13.2 C 10.45 g/m*3 13.2 C 1.6 km/h
867 26-10-2019 00:10:00 13.2 C 10.33 g/m*3 13.2 C 0 km/h
868 26-10-2019 00:15:00 13.3 C 10.4 g/m*3 13.3 C 1.6 km/h
869 26-10-2019 00:20:00 13.4 C 10.46 g/m*3 13.4 C 3.2 km/h
870 26-10-2019 00:25:00 13.5 C 10.41 g/m*3 13.5 C 3.2 km/h
871 26-10-2019 00:30:00 13.6 C 10.47 g/m*3 13.6 C 3.2 km/h
872 26-10-2019 00:35:00 13.7 C 10.42 g/m*3 13.7 C 1.6 km/h
873 26-10-2019 00:40:00 13.7 C 10.54 g/m*3 13.7 C 0 km/h
874 26-10-2019 00:45:00 13.7 C 10.42 g/m*3 13.7 C 3.2 km/h
875 26-10-2019 00:50:00 13.7 C 10.42 g/m*3 13.7 C 0 km/h
Sensor: Nr:Datum:Temp:Abs-Feuchte:Windchill:Wind:
Aussen-T/F 876 26-10-2019 00:55:00 13.7 C 10.42 g/m*3 13.7 C 0 km/h
877 26-10-2019 01:00:00 13.7 C 10.42 g/m*3 13.7 C 3.2 km/h
878 26-10-2019 01:05:00 13.7 C 10.42 g/m*3 13.7 C 1.6 km/h
879 26-10-2019 01:10:00 13.6 C 10.36 g/m*3 13.6 C 0 km/h
880 26-10-2019 01:15:00 13.6 C 10.36 g/m*3 13.6 C 1.6 km/h
881 26-10-2019 01:20:00 13.5 C 10.29 g/m*3 13.5 C 1.6 km/h
882 26-10-2019 01:25:00 13.4 C 10.23 g/m*3 13.4 C 0 km/h
883 26-10-2019 01:30:00 13.4 C 10.35 g/m*3 13.4 C 1.6 km/h
884 26-10-2019 01:35:00 13.6 C 10.36 g/m*3 13.6 C 3.2 km/h
885 26-10-2019 01:40:00 13.8 C 10.48 g/m*3 13.8 C 0 km/h
886 26-10-2019 01:45:00 13.8 C 10.48 g/m*3 13.8 C 1.6 km/h
887 26-10-2019 01:50:00 13.9 C 10.55 g/m*3 13.9 C 0 km/h
888 26-10-2019 01:55:00 14.1 C 10.68 g/m*3 14.1 C 0 km/h
889 26-10-2019 02:00:00 14.1 C 10.56 g/m*3 14.1 C 4.8 km/h
890 26-10-2019 02:05:00 14.2 C 10.5 g/m*3 14.2 C 4.8 km/h
891 26-10-2019 02:10:00 14.1 C 10.44 g/m*3 14.1 C 0 km/h
892 26-10-2019 02:15:00 13.9 C 10.31 g/m*3 13.9 C 0 km/h
893 26-10-2019 02:20:00 13.8 C 10.37 g/m*3 13.8 C 1.6 km/h
894 26-10-2019 02:25:00 13.6 C 10.24 g/m*3 13.6 C 0 km/h
895 26-10-2019 02:30:00 13.4 C 10.23 g/m*3 13.4 C 1.6 km/h
896 26-10-2019 02:35:00 13.3 C 10.28 g/m*3 13.3 C 0 km/h
897 26-10-2019 02:40:00 13.2 C 10.22 g/m*3 13.2 C 0 km/h
898 26-10-2019 02:45:00 13.1 C 10.16 g/m*3 13.1 C 0 km/h
899 26-10-2019 02:50:00 12.9 C 10.03 g/m*3 12.9 C 0 km/h
900 26-10-2019 02:55:00 12.8 C 10.08 g/m*3 12.8 C 0 km/h
Sensor: Nr:Datum:Temp:Abs-Feuchte:Windchill:Wind:
Aussen-T/F 901 26-10-2019 03:00:00 12.8 C 10.08 g/m*3 12.8 C 0 km/h
902 26-10-2019 03:05:00 12.7 C 10.02 g/m*3 12.7 C 0 km/h
903 26-10-2019 03:10:00 12.6 C 10.07 g/m*3 12.6 C 1.6 km/h
904 26-10-2019 03:15:00 12.5 C 10 g/m*3 12.5 C 0 km/h
905 26-10-2019 03:20:00 12.4 C 9.94 g/m*3 12.4 C 0 km/h
906 26-10-2019 03:25:00 12.3 C 9.88 g/m*3 12.3 C 4.8 km/h
907 26-10-2019 03:30:00 12.3 C 9.88 g/m*3 12.3 C 0 km/h
908 26-10-2019 03:35:00 12.2 C 9.82 g/m*3 12.2 C 0 km/h
909 26-10-2019 03:40:00 12 C 9.8 g/m*3 12 C 0 km/h
910 26-10-2019 03:45:00 11.9 C 9.74 g/m*3 11.9 C 0 km/h
911 26-10-2019 03:50:00 11.8 C 9.68 g/m*3 11.8 C 0 km/h
912 26-10-2019 03:55:00 11.7 C 9.62 g/m*3 11.7 C 0 km/h
913 26-10-2019 04:00:00 11.7 C 9.73 g/m*3 11.7 C 0 km/h
914 26-10-2019 04:05:00 11.6 C 9.67 g/m*3 11.6 C 0 km/h
915 26-10-2019 04:10:00 11.6 C 9.67 g/m*3 11.6 C 0 km/h
916 26-10-2019 04:15:00 11.5 C 9.61 g/m*3 11.5 C 0 km/h
917 26-10-2019 04:20:00 11.4 C 9.55 g/m*3 11.4 C 0 km/h
918 26-10-2019 04:25:00 11.3 C 9.49 g/m*3 11.3 C 0 km/h
919 26-10-2019 04:30:00 11.3 C 9.59 g/m*3 11.3 C 0 km/h
920 26-10-2019 04:35:00 11.4 C 9.65 g/m*3 11.4 C 0 km/h
921 26-10-2019 04:40:00 11.7 C 9.94 g/m*3 11.7 C 9.7 km/h
922 26-10-2019 04:45:00 11.8 C 10 g/m*3 11.8 C 6.4 km/h
923 26-10-2019 04:50:00 11.9 C 9.96 g/m*3 11.9 C 3.2 km/h
924 26-10-2019 04:55:00 11.9 C 9.96 g/m*3 11.9 C 1.6 km/h
925 26-10-2019 05:00:00 12.1 C 10.08 g/m*3 12.1 C 1.6 km/h
Sensor: Nr:Datum:Temp:Abs-Feuchte:Windchill:Wind:
Aussen-T/F 926 26-10-2019 05:05:00 12.2 C 10.14 g/m*3 12.2 C 8.1 km/h
927 26-10-2019 05:10:00 12.2 C 10.14 g/m*3 12.2 C 8.1 km/h
928 26-10-2019 05:15:00 12.3 C 10.21 g/m*3 12.3 C 3.2 km/h
929 26-10-2019 05:20:00 12.3 C 10.21 g/m*3 12.3 C 1.6 km/h
930 26-10-2019 05:25:00 12.4 C 10.16 g/m*3 12.4 C 3.2 km/h
931 26-10-2019 05:30:00 12.4 C 10.16 g/m*3 12.4 C 1.6 km/h
932 26-10-2019 05:35:00 12.4 C 10.16 g/m*3 12.4 C 0 km/h
933 26-10-2019 05:40:00 12.4 C 10.05 g/m*3 12.4 C 0 km/h
934 26-10-2019 05:45:00 12.3 C 9.99 g/m*3 12.3 C 0 km/h
935 26-10-2019 05:50:00 12.3 C 9.99 g/m*3 12.3 C 0 km/h
936 26-10-2019 05:55:00 12.2 C 9.93 g/m*3 12.2 C 0 km/h
937 26-10-2019 06:00:00 12.2 C 9.93 g/m*3 12.2 C 0 km/h
938 26-10-2019 06:05:00 12.1 C 9.97 g/m*3 12.1 C 1.6 km/h
939 26-10-2019 06:10:00 12.1 C 9.97 g/m*3 12.1 C 0 km/h
940 26-10-2019 06:15:00 11.9 C 9.85 g/m*3 11.9 C 0 km/h
941 26-10-2019 06:20:00 11.9 C 9.85 g/m*3 11.9 C 0 km/h
942 26-10-2019 06:25:00 11.8 C 9.79 g/m*3 11.8 C 0 km/h
943 26-10-2019 06:30:00 11.8 C 9.79 g/m*3 11.8 C 0 km/h
944 26-10-2019 06:35:00 11.8 C 9.89 g/m*3 11.8 C 0 km/h
945 26-10-2019 06:40:00 11.7 C 9.83 g/m*3 11.7 C 0 km/h
946 26-10-2019 06:45:00 11.7 C 9.83 g/m*3 11.7 C 0 km/h
947 26-10-2019 06:50:00 11.7 C 9.83 g/m*3 11.7 C 0 km/h
948 26-10-2019 06:55:00 11.7 C 9.83 g/m*3 11.7 C 0 km/h
949 26-10-2019 07:00:00 11.7 C 9.83 g/m*3 11.7 C 0 km/h
950 26-10-2019 07:05:00 11.6 C 9.77 g/m*3 11.6 C 0 km/h
Sensor: Nr:Datum:Temp:Abs-Feuchte:Windchill:Wind:
Aussen-T/F 951 26-10-2019 07:10:00 11.5 C 9.71 g/m*3 11.5 C 0 km/h
952 26-10-2019 07:15:00 11.4 C 9.65 g/m*3 11.4 C 0 km/h
953 26-10-2019 07:20:00 11.3 C 9.59 g/m*3 11.3 C 0 km/h
954 26-10-2019 07:25:00 11.2 C 9.53 g/m*3 11.2 C 0 km/h
955 26-10-2019 07:30:00 11.1 C 9.47 g/m*3 11.1 C 0 km/h
956 26-10-2019 07:35:00 10.9 C 9.35 g/m*3 10.9 C 0 km/h
957 26-10-2019 07:40:00 10.8 C 9.29 g/m*3 10.8 C 0 km/h
958 26-10-2019 07:45:00 10.7 C 9.23 g/m*3 10.7 C 0 km/h
959 26-10-2019 07:50:00 10.6 C 9.17 g/m*3 10.6 C 0 km/h
960 26-10-2019 07:55:00 10.4 C 9.06 g/m*3 10.4 C 0 km/h
961 26-10-2019 08:00:00 10.4 C 9.06 g/m*3 10.4 C 0 km/h
962 26-10-2019 08:05:00 10.3 C 9 g/m*3 10.3 C 0 km/h
963 26-10-2019 08:10:00 10.2 C 8.95 g/m*3 10.2 C 0 km/h
964 26-10-2019 08:15:00 10.1 C 8.89 g/m*3 10.1 C 0 km/h
965 26-10-2019 08:20:00 10.1 C 8.98 g/m*3 10.1 C 0 km/h
966 26-10-2019 08:25:00 10.1 C 8.98 g/m*3 10.1 C 0 km/h
967 26-10-2019 08:30:00 10.1 C 8.98 g/m*3 10.1 C 0 km/h
968 26-10-2019 08:35:00 10.1 C 8.98 g/m*3 10.1 C 0 km/h
969 26-10-2019 08:40:00 10.1 C 8.98 g/m*3 10.1 C 0 km/h
970 26-10-2019 08:45:00 10.1 C 8.98 g/m*3 10.1 C 0 km/h
971 26-10-2019 08:50:00 10.2 C 9.14 g/m*3 10.2 C 0 km/h
972 26-10-2019 08:55:00 10.1 C 8.98 g/m*3 10.1 C 0 km/h
973 26-10-2019 09:00:00 10.1 C 9.08 g/m*3 10.1 C 0 km/h
974 26-10-2019 09:05:00 10.1 C 9.08 g/m*3 10.1 C 0 km/h
975 26-10-2019 09:10:00 10.1 C 9.08 g/m*3 10.1 C 0 km/h
Sensor: Nr:Datum:Temp:Abs-Feuchte:Windchill:Wind:
Aussen-T/F 976 26-10-2019 09:15:00 10.2 C 9.14 g/m*3 10.2 C 0 km/h
977 26-10-2019 09:20:00 10.2 C 9.14 g/m*3 10.2 C 0 km/h
978 26-10-2019 09:25:00 10.3 C 9.19 g/m*3 10.3 C 0 km/h
979 26-10-2019 09:30:00 10.3 C 9.19 g/m*3 10.3 C 0 km/h
980 26-10-2019 09:35:00 10.4 C 9.25 g/m*3 10.4 C 0 km/h
981 26-10-2019 09:40:00 10.4 C 9.25 g/m*3 10.4 C 0 km/h
982 26-10-2019 09:45:00 10.5 C 9.31 g/m*3 10.5 C 0 km/h
983 26-10-2019 09:50:00 10.6 C 9.37 g/m*3 10.6 C 0 km/h
984 26-10-2019 09:55:00 10.7 C 9.43 g/m*3 10.7 C 0 km/h
985 26-10-2019 10:00:00 10.7 C 9.43 g/m*3 10.7 C 0 km/h
986 26-10-2019 10:05:00 10.8 C 9.49 g/m*3 10.8 C 0 km/h
987 26-10-2019 10:10:00 10.9 C 9.55 g/m*3 10.9 C 0 km/h
988 26-10-2019 10:15:00 11 C 9.61 g/m*3 11 C 0 km/h
989 26-10-2019 10:20:00 11.1 C 9.77 g/m*3 11.1 C 0 km/h
990 26-10-2019 10:25:00 11.2 C 9.83 g/m*3 11.2 C 0 km/h
991 26-10-2019 10:30:00 11.3 C 9.89 g/m*3 11.3 C 0 km/h
992 26-10-2019 10:35:00 11.4 C 9.96 g/m*3 11.4 C 0 km/h
993 26-10-2019 10:40:00 11.5 C 10.02 g/m*3 11.5 C 0 km/h
994 26-10-2019 10:45:00 11.7 C 10.15 g/m*3 11.7 C 0 km/h
995 26-10-2019 10:50:00 11.8 C 10.21 g/m*3 11.8 C 0 km/h
996 26-10-2019 10:55:00 11.8 C 10.21 g/m*3 11.8 C 0 km/h
997 26-10-2019 11:00:00 11.9 C 10.27 g/m*3 11.9 C 0 km/h
998 26-10-2019 11:05:00 12 C 10.34 g/m*3 12 C 0 km/h
999 26-10-2019 11:10:00 12.2 C 10.47 g/m*3 12.2 C 0 km/h
1000 26-10-2019 11:15:00 12.2 C 10.47 g/m*3 12.2 C 0 km/h
Sensor: Nr:Datum:Temp:Abs-Feuchte:Windchill:Wind:
Aussen-T/F 1001 26-10-2019 11:20:00 12.3 C 10.53 g/m*3 12.3 C 0 km/h
1002 26-10-2019 11:25:00 12.4 C 10.6 g/m*3 12.4 C 0 km/h
1003 26-10-2019 11:30:00 12.6 C 10.73 g/m*3 12.6 C 0 km/h
1004 26-10-2019 11:35:00 12.7 C 10.8 g/m*3 12.7 C 0 km/h
1005 26-10-2019 11:40:00 12.8 C 10.87 g/m*3 12.8 C 0 km/h
1006 26-10-2019 11:45:00 12.8 C 10.87 g/m*3 12.8 C 0 km/h
1007 26-10-2019 11:50:00 12.9 C 10.82 g/m*3 12.9 C 0 km/h
1008 26-10-2019 11:55:00 12.9 C 10.82 g/m*3 12.9 C 0 km/h
1009 26-10-2019 12:00:00 13.1 C 10.95 g/m*3 13.1 C 0 km/h
1010 26-10-2019 12:05:00 13.1 C 10.95 g/m*3 13.1 C 0 km/h
1011 26-10-2019 12:10:00 13.3 C 11.09 g/m*3 13.3 C 1.6 km/h
1012 26-10-2019 12:15:00 13.4 C 11.16 g/m*3 13.4 C 4.8 km/h
1013 26-10-2019 12:20:00 13.6 C 11.3 g/m*3 13.6 C 3.2 km/h
1014 26-10-2019 12:25:00 13.8 C 11.44 g/m*3 13.8 C 0 km/h
1015 26-10-2019 12:30:00 13.9 C 11.39 g/m*3 13.9 C 0 km/h
1016 26-10-2019 12:35:00 14.1 C 11.53 g/m*3 14.1 C 0 km/h
1017 26-10-2019 12:40:00 14.2 C 11.6 g/m*3 14.2 C 1.6 km/h
1018 26-10-2019 12:45:00 14.3 C 11.55 g/m*3 14.3 C 1.6 km/h
1019 26-10-2019 12:50:00 14.4 C 11.62 g/m*3 14.4 C 1.6 km/h
1020 26-10-2019 12:55:00 14.6 C 11.51 g/m*3 14.6 C 0 km/h
1021 26-10-2019 13:00:00 14.7 C 11.58 g/m*3 14.7 C 0 km/h
1022 26-10-2019 13:05:00 14.8 C 11.65 g/m*3 14.8 C 0 km/h
1023 26-10-2019 13:10:00 14.9 C 11.6 g/m*3 14.9 C 0 km/h
1024 26-10-2019 13:15:00 15.1 C 11.74 g/m*3 15.1 C 0 km/h
1025 26-10-2019 13:20:00 15.1 C 11.61 g/m*3 15.1 C 0 km/h
Sensor: Nr:Datum:Temp:Abs-Feuchte:Windchill:Wind:
Aussen-T/F 1026 26-10-2019 13:25:00 15.2 C 11.68 g/m*3 15.2 C 0 km/h
1027 26-10-2019 13:30:00 15.3 C 11.75 g/m*3 15.3 C 0 km/h
1028 26-10-2019 13:35:00 15.3 C 11.75 g/m*3 15.3 C 0 km/h
1029 26-10-2019 13:40:00 15.3 C 11.62 g/m*3 15.3 C 1.6 km/h
1030 26-10-2019 13:45:00 15.3 C 11.49 g/m*3 15.3 C 3.2 km/h
1031 26-10-2019 13:50:00 15.5 C 11.63 g/m*3 15.5 C 4.8 km/h
1032 26-10-2019 13:55:00 15.7 C 11.77 g/m*3 15.7 C 1.6 km/h
1033 26-10-2019 14:00:00 15.8 C 11.71 g/m*3 15.8 C 1.6 km/h
1034 26-10-2019 14:05:00 16.1 C 11.93 g/m*3 16.1 C 4.8 km/h
1035 26-10-2019 14:10:00 16.3 C 11.65 g/m*3 16.3 C 4.8 km/h
1036 26-10-2019 14:15:00 16.5 C 11.94 g/m*3 16.5 C 1.6 km/h
1037 26-10-2019 14:20:00 16.6 C 12.01 g/m*3 16.6 C 1.6 km/h
1038 26-10-2019 14:25:00 16.7 C 12.22 g/m*3 16.7 C 0 km/h
1039 26-10-2019 14:30:00 16.7 C 12.22 g/m*3 16.7 C 0 km/h
1040 26-10-2019 14:35:00 16.7 C 12.08 g/m*3 16.7 C 1.6 km/h
1041 26-10-2019 14:40:00 16.7 C 11.94 g/m*3 16.7 C 3.2 km/h
1042 26-10-2019 14:45:00 16.7 C 11.94 g/m*3 16.7 C 3.2 km/h
1043 26-10-2019 14:50:00 16.8 C 12.01 g/m*3 16.8 C 1.6 km/h
1044 26-10-2019 14:55:00 16.8 C 12.01 g/m*3 16.8 C 3.2 km/h
1045 26-10-2019 15:00:00 16.8 C 11.87 g/m*3 16.8 C 3.2 km/h
1046 26-10-2019 15:05:00 16.8 C 12.01 g/m*3 16.8 C 1.6 km/h
1047 26-10-2019 15:10:00 16.9 C 12.08 g/m*3 16.9 C 1.6 km/h
1048 26-10-2019 15:15:00 16.9 C 12.08 g/m*3 16.9 C 1.6 km/h
1049 26-10-2019 15:20:00 16.8 C 12.01 g/m*3 16.8 C 0 km/h
1050 26-10-2019 15:25:00 16.8 C 12.15 g/m*3 16.8 C 0 km/h
Sensor: Nr:Datum:Temp:Abs-Feuchte:Windchill:Wind:
Aussen-T/F 1051 26-10-2019 15:30:00 16.8 C 12.15 g/m*3 16.8 C 0 km/h
1052 26-10-2019 15:35:00 16.8 C 12.15 g/m*3 16.8 C 0 km/h
1053 26-10-2019 15:40:00 16.7 C 12.08 g/m*3 16.7 C 0 km/h
1054 26-10-2019 15:45:00 16.7 C 12.08 g/m*3 16.7 C 0 km/h
1055 26-10-2019 15:50:00 16.7 C 12.22 g/m*3 16.7 C 0 km/h
1056 26-10-2019 15:55:00 16.7 C 12.22 g/m*3 16.7 C 0 km/h
1057 26-10-2019 16:00:00 16.7 C 12.22 g/m*3 16.7 C 0 km/h
1058 26-10-2019 16:05:00 16.7 C 12.22 g/m*3 16.7 C 1.6 km/h
1059 26-10-2019 16:10:00 16.6 C 11.87 g/m*3 16.6 C 4.8 km/h
1060 26-10-2019 16:15:00 16.7 C 12.22 g/m*3 16.7 C 0 km/h
1061 26-10-2019 16:20:00 16.8 C 12.3 g/m*3 16.8 C 0 km/h
1062 26-10-2019 16:25:00 16.7 C 12.08 g/m*3 16.7 C 1.6 km/h
1063 26-10-2019 16:30:00 16.7 C 12.22 g/m*3 16.7 C 0 km/h
1064 26-10-2019 16:35:00 16.6 C 12.15 g/m*3 16.6 C 0 km/h
1065 26-10-2019 16:40:00 16.4 C 12 g/m*3 16.4 C 0 km/h
1066 26-10-2019 16:45:00 16.3 C 11.93 g/m*3 16.3 C 1.6 km/h
1067 26-10-2019 16:50:00 16.2 C 11.86 g/m*3 16.2 C 1.6 km/h
1068 26-10-2019 16:55:00 16 C 11.72 g/m*3 16 C 1.6 km/h
1069 26-10-2019 17:00:00 15.9 C 11.78 g/m*3 15.9 C 3.2 km/h
1070 26-10-2019 17:05:00 15.8 C 11.71 g/m*3 15.8 C 1.6 km/h
1071 26-10-2019 17:10:00 15.7 C 11.64 g/m*3 15.7 C 3.2 km/h
1072 26-10-2019 17:15:00 15.6 C 11.57 g/m*3 15.6 C 1.6 km/h
1073 26-10-2019 17:20:00 15.5 C 11.5 g/m*3 15.5 C 3.2 km/h
1074 26-10-2019 17:25:00 15.4 C 11.43 g/m*3 15.4 C 0 km/h
1075 26-10-2019 17:30:00 15.3 C 11.36 g/m*3 15.3 C 0 km/h
Sensor: Nr:Datum:Temp:Abs-Feuchte:Windchill:Wind:
Aussen-T/F 1076 26-10-2019 17:35:00 15.2 C 11.42 g/m*3 15.2 C 1.6 km/h
1077 26-10-2019 17:40:00 15 C 11.28 g/m*3 15 C 0 km/h
1078 26-10-2019 17:45:00 14.9 C 11.22 g/m*3 14.9 C 1.6 km/h
1079 26-10-2019 17:50:00 14.8 C 11.15 g/m*3 14.8 C 1.6 km/h
1080 26-10-2019 17:55:00 14.7 C 11.08 g/m*3 14.7 C 1.6 km/h
1081 26-10-2019 18:00:00 14.6 C 11.01 g/m*3 14.6 C 1.6 km/h
1082 26-10-2019 18:05:00 14.4 C 10.88 g/m*3 14.4 C 0 km/h
1083 26-10-2019 18:10:00 14.3 C 10.81 g/m*3 14.3 C 0 km/h
1084 26-10-2019 18:15:00 14.2 C 10.87 g/m*3 14.2 C 0 km/h
1085 26-10-2019 18:20:00 14.1 C 10.8 g/m*3 14.1 C 1.6 km/h
1086 26-10-2019 18:25:00 14.1 C 10.8 g/m*3 14.1 C 0 km/h
1087 26-10-2019 18:30:00 13.9 C 10.67 g/m*3 13.9 C 0 km/h
1088 26-10-2019 18:35:00 13.7 C 10.54 g/m*3 13.7 C 0 km/h
1089 26-10-2019 18:40:00 13.6 C 10.59 g/m*3 13.6 C 0 km/h
1090 26-10-2019 18:45:00 13.5 C 10.53 g/m*3 13.5 C 0 km/h
1091 26-10-2019 18:50:00 13.4 C 10.46 g/m*3 13.4 C 1.6 km/h
1092 26-10-2019 18:55:00 13.3 C 10.4 g/m*3 13.3 C 1.6 km/h
1093 26-10-2019 19:00:00 13.3 C 10.4 g/m*3 13.3 C 1.6 km/h
1094 26-10-2019 19:05:00 13.3 C 10.4 g/m*3 13.3 C 0 km/h
1095 26-10-2019 19:10:00 13.2 C 10.33 g/m*3 13.2 C 0 km/h
1096 26-10-2019 19:15:00 13.2 C 10.33 g/m*3 13.2 C 0 km/h
1097 26-10-2019 19:20:00 13.1 C 10.38 g/m*3 13.1 C 0 km/h
1098 26-10-2019 19:25:00 13 C 10.32 g/m*3 13 C 0 km/h
1099 26-10-2019 19:30:00 12.9 C 10.26 g/m*3 12.9 C 1.6 km/h
1100 26-10-2019 19:35:00 12.8 C 10.19 g/m*3 12.8 C 0 km/h
Sensor: Nr:Datum:Temp:Abs-Feuchte:Windchill:Wind:
Aussen-T/F 1101 26-10-2019 19:40:00 12.8 C 10.3 g/m*3 12.8 C 0 km/h
1102 26-10-2019 19:45:00 12.7 C 10.24 g/m*3 12.7 C 0 km/h
1103 26-10-2019 19:50:00 12.7 C 10.24 g/m*3 12.7 C 0 km/h
1104 26-10-2019 19:55:00 12.7 C 10.24 g/m*3 12.7 C 0 km/h
1105 26-10-2019 20:00:00 12.7 C 10.24 g/m*3 12.7 C 0 km/h
1106 26-10-2019 20:05:00 12.7 C 10.24 g/m*3 12.7 C 0 km/h
1107 26-10-2019 20:10:00 12.8 C 10.42 g/m*3 12.8 C 1.6 km/h
1108 26-10-2019 20:15:00 12.8 C 10.42 g/m*3 12.8 C 1.6 km/h
1109 26-10-2019 20:20:00 12.8 C 10.42 g/m*3 12.8 C 0 km/h
1110 26-10-2019 20:25:00 12.9 C 10.48 g/m*3 12.9 C 0 km/h
1111 26-10-2019 20:30:00 12.9 C 10.48 g/m*3 12.9 C 0 km/h
1112 26-10-2019 20:35:00 12.9 C 10.48 g/m*3 12.9 C 0 km/h
1113 26-10-2019 20:40:00 12.9 C 10.48 g/m*3 12.9 C 1.6 km/h
1114 26-10-2019 20:45:00 13 C 10.55 g/m*3 13 C 0 km/h
1115 26-10-2019 20:50:00 13 C 10.43 g/m*3 13 C 0 km/h
1116 26-10-2019 20:55:00 13 C 10.43 g/m*3 13 C 0 km/h
1117 26-10-2019 21:00:00 13 C 10.43 g/m*3 13 C 0 km/h
1118 26-10-2019 21:05:00 12.9 C 10.37 g/m*3 12.9 C 0 km/h
1119 26-10-2019 21:10:00 13 C 10.43 g/m*3 13 C 0 km/h
1120 26-10-2019 21:15:00 13.1 C 10.5 g/m*3 13.1 C 0 km/h
1121 26-10-2019 21:20:00 13.1 C 10.5 g/m*3 13.1 C 0 km/h
1122 26-10-2019 21:25:00 13.1 C 10.5 g/m*3 13.1 C 0 km/h
1123 26-10-2019 21:30:00 13 C 10.43 g/m*3 13 C 0 km/h
1124 26-10-2019 21:35:00 13 C 10.43 g/m*3 13 C 0 km/h
1125 26-10-2019 21:40:00 13 C 10.43 g/m*3 13 C 0 km/h
Sensor: Nr:Datum:Temp:Abs-Feuchte:Windchill:Wind:
Aussen-T/F 1126 26-10-2019 21:45:00 12.9 C 10.37 g/m*3 12.9 C 0 km/h
1127 26-10-2019 21:50:00 12.9 C 10.37 g/m*3 12.9 C 0 km/h
1128 26-10-2019 21:55:00 12.9 C 10.48 g/m*3 12.9 C 0 km/h
1129 26-10-2019 22:00:00 12.8 C 10.42 g/m*3 12.8 C 0 km/h
1130 26-10-2019 22:05:00 12.8 C 10.42 g/m*3 12.8 C 0 km/h
1131 26-10-2019 22:10:00 12.7 C 10.35 g/m*3 12.7 C 0 km/h
1132 26-10-2019 22:15:00 12.7 C 10.35 g/m*3 12.7 C 0 km/h
1133 26-10-2019 22:20:00 12.7 C 10.35 g/m*3 12.7 C 0 km/h
1134 26-10-2019 22:25:00 12.7 C 10.35 g/m*3 12.7 C 0 km/h
1135 26-10-2019 22:30:00 12.6 C 10.29 g/m*3 12.6 C 0 km/h
1136 26-10-2019 22:35:00 12.6 C 10.29 g/m*3 12.6 C 0 km/h
1137 26-10-2019 22:40:00 12.6 C 10.29 g/m*3 12.6 C 0 km/h
1138 26-10-2019 22:45:00 12.6 C 10.29 g/m*3 12.6 C 0 km/h
1139 26-10-2019 22:50:00 12.5 C 10.22 g/m*3 12.5 C 0 km/h
1140 26-10-2019 22:55:00 12.4 C 10.16 g/m*3 12.4 C 0 km/h
1141 26-10-2019 23:00:00 12.4 C 10.27 g/m*3 12.4 C 0 km/h
1142 26-10-2019 23:05:00 12.4 C 10.27 g/m*3 12.4 C 0 km/h
1143 26-10-2019 23:10:00 12.4 C 10.27 g/m*3 12.4 C 0 km/h
1144 26-10-2019 23:15:00 12.5 C 10.33 g/m*3 12.5 C 0 km/h
1145 26-10-2019 23:20:00 12.6 C 10.4 g/m*3 12.6 C 0 km/h
1146 26-10-2019 23:25:00 12.6 C 10.4 g/m*3 12.6 C 0 km/h
1147 26-10-2019 23:30:00 12.6 C 10.4 g/m*3 12.6 C 0 km/h
1148 26-10-2019 23:35:00 12.7 C 10.46 g/m*3 12.7 C 4.8 km/h
1149 26-10-2019 23:40:00 12.8 C 10.53 g/m*3 12.8 C 0 km/h
1150 26-10-2019 23:45:00 12.8 C 10.53 g/m*3 12.8 C 0 km/h
Sensor: Nr:Datum:Temp:Abs-Feuchte:Windchill:Wind:
Aussen-T/F 1151 26-10-2019 23:50:00 12.8 C 10.42 g/m*3 12.8 C 0 km/h
1152 26-10-2019 23:55:00 12.9 C 10.48 g/m*3 12.9 C 0 km/h
1153 27-10-2019 00:00:00 12.8 C 10.42 g/m*3 12.8 C 1.6 km/h
1154 27-10-2019 00:05:00 12.9 C 10.48 g/m*3 12.9 C 1.6 km/h
1155 27-10-2019 00:10:00 13 C 10.55 g/m*3 13 C 3.2 km/h
1156 27-10-2019 00:15:00 13.1 C 10.5 g/m*3 13.1 C 0 km/h
1157 27-10-2019 00:20:00 13.1 C 10.5 g/m*3 13.1 C 0 km/h
1158 27-10-2019 00:25:00 13.1 C 10.5 g/m*3 13.1 C 0 km/h
1159 27-10-2019 00:30:00 13.2 C 10.56 g/m*3 13.2 C 1.6 km/h
1160 27-10-2019 00:35:00 13.7 C 10.42 g/m*3 13.7 C 12.9 km/h
1161 27-10-2019 00:40:00 14.1 C 10.68 g/m*3 14.1 C 4.8 km/h
1162 27-10-2019 00:45:00 14.2 C 10.75 g/m*3 14.2 C 1.6 km/h
1163 27-10-2019 00:50:00 14.1 C 10.56 g/m*3 14.1 C 1.6 km/h
1164 27-10-2019 00:55:00 14.2 C 10.5 g/m*3 14.2 C 11.3 km/h
1165 27-10-2019 01:00:00 14.2 C 10.62 g/m*3 14.2 C 0 km/h
1166 27-10-2019 01:05:00 14.1 C 10.44 g/m*3 14.1 C 0 km/h
1167 27-10-2019 01:10:00 14 C 10.49 g/m*3 14 C 1.6 km/h
1168 27-10-2019 01:15:00 13.9 C 10.31 g/m*3 13.9 C 1.6 km/h
1169 27-10-2019 01:20:00 13.9 C 10.43 g/m*3 13.9 C 1.6 km/h
1170 27-10-2019 01:25:00 13.9 C 10.43 g/m*3 13.9 C 0 km/h
1171 27-10-2019 01:30:00 13.7 C 10.3 g/m*3 13.7 C 1.6 km/h
1172 27-10-2019 01:35:00 13.6 C 10.36 g/m*3 13.6 C 3.2 km/h
1173 27-10-2019 01:40:00 13.6 C 10.36 g/m*3 13.6 C 0 km/h
1174 27-10-2019 01:45:00 13.4 C 10.35 g/m*3 13.4 C 0 km/h
1175 27-10-2019 01:50:00 13.3 C 10.28 g/m*3 13.3 C 0 km/h
Sensor: Nr:Datum:Temp:Abs-Feuchte:Windchill:Wind:
Aussen-T/F 1176 27-10-2019 01:55:00 13.3 C 10.28 g/m*3 13.3 C 0 km/h
1177 27-10-2019 02:00:00 13.2 C 10.22 g/m*3 13.2 C 3.2 km/h
1178 27-10-2019 02:05:00 13.3 C 10.28 g/m*3 13.3 C 0 km/h
1179 27-10-2019 02:10:00 13.3 C 10.28 g/m*3 13.3 C 3.2 km/h
1180 27-10-2019 02:15:00 13.2 C 10.22 g/m*3 13.2 C 1.6 km/h
1181 27-10-2019 02:20:00 13.2 C 10.22 g/m*3 13.2 C 0 km/h
1182 27-10-2019 02:25:00 13 C 10.09 g/m*3 13 C 0 km/h
1183 27-10-2019 02:30:00 12.9 C 10.14 g/m*3 12.9 C 0 km/h
1184 27-10-2019 02:35:00 12.8 C 10.08 g/m*3 12.8 C 1.6 km/h
1185 27-10-2019 02:40:00 12.8 C 10.08 g/m*3 12.8 C 0 km/h
1186 27-10-2019 02:45:00 12.7 C 10.02 g/m*3 12.7 C 3.2 km/h
1187 27-10-2019 02:50:00 12.7 C 10.02 g/m*3 12.7 C 6.4 km/h
1188 27-10-2019 02:55:00 12.7 C 10.02 g/m*3 12.7 C 4.8 km/h
1189 27-10-2019 04:00:00 12.7 C 10.13 g/m*3 12.7 C 3.2 km/h
1190 27-10-2019 04:05:00 12.6 C 10.07 g/m*3 12.6 C 3.2 km/h
1191 27-10-2019 04:05:00 11.9 C 9.85 g/m*3 11.9 C 0 km/h
1192 27-10-2019 04:10:00 12.6 C 10.07 g/m*3 12.6 C 1.6 km/h
1193 27-10-2019 04:10:00 11.9 C 9.85 g/m*3 11.9 C 1.6 km/h
1194 27-10-2019 04:15:00 12.4 C 9.94 g/m*3 12.4 C 3.2 km/h
1195 27-10-2019 04:15:00 11.9 C 9.85 g/m*3 11.9 C 0 km/h
1196 27-10-2019 04:20:00 11.9 C 9.85 g/m*3 11.9 C 0 km/h
1197 27-10-2019 04:20:00 12.4 C 10.05 g/m*3 12.4 C 1.6 km/h
1198 27-10-2019 04:25:00 11.9 C 9.85 g/m*3 11.9 C 0 km/h
1199 27-10-2019 04:25:00 12.4 C 10.05 g/m*3 12.4 C 0 km/h
1200 27-10-2019 04:30:00 11.9 C 9.85 g/m*3 11.9 C 0 km/h
Sensor: Nr:Datum:Temp:Abs-Feuchte:Windchill:Wind:
Aussen-T/F 1201 27-10-2019 04:30:00 12.3 C 9.99 g/m*3 12.3 C 0 km/h
1202 27-10-2019 04:35:00 11.9 C 9.85 g/m*3 11.9 C 1.6 km/h
1203 27-10-2019 04:35:00 12.2 C 9.93 g/m*3 12.2 C 0 km/h
1204 27-10-2019 04:40:00 12.2 C 9.82 g/m*3 12.2 C 0 km/h
1205 27-10-2019 04:40:00 12.1 C 9.97 g/m*3 12.1 C 0 km/h
1206 27-10-2019 04:45:00 12.1 C 9.87 g/m*3 12.1 C 0 km/h
1207 27-10-2019 04:45:00 12.1 C 9.97 g/m*3 12.1 C 1.6 km/h
1208 27-10-2019 04:50:00 11.9 C 9.74 g/m*3 11.9 C 0 km/h
1209 27-10-2019 04:50:00 12.3 C 10.1 g/m*3 12.3 C 4.8 km/h
1210 27-10-2019 04:55:00 11.9 C 9.74 g/m*3 11.9 C 0 km/h
1211 27-10-2019 04:55:00 12.5 C 10.11 g/m*3 12.5 C 1.6 km/h
1212 27-10-2019 05:00:00 12.6 C 10.07 g/m*3 12.6 C 0 km/h
1213 27-10-2019 05:00:00 11.9 C 9.85 g/m*3 11.9 C 0 km/h
1214 27-10-2019 05:05:00 12.7 C 10.13 g/m*3 12.7 C 0 km/h
1215 27-10-2019 05:10:00 12.7 C 10.13 g/m*3 12.7 C 0 km/h
1216 27-10-2019 05:15:00 12.8 C 10.19 g/m*3 12.8 C 0 km/h
1217 27-10-2019 05:20:00 12.8 C 10.19 g/m*3 12.8 C 1.6 km/h
1218 27-10-2019 05:25:00 12.9 C 10.37 g/m*3 12.9 C 0 km/h
1219 27-10-2019 05:30:00 13 C 10.32 g/m*3 13 C 1.6 km/h
1220 27-10-2019 05:35:00 13.1 C 10.38 g/m*3 13.1 C 0 km/h
1221 27-10-2019 05:40:00 13.1 C 10.38 g/m*3 13.1 C 4.8 km/h
1222 27-10-2019 05:45:00 13.2 C 10.45 g/m*3 13.2 C 0 km/h
1223 27-10-2019 05:50:00 13.3 C 10.51 g/m*3 13.3 C 3.2 km/h
1224 27-10-2019 05:55:00 13.3 C 10.51 g/m*3 13.3 C 1.6 km/h
1225 27-10-2019 06:00:00 13.4 C 10.35 g/m*3 13.4 C 1.6 km/h
Sensor: Nr:Datum:Temp:Abs-Feuchte:Windchill:Wind:
Aussen-T/F 1226 27-10-2019 06:05:00 13.7 C 10.42 g/m*3 13.7 C 14.5 km/h
1227 27-10-2019 06:10:00 13.9 C 10.43 g/m*3 13.9 C 14.5 km/h
1228 27-10-2019 06:15:00 14.2 C 10.62 g/m*3 14.2 C 1.6 km/h
1229 27-10-2019 06:20:00 14.2 C 10.5 g/m*3 14.2 C 8.1 km/h
1230 27-10-2019 06:25:00 14.3 C 10.44 g/m*3 14.3 C 11.3 km/h
1231 27-10-2019 06:30:00 14.3 C 10.44 g/m*3 14.3 C 6.4 km/h
1232 27-10-2019 06:35:00 14.3 C 10.44 g/m*3 14.3 C 6.4 km/h
1233 27-10-2019 06:40:00 14.3 C 10.44 g/m*3 14.3 C 4.8 km/h
1234 27-10-2019 06:45:00 14.3 C 10.44 g/m*3 14.3 C 1.6 km/h
1235 27-10-2019 06:50:00 14.3 C 10.44 g/m*3 14.3 C 3.2 km/h
1236 27-10-2019 06:55:00 14.3 C 10.44 g/m*3 14.3 C 11.3 km/h
1237 27-10-2019 07:00:00 14.4 C 10.51 g/m*3 14.4 C 9.7 km/h
1238 27-10-2019 07:05:00 14.4 C 10.51 g/m*3 14.4 C 8.1 km/h
1239 27-10-2019 07:10:00 14.5 C 10.57 g/m*3 14.5 C 11.3 km/h
1240 27-10-2019 07:15:00 14.5 C 10.57 g/m*3 14.5 C 4.8 km/h
1241 27-10-2019 07:20:00 14.5 C 10.7 g/m*3 14.5 C 6.4 km/h
1242 27-10-2019 07:25:00 14.4 C 10.75 g/m*3 14.4 C 4.8 km/h
1243 27-10-2019 07:30:00 14.3 C 10.81 g/m*3 14.3 C 1.6 km/h
1244 27-10-2019 07:35:00 14.2 C 10.75 g/m*3 14.2 C 9.7 km/h
1245 27-10-2019 07:40:00 14.1 C 10.8 g/m*3 14.1 C 11.3 km/h
1246 27-10-2019 07:45:00 13.9 C 10.79 g/m*3 13.9 C 9.7 km/h
1247 27-10-2019 07:50:00 13.6 C 10.59 g/m*3 13.6 C 19.3 km/h
1248 27-10-2019 07:55:00 13.2 C 10.33 g/m*3 13.2 C 19.3 km/h
1249 27-10-2019 08:00:00 12.8 C 10.08 g/m*3 12.8 C 14.5 km/h
1250 27-10-2019 08:05:00 12.6 C 10.07 g/m*3 12.6 C 9.7 km/h
Sensor: Nr:Datum:Temp:Abs-Feuchte:Windchill:Wind:
Aussen-T/F 1251 27-10-2019 08:10:00 12.3 C 9.88 g/m*3 12.3 C 12.9 km/h
1252 27-10-2019 08:15:00 12.2 C 9.82 g/m*3 12.2 C 9.7 km/h
1253 27-10-2019 08:20:00 12.1 C 9.87 g/m*3 12.1 C 8.1 km/h
1254 27-10-2019 08:25:00 11.9 C 9.74 g/m*3 11.9 C 11.3 km/h
1255 27-10-2019 08:30:00 11.8 C 9.68 g/m*3 11.8 C 12.9 km/h
1256 27-10-2019 08:35:00 11.7 C 9.62 g/m*3 11.7 C 3.2 km/h
1257 27-10-2019 08:40:00 11.7 C 9.73 g/m*3 11.7 C 12.9 km/h
1258 27-10-2019 08:45:00 11.6 C 9.67 g/m*3 11.6 C 14.5 km/h
1259 27-10-2019 08:50:00 11.6 C 9.56 g/m*3 11.6 C 11.3 km/h
1260 27-10-2019 08:55:00 11.4 C 9.55 g/m*3 11.4 C 9.7 km/h
1261 27-10-2019 09:00:00 11.4 C 9.55 g/m*3 11.4 C 8.1 km/h
1262 27-10-2019 09:05:00 11.3 C 9.49 g/m*3 11.3 C 14.5 km/h
1263 27-10-2019 09:10:00 11.1 C 9.37 g/m*3 11.1 C 14.5 km/h
1264 27-10-2019 09:15:00 10.8 C 9.09 g/m*3 8.96 C 14.5 km/h
1265 27-10-2019 09:20:00 10.6 C 8.98 g/m*3 8.92 C 12.9 km/h
1266 27-10-2019 09:25:00 10.3 C 8.91 g/m*3 9.04 C 9.7 km/h
1267 27-10-2019 09:30:00 10.1 C 8.7 g/m*3 8.31 C 12.9 km/h
1268 27-10-2019 09:35:00 10.1 C 8.79 g/m*3 9.48 C 6.4 km/h
1269 27-10-2019 09:40:00 10.1 C 8.79 g/m*3 10.1 C 4.8 km/h
1270 27-10-2019 09:45:00 9.9 C 8.78 g/m*3 8.56 C 9.7 km/h
1271 27-10-2019 09:50:00 9.8 C 8.63 g/m*3 9.8 C 4.8 km/h
1272 27-10-2019 09:55:00 9.6 C 8.52 g/m*3 8.91 C 6.4 km/h
1273 27-10-2019 10:00:00 9.4 C 8.32 g/m*3 9.4 C 4.8 km/h
1274 27-10-2019 10:05:00 9.4 C 8.41 g/m*3 9.4 C 3.2 km/h
1275 27-10-2019 10:10:00 9.4 C 8.41 g/m*3 9.4 C 4.8 km/h
Sensor: Nr:Datum:Temp:Abs-Feuchte:Windchill:Wind:
Aussen-T/F 1276 27-10-2019 10:15:00 9.5 C 8.56 g/m*3 9.5 C 0 km/h
1277 27-10-2019 10:20:00 9.6 C 8.61 g/m*3 9.6 C 1.6 km/h
1278 27-10-2019 10:25:00 9.6 C 8.61 g/m*3 9.6 C 0 km/h
1279 27-10-2019 10:30:00 9.4 C 8.5 g/m*3 9.4 C 4.8 km/h
1280 27-10-2019 10:35:00 9.4 C 8.5 g/m*3 9.4 C 0 km/h
1281 27-10-2019 10:40:00 9.3 C 8.36 g/m*3 9.3 C 0 km/h
1282 27-10-2019 10:45:00 9.3 C 8.45 g/m*3 9.3 C 0 km/h
1283 27-10-2019 10:50:00 9.4 C 8.5 g/m*3 9.4 C 0 km/h
1284 27-10-2019 10:55:00 9.6 C 8.7 g/m*3 9.6 C 0 km/h
1285 27-10-2019 11:00:00 9.7 C 8.76 g/m*3 9.7 C 0 km/h
1286 27-10-2019 11:05:00 9.7 C 8.76 g/m*3 9.7 C 0 km/h
1287 27-10-2019 11:10:00 9.8 C 8.81 g/m*3 9.8 C 0 km/h
1288 27-10-2019 11:15:00 9.7 C 8.67 g/m*3 9.7 C 0 km/h
1289 27-10-2019 11:20:00 9.7 C 8.67 g/m*3 9.7 C 0 km/h
1290 27-10-2019 11:25:00 9.7 C 8.76 g/m*3 9.7 C 0 km/h
1291 27-10-2019 11:30:00 9.8 C 8.81 g/m*3 9.8 C 0 km/h
1292 27-10-2019 11:35:00 9.8 C 8.81 g/m*3 9.8 C 4.8 km/h
1293 27-10-2019 11:40:00 9.8 C 8.72 g/m*3 9.8 C 3.2 km/h
1294 27-10-2019 11:45:00 9.8 C 8.72 g/m*3 9.8 C 0 km/h
1295 27-10-2019 11:50:00 9.8 C 8.72 g/m*3 9.8 C 1.6 km/h
1296 27-10-2019 11:55:00 9.8 C 8.72 g/m*3 9.8 C 1.6 km/h
1297 27-10-2019 12:00:00 9.9 C 8.78 g/m*3 9.9 C 1.6 km/h
1298 27-10-2019 12:05:00 10 C 8.93 g/m*3 10 C 0 km/h
1299 27-10-2019 12:10:00 10.1 C 8.98 g/m*3 10.1 C 0 km/h
1300 27-10-2019 12:15:00 10.1 C 8.98 g/m*3 10.1 C 0 km/h
Sensor: Nr:Datum:Temp:Abs-Feuchte:Windchill:Wind:
Aussen-T/F 1301 27-10-2019 12:20:00 10 C 8.83 g/m*3 10 C 0 km/h
1302 27-10-2019 12:25:00 10 C 8.83 g/m*3 10 C 0 km/h
1303 27-10-2019 12:30:00 10.1 C 8.98 g/m*3 10.1 C 0 km/h
1304 27-10-2019 12:35:00 10.1 C 8.98 g/m*3 10.1 C 0 km/h
1305 27-10-2019 12:40:00 10 C 8.83 g/m*3 10 C 0 km/h
1306 27-10-2019 12:45:00 9.9 C 8.78 g/m*3 9.9 C 3.2 km/h
1307 27-10-2019 12:50:00 9.9 C 8.78 g/m*3 9.9 C 0 km/h
1308 27-10-2019 12:55:00 9.9 C 8.78 g/m*3 9.9 C 0 km/h
1309 27-10-2019 13:00:00 9.9 C 8.87 g/m*3 9.9 C 0 km/h
1310 27-10-2019 13:05:00 9.9 C 8.87 g/m*3 9.9 C 0 km/h
1311 27-10-2019 13:10:00 9.9 C 8.87 g/m*3 9.9 C 0 km/h
1312 27-10-2019 13:15:00 9.9 C 8.78 g/m*3 9.9 C 0 km/h
1313 27-10-2019 13:20:00 9.9 C 8.78 g/m*3 9.9 C 0 km/h
1314 27-10-2019 13:25:00 9.9 C 8.87 g/m*3 9.9 C 0 km/h
1315 27-10-2019 13:30:00 9.9 C 8.87 g/m*3 9.9 C 0 km/h
1316 27-10-2019 13:35:00 9.9 C 8.87 g/m*3 9.9 C 0 km/h
1317 27-10-2019 13:40:00 9.9 C 8.87 g/m*3 9.9 C 0 km/h
1318 27-10-2019 13:45:00 9.9 C 8.87 g/m*3 9.9 C 0 km/h
1319 27-10-2019 13:50:00 9.9 C 8.78 g/m*3 9.9 C 0 km/h
1320 27-10-2019 13:55:00 9.9 C 8.78 g/m*3 9.9 C 0 km/h
1321 27-10-2019 14:00:00 9.8 C 8.72 g/m*3 9.8 C 0 km/h
1322 27-10-2019 14:05:00 9.8 C 8.72 g/m*3 9.8 C 1.6 km/h
1323 27-10-2019 14:10:00 9.7 C 8.67 g/m*3 9.7 C 1.6 km/h
1324 27-10-2019 14:15:00 9.7 C 8.67 g/m*3 9.7 C 1.6 km/h
1325 27-10-2019 14:20:00 9.6 C 8.61 g/m*3 9.6 C 0 km/h
Sensor: Nr:Datum:Temp:Abs-Feuchte:Windchill:Wind:
Aussen-T/F 1326 27-10-2019 14:25:00 9.4 C 8.5 g/m*3 9.4 C 0 km/h
1327 27-10-2019 14:30:00 9.4 C 8.5 g/m*3 9.4 C 0 km/h
1328 27-10-2019 14:35:00 9.4 C 8.5 g/m*3 9.4 C 0 km/h
1329 27-10-2019 14:40:00 9.4 C 8.5 g/m*3 9.4 C 0 km/h
1330 27-10-2019 14:45:00 9.4 C 8.59 g/m*3 9.4 C 0 km/h
1331 27-10-2019 14:50:00 9.4 C 8.59 g/m*3 9.4 C 0 km/h
1332 27-10-2019 14:55:00 9.4 C 8.59 g/m*3 9.4 C 0 km/h
1333 27-10-2019 15:00:00 9.4 C 8.59 g/m*3 9.4 C 0 km/h
1334 27-10-2019 15:05:00 9.4 C 8.59 g/m*3 9.4 C 0 km/h
1335 27-10-2019 15:10:00 9.5 C 8.65 g/m*3 9.5 C 0 km/h
1336 27-10-2019 15:15:00 9.5 C 8.65 g/m*3 9.5 C 0 km/h
1337 27-10-2019 15:20:00 9.5 C 8.65 g/m*3 9.5 C 0 km/h
1338 27-10-2019 15:25:00 9.5 C 8.65 g/m*3 9.5 C 0 km/h
1339 27-10-2019 15:30:00 9.4 C 8.59 g/m*3 9.4 C 0 km/h
1340 27-10-2019 15:35:00 9.4 C 8.59 g/m*3 9.4 C 0 km/h
1341 27-10-2019 15:40:00 9.4 C 8.59 g/m*3 9.4 C 0 km/h
1342 27-10-2019 15:45:00 9.4 C 8.59 g/m*3 9.4 C 0 km/h
1343 27-10-2019 15:50:00 9.4 C 8.59 g/m*3 9.4 C 0 km/h
1344 27-10-2019 15:55:00 9.4 C 8.59 g/m*3 9.4 C 0 km/h
1345 27-10-2019 16:00:00 9.4 C 8.59 g/m*3 9.4 C 0 km/h
1346 27-10-2019 16:05:00 9.4 C 8.59 g/m*3 9.4 C 0 km/h
1347 27-10-2019 16:10:00 9.3 C 8.54 g/m*3 9.3 C 0 km/h
1348 27-10-2019 16:15:00 9.3 C 8.54 g/m*3 9.3 C 0 km/h
1349 27-10-2019 16:20:00 9.3 C 8.54 g/m*3 9.3 C 0 km/h
1350 27-10-2019 16:25:00 9.2 C 8.48 g/m*3 9.2 C 0 km/h
Sensor: Nr:Datum:Temp:Abs-Feuchte:Windchill:Wind:
Aussen-T/F 1351 27-10-2019 16:30:00 9.2 C 8.48 g/m*3 9.2 C 0 km/h
1352 27-10-2019 16:35:00 9.1 C 8.43 g/m*3 9.1 C 0 km/h
1353 27-10-2019 16:40:00 9.1 C 8.43 g/m*3 9.1 C 0 km/h
1354 27-10-2019 16:45:00 9 C 8.38 g/m*3 9 C 0 km/h
1355 27-10-2019 16:50:00 8.9 C 8.32 g/m*3 8.9 C 0 km/h
1356 27-10-2019 16:55:00 8.8 C 8.27 g/m*3 8.8 C 0 km/h
1357 27-10-2019 17:00:00 8.8 C 8.27 g/m*3 8.8 C 0 km/h
1358 27-10-2019 17:05:00 8.7 C 8.22 g/m*3 8.7 C 0 km/h
1359 27-10-2019 17:10:00 8.7 C 8.22 g/m*3 8.7 C 0 km/h
1360 27-10-2019 17:15:00 8.6 C 8.16 g/m*3 8.6 C 0 km/h
1361 27-10-2019 17:20:00 8.6 C 8.16 g/m*3 8.6 C 0 km/h
1362 27-10-2019 17:25:00 8.6 C 8.16 g/m*3 8.6 C 0 km/h
1363 27-10-2019 17:30:00 8.5 C 8.11 g/m*3 8.5 C 0 km/h
1364 27-10-2019 17:35:00 8.5 C 8.11 g/m*3 8.5 C 0 km/h
1365 27-10-2019 17:40:00 8.4 C 8.14 g/m*3 8.4 C 0 km/h
1366 27-10-2019 17:45:00 8.4 C 8.14 g/m*3 8.4 C 0 km/h
1367 27-10-2019 17:50:00 8.4 C 8.14 g/m*3 8.4 C 0 km/h
1368 27-10-2019 17:55:00 8.4 C 8.14 g/m*3 8.4 C 0 km/h
1369 27-10-2019 18:00:00 8.4 C 8.14 g/m*3 8.4 C 0 km/h
1370 27-10-2019 18:05:00 8.4 C 8.14 g/m*3 8.4 C 0 km/h
1371 27-10-2019 18:10:00 8.4 C 8.14 g/m*3 8.4 C 0 km/h
1372 27-10-2019 18:15:00 8.4 C 8.14 g/m*3 8.4 C 0 km/h
1373 27-10-2019 18:20:00 8.4 C 8.14 g/m*3 8.4 C 0 km/h
1374 27-10-2019 18:25:00 8.4 C 8.14 g/m*3 8.4 C 0 km/h
1375 27-10-2019 18:30:00 8.3 C 8.09 g/m*3 8.3 C 0 km/h
Sensor: Nr:Datum:Temp:Abs-Feuchte:Windchill:Wind:
Aussen-T/F 1376 27-10-2019 18:35:00 8.3 C 8.09 g/m*3 8.3 C 0 km/h
1377 27-10-2019 18:40:00 8.3 C 8.09 g/m*3 8.3 C 0 km/h
1378 27-10-2019 18:45:00 8.3 C 8.09 g/m*3 8.3 C 0 km/h
1379 27-10-2019 18:50:00 8.3 C 8.09 g/m*3 8.3 C 0 km/h
1380 27-10-2019 18:55:00 8.3 C 8.09 g/m*3 8.3 C 0 km/h
1381 27-10-2019 19:00:00 8.3 C 8.09 g/m*3 8.3 C 0 km/h
1382 27-10-2019 19:05:00 8.3 C 8.09 g/m*3 8.3 C 0 km/h
1383 27-10-2019 19:10:00 8.3 C 8.09 g/m*3 8.3 C 0 km/h
1384 27-10-2019 19:15:00 8.3 C 8.09 g/m*3 8.3 C 0 km/h
1385 27-10-2019 19:20:00 8.3 C 8.09 g/m*3 8.3 C 0 km/h
1386 27-10-2019 19:25:00 8.3 C 8.09 g/m*3 8.3 C 0 km/h
1387 27-10-2019 19:30:00 8.3 C 8.09 g/m*3 8.3 C 0 km/h
1388 27-10-2019 19:35:00 8.3 C 8.09 g/m*3 8.3 C 0 km/h
1389 27-10-2019 19:40:00 8.3 C 8.09 g/m*3 8.3 C 0 km/h
1390 27-10-2019 19:45:00 8.3 C 8.09 g/m*3 8.3 C 0 km/h
1391 27-10-2019 19:50:00 8.2 C 8.04 g/m*3 8.2 C 0 km/h
1392 27-10-2019 19:55:00 8.1 C 7.99 g/m*3 8.1 C 0 km/h
1393 27-10-2019 20:00:00 8.1 C 7.99 g/m*3 8.1 C 0 km/h
1394 27-10-2019 20:05:00 7.9 C 7.89 g/m*3 7.9 C 0 km/h
1395 27-10-2019 20:10:00 7.8 C 7.83 g/m*3 7.8 C 0 km/h
1396 27-10-2019 20:15:00 7.7 C 7.78 g/m*3 7.7 C 0 km/h
1397 27-10-2019 20:20:00 7.6 C 7.73 g/m*3 7.6 C 0 km/h
1398 27-10-2019 20:25:00 7.5 C 7.68 g/m*3 7.5 C 0 km/h
1399 27-10-2019 20:30:00 7.4 C 7.63 g/m*3 7.4 C 0 km/h
1400 27-10-2019 20:35:00 7.3 C 7.58 g/m*3 7.3 C 0 km/h
Sensor: Nr:Datum:Temp:Abs-Feuchte:Windchill:Wind:
Aussen-T/F 1401 27-10-2019 20:40:00 7.3 C 7.58 g/m*3 7.3 C 0 km/h
1402 27-10-2019 20:45:00 7.2 C 7.54 g/m*3 7.2 C 0 km/h
1403 27-10-2019 20:50:00 7.2 C 7.54 g/m*3 7.2 C 0 km/h
1404 27-10-2019 20:55:00 7.1 C 7.49 g/m*3 7.1 C 0 km/h
1405 27-10-2019 21:00:00 7.1 C 7.49 g/m*3 7.1 C 0 km/h
1406 27-10-2019 21:05:00 7.1 C 7.49 g/m*3 7.1 C 0 km/h
1407 27-10-2019 21:10:00 7.1 C 7.49 g/m*3 7.1 C 0 km/h
1408 27-10-2019 21:15:00 7.1 C 7.49 g/m*3 7.1 C 0 km/h
1409 27-10-2019 21:20:00 7 C 7.44 g/m*3 7 C 1.6 km/h
1410 27-10-2019 21:25:00 7 C 7.44 g/m*3 7 C 1.6 km/h
1411 27-10-2019 21:30:00 6.9 C 7.39 g/m*3 6.9 C 0 km/h
1412 27-10-2019 21:35:00 6.9 C 7.39 g/m*3 6.9 C 0 km/h
1413 27-10-2019 21:40:00 6.8 C 7.34 g/m*3 6.8 C 0 km/h
1414 27-10-2019 21:45:00 6.7 C 7.29 g/m*3 6.7 C 1.6 km/h
1415 27-10-2019 21:50:00 6.7 C 7.29 g/m*3 6.7 C 0 km/h
1416 27-10-2019 21:55:00 6.6 C 7.25 g/m*3 6.6 C 0 km/h
1417 27-10-2019 22:00:00 6.5 C 7.2 g/m*3 6.5 C 0 km/h
1418 27-10-2019 22:05:00 6.4 C 7.15 g/m*3 6.4 C 0 km/h
1419 27-10-2019 22:10:00 6.3 C 7.11 g/m*3 6.3 C 0 km/h
1420 27-10-2019 22:15:00 6.1 C 7.01 g/m*3 6.1 C 0 km/h
1421 27-10-2019 22:20:00 6 C 6.97 g/m*3 6 C 0 km/h
1422 27-10-2019 22:25:00 5.9 C 6.92 g/m*3 5.9 C 0 km/h
1423 27-10-2019 22:30:00 5.8 C 6.88 g/m*3 5.8 C 0 km/h
1424 27-10-2019 22:35:00 5.8 C 6.88 g/m*3 5.8 C 0 km/h
1425 27-10-2019 22:40:00 5.7 C 6.83 g/m*3 5.7 C 0 km/h
Sensor: Nr:Datum:Temp:Abs-Feuchte:Windchill:Wind:
Aussen-T/F 1426 27-10-2019 22:45:00 5.6 C 6.79 g/m*3 5.6 C 0 km/h
1427 27-10-2019 22:50:00 5.6 C 6.79 g/m*3 5.6 C 0 km/h
1428 27-10-2019 22:55:00 5.4 C 6.7 g/m*3 5.4 C 0 km/h
1429 27-10-2019 23:00:00 5.3 C 6.65 g/m*3 5.3 C 0 km/h
1430 27-10-2019 23:05:00 5.3 C 6.65 g/m*3 5.3 C 0 km/h
1431 27-10-2019 23:10:00 5.2 C 6.61 g/m*3 5.2 C 0 km/h
1432 27-10-2019 23:15:00 5.2 C 6.61 g/m*3 5.2 C 0 km/h
1433 27-10-2019 23:20:00 5.1 C 6.57 g/m*3 5.1 C 0 km/h
1434 27-10-2019 23:25:00 5 C 6.52 g/m*3 5 C 0 km/h
1435 27-10-2019 23:30:00 5 C 6.52 g/m*3 5 C 0 km/h
1436 27-10-2019 23:35:00 4.9 C 6.48 g/m*3 4.9 C 3.2 km/h
1437 27-10-2019 23:40:00 5.1 C 6.63 g/m*3 5.1 C 0 km/h
1438 27-10-2019 23:45:00 5.1 C 6.63 g/m*3 5.1 C 0 km/h
1439 27-10-2019 23:50:00 5.1 C 6.63 g/m*3 5.1 C 0 km/h
1440 27-10-2019 23:55:00 5.2 C 6.68 g/m*3 5.2 C 0 km/h
1441 28-10-2019 00:00:00 5.2 C 6.68 g/m*3 5.2 C 0 km/h
1442 28-10-2019 00:05:00 5.2 C 6.68 g/m*3 5.2 C 1.6 km/h
1443 28-10-2019 00:10:00 5.2 C 6.68 g/m*3 5.2 C 0 km/h
1444 28-10-2019 00:15:00 5.3 C 6.72 g/m*3 5.3 C 0 km/h
1445 28-10-2019 00:20:00 5.3 C 6.72 g/m*3 5.3 C 0 km/h
1446 28-10-2019 00:25:00 5.3 C 6.72 g/m*3 5.3 C 0 km/h
1447 28-10-2019 00:30:00 5.3 C 6.72 g/m*3 5.3 C 0 km/h
1448 28-10-2019 00:35:00 5.4 C 6.77 g/m*3 5.4 C 0 km/h
1449 28-10-2019 00:40:00 5.4 C 6.77 g/m*3 5.4 C 0 km/h
1450 28-10-2019 00:45:00 5.4 C 6.77 g/m*3 5.4 C 0 km/h
Sensor: Nr:Datum:Temp:Abs-Feuchte:Windchill:Wind:
Aussen-T/F 1451 28-10-2019 00:50:00 5.4 C 6.77 g/m*3 5.4 C 0 km/h
1452 28-10-2019 00:55:00 5.5 C 6.81 g/m*3 5.5 C 0 km/h
1453 28-10-2019 01:00:00 5.6 C 6.86 g/m*3 5.6 C 0 km/h
1454 28-10-2019 01:05:00 5.6 C 6.86 g/m*3 5.6 C 0 km/h
1455 28-10-2019 01:10:00 5.7 C 6.9 g/m*3 5.7 C 0 km/h
1456 28-10-2019 01:15:00 5.7 C 6.9 g/m*3 5.7 C 0 km/h
1457 28-10-2019 01:20:00 5.8 C 6.95 g/m*3 5.8 C 0 km/h
1458 28-10-2019 01:25:00 5.8 C 6.95 g/m*3 5.8 C 0 km/h
1459 28-10-2019 01:30:00 5.9 C 6.99 g/m*3 5.9 C 0 km/h
1460 28-10-2019 01:35:00 5.9 C 6.99 g/m*3 5.9 C 0 km/h
1461 28-10-2019 01:40:00 5.9 C 6.99 g/m*3 5.9 C 0 km/h
1462 28-10-2019 01:45:00 5.9 C 6.99 g/m*3 5.9 C 0 km/h
1463 28-10-2019 01:50:00 5.9 C 6.99 g/m*3 5.9 C 0 km/h
1464 28-10-2019 01:55:00 5.9 C 6.99 g/m*3 5.9 C 1.6 km/h
1465 28-10-2019 02:00:00 5.9 C 6.99 g/m*3 5.9 C 0 km/h
1466 28-10-2019 02:05:00 5.9 C 6.99 g/m*3 5.9 C 0 km/h
1467 28-10-2019 02:10:00 5.9 C 6.99 g/m*3 5.9 C 0 km/h
1468 28-10-2019 02:15:00 5.8 C 6.95 g/m*3 5.8 C 0 km/h
1469 28-10-2019 02:20:00 5.8 C 6.95 g/m*3 5.8 C 0 km/h
1470 28-10-2019 02:25:00 5.7 C 6.9 g/m*3 5.7 C 0 km/h
1471 28-10-2019 02:30:00 5.5 C 6.81 g/m*3 5.5 C 0 km/h
1472 28-10-2019 02:35:00 5.4 C 6.77 g/m*3 5.4 C 0 km/h
1473 28-10-2019 02:40:00 5.3 C 6.72 g/m*3 5.3 C 0 km/h
1474 28-10-2019 02:45:00 5.3 C 6.72 g/m*3 5.3 C 0 km/h
1475 28-10-2019 02:50:00 5.3 C 6.72 g/m*3 5.3 C 0 km/h
Sensor: Nr:Datum:Temp:Abs-Feuchte:Windchill:Wind:
Aussen-T/F 1476 28-10-2019 02:55:00 5.3 C 6.72 g/m*3 5.3 C 0 km/h
1477 28-10-2019 03:00:00 5.3 C 6.72 g/m*3 5.3 C 0 km/h
1478 28-10-2019 03:05:00 5.4 C 6.77 g/m*3 5.4 C 0 km/h
1479 28-10-2019 03:10:00 5.5 C 6.81 g/m*3 5.5 C 1.6 km/h
1480 28-10-2019 03:15:00 5.6 C 6.86 g/m*3 5.6 C 0 km/h
1481 28-10-2019 03:20:00 5.5 C 6.81 g/m*3 5.5 C 0 km/h
1482 28-10-2019 03:25:00 5.5 C 6.81 g/m*3 5.5 C 0 km/h
1483 28-10-2019 03:30:00 5.4 C 6.77 g/m*3 5.4 C 0 km/h
1484 28-10-2019 03:35:00 5.5 C 6.81 g/m*3 5.5 C 0 km/h
1485 28-10-2019 03:40:00 5.4 C 6.77 g/m*3 5.4 C 1.6 km/h
1486 28-10-2019 03:45:00 5.4 C 6.77 g/m*3 5.4 C 0 km/h
1487 28-10-2019 03:50:00 5.4 C 6.77 g/m*3 5.4 C 0 km/h
1488 28-10-2019 03:55:00 5.4 C 6.77 g/m*3 5.4 C 0 km/h
1489 28-10-2019 04:00:00 5.4 C 6.77 g/m*3 5.4 C 0 km/h
1490 28-10-2019 04:05:00 5.3 C 6.72 g/m*3 5.3 C 0 km/h
1491 28-10-2019 04:10:00 5.3 C 6.72 g/m*3 5.3 C 0 km/h
1492 28-10-2019 04:15:00 5.3 C 6.72 g/m*3 5.3 C 0 km/h
1493 28-10-2019 04:20:00 5.3 C 6.72 g/m*3 5.3 C 0 km/h
1494 28-10-2019 04:25:00 5.3 C 6.72 g/m*3 5.3 C 0 km/h
1495 28-10-2019 04:30:00 5.3 C 6.72 g/m*3 5.3 C 0 km/h
1496 28-10-2019 04:35:00 5.3 C 6.72 g/m*3 5.3 C 0 km/h
1497 28-10-2019 04:40:00 5.3 C 6.72 g/m*3 5.3 C 0 km/h
1498 28-10-2019 04:45:00 5.3 C 6.72 g/m*3 5.3 C 0 km/h
1499 28-10-2019 04:50:00 5.3 C 6.72 g/m*3 5.3 C 0 km/h
1500 28-10-2019 04:55:00 5.3 C 6.72 g/m*3 5.3 C 0 km/h
Sensor: Nr:Datum:Temp:Abs-Feuchte:Windchill:Wind:
Aussen-T/F 1501 28-10-2019 05:00:00 5.2 C 6.68 g/m*3 5.2 C 0 km/h
1502 28-10-2019 05:05:00 5.2 C 6.68 g/m*3 5.2 C 0 km/h
1503 28-10-2019 05:10:00 5.2 C 6.68 g/m*3 5.2 C 0 km/h
1504 28-10-2019 05:15:00 5.2 C 6.68 g/m*3 5.2 C 0 km/h
1505 28-10-2019 05:20:00 5.2 C 6.68 g/m*3 5.2 C 0 km/h
1506 28-10-2019 05:25:00 5.2 C 6.68 g/m*3 5.2 C 0 km/h
1507 28-10-2019 05:30:00 5.2 C 6.68 g/m*3 5.2 C 0 km/h
1508 28-10-2019 05:35:00 5.2 C 6.68 g/m*3 5.2 C 0 km/h
1509 28-10-2019 05:40:00 5.2 C 6.68 g/m*3 5.2 C 0 km/h
1510 28-10-2019 05:45:00 5.2 C 6.68 g/m*3 5.2 C 0 km/h
1511 28-10-2019 05:50:00 5.2 C 6.68 g/m*3 5.2 C 0 km/h
1512 28-10-2019 05:55:00 5.2 C 6.68 g/m*3 5.2 C 0 km/h
1513 28-10-2019 06:00:00 5.2 C 6.68 g/m*3 5.2 C 0 km/h
1514 28-10-2019 06:05:00 5.2 C 6.68 g/m*3 5.2 C 0 km/h
1515 28-10-2019 06:10:00 5.2 C 6.68 g/m*3 5.2 C 0 km/h
1516 28-10-2019 06:15:00 5.1 C 6.63 g/m*3 5.1 C 0 km/h
1517 28-10-2019 06:20:00 5.1 C 6.63 g/m*3 5.1 C 0 km/h
1518 28-10-2019 06:25:00 5.1 C 6.63 g/m*3 5.1 C 0 km/h
1519 28-10-2019 06:30:00 5.1 C 6.63 g/m*3 5.1 C 0 km/h
1520 28-10-2019 06:35:00 5.1 C 6.63 g/m*3 5.1 C 0 km/h
1521 28-10-2019 06:40:00 5.1 C 6.63 g/m*3 5.1 C 0 km/h
1522 28-10-2019 06:45:00 5.1 C 6.63 g/m*3 5.1 C 0 km/h
1523 28-10-2019 06:50:00 5.1 C 6.63 g/m*3 5.1 C 0 km/h
1524 28-10-2019 06:55:00 5.2 C 6.68 g/m*3 5.2 C 0 km/h
1525 28-10-2019 07:00:00 5.2 C 6.68 g/m*3 5.2 C 0 km/h
Sensor: Nr:Datum:Temp:Abs-Feuchte:Windchill:Wind:
Aussen-T/F 1526 28-10-2019 07:05:00 5.2 C 6.68 g/m*3 5.2 C 0 km/h
1527 28-10-2019 07:10:00 5.2 C 6.68 g/m*3 5.2 C 0 km/h
1528 28-10-2019 07:15:00 5.2 C 6.68 g/m*3 5.2 C 1.6 km/h
1529 28-10-2019 07:20:00 5.3 C 6.72 g/m*3 5.3 C 0 km/h
1530 28-10-2019 07:25:00 5.3 C 6.72 g/m*3 5.3 C 1.6 km/h
1531 28-10-2019 07:30:00 5.3 C 6.72 g/m*3 5.3 C 3.2 km/h
1532 28-10-2019 07:35:00 5.3 C 6.72 g/m*3 5.3 C 1.6 km/h
1533 28-10-2019 07:40:00 5.3 C 6.72 g/m*3 5.3 C 1.6 km/h
1534 28-10-2019 07:45:00 5.3 C 6.72 g/m*3 5.3 C 0 km/h
1535 28-10-2019 07:50:00 5.3 C 6.72 g/m*3 5.3 C 0 km/h
1536 28-10-2019 07:55:00 5.3 C 6.72 g/m*3 5.3 C 0 km/h
1537 28-10-2019 08:00:00 5.4 C 6.77 g/m*3 5.4 C 1.6 km/h
1538 28-10-2019 08:05:00 5.4 C 6.84 g/m*3 5.4 C 1.6 km/h
1539 28-10-2019 08:10:00 5.4 C 6.84 g/m*3 5.4 C 0 km/h
1540 28-10-2019 08:15:00 5.4 C 6.77 g/m*3 5.4 C 1.6 km/h
1541 28-10-2019 08:20:00 5.4 C 6.77 g/m*3 5.4 C 0 km/h
1542 28-10-2019 08:25:00 5.5 C 6.81 g/m*3 5.5 C 1.6 km/h
1543 28-10-2019 08:30:00 5.6 C 6.86 g/m*3 4.29 C 6.4 km/h
1544 28-10-2019 08:35:00 5.6 C 6.86 g/m*3 5.6 C 3.2 km/h
1545 28-10-2019 08:40:00 5.6 C 6.86 g/m*3 5.6 C 4.8 km/h
1546 28-10-2019 08:45:00 5.6 C 6.86 g/m*3 5.6 C 0 km/h
1547 28-10-2019 08:50:00 5.6 C 6.93 g/m*3 5.6 C 1.6 km/h
1548 28-10-2019 08:55:00 5.7 C 6.97 g/m*3 5.7 C 1.6 km/h
1549 28-10-2019 09:00:00 5.7 C 6.97 g/m*3 5.7 C 3.2 km/h
1550 28-10-2019 09:05:00 5.7 C 6.97 g/m*3 5.7 C 0 km/h
Sensor: Nr:Datum:Temp:Abs-Feuchte:Windchill:Wind:
Aussen-T/F 1551 28-10-2019 09:10:00 5.7 C 6.97 g/m*3 5.7 C 0 km/h
1552 28-10-2019 09:15:00 5.7 C 6.97 g/m*3 5.7 C 0 km/h
1553 28-10-2019 09:20:00 5.8 C 7.02 g/m*3 5.8 C 1.6 km/h
1554 28-10-2019 09:25:00 5.8 C 7.02 g/m*3 5.8 C 1.6 km/h
1555 28-10-2019 09:30:00 5.8 C 7.02 g/m*3 5.8 C 1.6 km/h
1556 28-10-2019 09:35:00 5.8 C 7.02 g/m*3 5.8 C 1.6 km/h
1557 28-10-2019 09:40:00 5.8 C 7.02 g/m*3 5.8 C 1.6 km/h
1558 28-10-2019 09:45:00 5.9 C 7.07 g/m*3 5.9 C 1.6 km/h
1559 28-10-2019 09:50:00 5.9 C 7.07 g/m*3 5.9 C 1.6 km/h
1560 28-10-2019 09:55:00 6 C 7.11 g/m*3 6 C 0 km/h
1561 28-10-2019 10:00:00 6 C 7.11 g/m*3 6 C 1.6 km/h
1562 28-10-2019 10:05:00 6 C 7.11 g/m*3 6 C 0 km/h
1563 28-10-2019 10:10:00 6 C 7.11 g/m*3 6 C 1.6 km/h
1564 28-10-2019 10:15:00 6.2 C 7.21 g/m*3 6.2 C 3.2 km/h
1565 28-10-2019 10:20:00 6.2 C 7.21 g/m*3 6.2 C 1.6 km/h
1566 28-10-2019 10:25:00 6.2 C 7.21 g/m*3 6.2 C 1.6 km/h
1567 28-10-2019 10:30:00 6.2 C 7.21 g/m*3 6.2 C 1.6 km/h
1568 28-10-2019 10:35:00 6.2 C 7.21 g/m*3 6.2 C 3.2 km/h
1569 28-10-2019 10:40:00 6.3 C 7.25 g/m*3 6.3 C 3.2 km/h
1570 28-10-2019 10:45:00 6.3 C 7.25 g/m*3 6.3 C 3.2 km/h
1571 28-10-2019 10:50:00 6.3 C 7.25 g/m*3 6.3 C 3.2 km/h
1572 28-10-2019 10:55:00 6.3 C 7.25 g/m*3 6.3 C 3.2 km/h
1573 28-10-2019 11:00:00 6.3 C 7.25 g/m*3 6.3 C 1.6 km/h
1574 28-10-2019 11:05:00 6.3 C 7.25 g/m*3 6.3 C 1.6 km/h
1575 28-10-2019 11:10:00 6.3 C 7.25 g/m*3 6.3 C 3.2 km/h
Sensor: Nr:Datum:Temp:Abs-Feuchte:Windchill:Wind:
Aussen-T/F 1576 28-10-2019 11:15:00 6.4 C 7.3 g/m*3 6.4 C 1.6 km/h
1577 28-10-2019 11:20:00 6.4 C 7.3 g/m*3 6.4 C 0 km/h
1578 28-10-2019 11:25:00 6.4 C 7.3 g/m*3 6.4 C 3.2 km/h
1579 28-10-2019 11:30:00 6.4 C 7.3 g/m*3 6.4 C 3.2 km/h
1580 28-10-2019 11:35:00 6.4 C 7.3 g/m*3 6.4 C 0 km/h
1581 28-10-2019 11:40:00 6.4 C 7.3 g/m*3 6.4 C 0 km/h
1582 28-10-2019 11:45:00 6.4 C 7.3 g/m*3 6.4 C 1.6 km/h
1583 28-10-2019 11:50:00 6.4 C 7.3 g/m*3 6.4 C 1.6 km/h
1584 28-10-2019 11:55:00 6.5 C 7.35 g/m*3 6.5 C 1.6 km/h
1585 28-10-2019 12:00:00 6.5 C 7.35 g/m*3 5.33 C 6.4 km/h
1586 28-10-2019 12:05:00 6.5 C 7.35 g/m*3 6.5 C 4.8 km/h
1587 28-10-2019 12:10:00 6.6 C 7.4 g/m*3 6.6 C 3.2 km/h
1588 28-10-2019 12:15:00 6.6 C 7.4 g/m*3 6.6 C 4.8 km/h
1589 28-10-2019 12:20:00 6.6 C 7.4 g/m*3 6.6 C 4.8 km/h
1590 28-10-2019 12:25:00 6.5 C 7.35 g/m*3 6.5 C 4.8 km/h
1591 28-10-2019 12:30:00 6.4 C 7.3 g/m*3 5.21 C 6.4 km/h
1592 28-10-2019 12:35:00 6.5 C 7.35 g/m*3 6.5 C 4.8 km/h
1593 28-10-2019 12:40:00 6.5 C 7.35 g/m*3 5.33 C 6.4 km/h
1594 28-10-2019 12:45:00 6.5 C 7.27 g/m*3 4.87 C 8.1 km/h
1595 28-10-2019 12:50:00 6.4 C 7.23 g/m*3 4.39 C 9.7 km/h
1596 28-10-2019 12:55:00 6.4 C 7.23 g/m*3 5.21 C 6.4 km/h
1597 28-10-2019 13:00:00 6.5 C 7.27 g/m*3 6.5 C 4.8 km/h
1598 28-10-2019 13:05:00 6.5 C 7.27 g/m*3 6.5 C 3.2 km/h
1599 28-10-2019 13:10:00 6.6 C 7.32 g/m*3 6.6 C 3.2 km/h
1600 28-10-2019 13:15:00 6.6 C 7.32 g/m*3 6.6 C 4.8 km/h
Sensor: Nr:Datum:Temp:Abs-Feuchte:Windchill:Wind:
Aussen-T/F 1601 28-10-2019 13:20:00 6.6 C 7.32 g/m*3 6.6 C 0 km/h
1602 28-10-2019 13:25:00 6.6 C 7.32 g/m*3 6.6 C 0 km/h
1603 28-10-2019 13:30:00 6.8 C 7.42 g/m*3 6.8 C 1.6 km/h
1604 28-10-2019 13:35:00 6.9 C 7.47 g/m*3 6.9 C 1.6 km/h
1605 28-10-2019 13:40:00 6.9 C 7.47 g/m*3 6.9 C 0 km/h
1606 28-10-2019 13:45:00 6.9 C 7.47 g/m*3 6.9 C 1.6 km/h
1607 28-10-2019 13:50:00 6.9 C 7.47 g/m*3 6.9 C 1.6 km/h
1608 28-10-2019 13:55:00 6.9 C 7.47 g/m*3 6.9 C 0 km/h
1609 28-10-2019 14:00:00 7.1 C 7.57 g/m*3 7.1 C 0 km/h
1610 28-10-2019 14:05:00 7.1 C 7.57 g/m*3 7.1 C 0 km/h
1611 28-10-2019 14:10:00 7.2 C 7.61 g/m*3 7.2 C 0 km/h
1612 28-10-2019 14:15:00 7.3 C 7.66 g/m*3 7.3 C 0 km/h
1613 28-10-2019 14:20:00 7.4 C 7.71 g/m*3 7.4 C 0 km/h
1614 28-10-2019 14:25:00 7.4 C 7.71 g/m*3 7.4 C 0 km/h
1615 28-10-2019 14:30:00 7.4 C 7.71 g/m*3 7.4 C 0 km/h
1616 28-10-2019 14:35:00 7.4 C 7.71 g/m*3 7.4 C 0 km/h
1617 28-10-2019 14:40:00 7.5 C 7.68 g/m*3 7.5 C 0 km/h
1618 28-10-2019 14:45:00 7.6 C 7.73 g/m*3 7.6 C 0 km/h
1619 28-10-2019 14:50:00 7.6 C 7.73 g/m*3 7.6 C 0 km/h
1620 28-10-2019 14:55:00 7.7 C 7.78 g/m*3 7.7 C 1.6 km/h
1621 28-10-2019 15:00:00 7.8 C 7.83 g/m*3 7.8 C 0 km/h
1622 28-10-2019 15:05:00 7.8 C 7.83 g/m*3 7.8 C 0 km/h
1623 28-10-2019 15:10:00 7.9 C 7.89 g/m*3 7.9 C 0 km/h
1624 28-10-2019 15:15:00 8 C 7.94 g/m*3 8 C 0 km/h
1625 28-10-2019 15:20:00 8.1 C 7.9 g/m*3 8.1 C 1.6 km/h
Sensor: Nr:Datum:Temp:Abs-Feuchte:Windchill:Wind:
Aussen-T/F 1626 28-10-2019 15:25:00 8 C 7.85 g/m*3 8 C 0 km/h
1627 28-10-2019 15:30:00 8 C 7.85 g/m*3 8 C 0 km/h
1628 28-10-2019 15:35:00 8 C 7.77 g/m*3 8 C 0 km/h
1629 28-10-2019 15:40:00 8.1 C 7.82 g/m*3 8.1 C 0 km/h
1630 28-10-2019 15:45:00 8.1 C 7.9 g/m*3 8.1 C 0 km/h
1631 28-10-2019 15:50:00 8.2 C 7.96 g/m*3 8.2 C 0 km/h
1632 28-10-2019 15:55:00 8.2 C 7.96 g/m*3 8.2 C 0 km/h
1633 28-10-2019 16:00:00 8.2 C 7.96 g/m*3 8.2 C 0 km/h
1634 28-10-2019 16:05:00 8.2 C 7.96 g/m*3 8.2 C 0 km/h
1635 28-10-2019 16:10:00 8.2 C 7.96 g/m*3 8.2 C 0 km/h
1636 28-10-2019 16:15:00 8.1 C 7.9 g/m*3 8.1 C 0 km/h
1637 28-10-2019 16:20:00 7.9 C 7.8 g/m*3 7.9 C 0 km/h
1638 28-10-2019 16:25:00 7.8 C 7.75 g/m*3 7.8 C 0 km/h
1639 28-10-2019 16:30:00 7.7 C 7.62 g/m*3 7.7 C 0 km/h
1640 28-10-2019 16:35:00 7.7 C 7.7 g/m*3 7.7 C 0 km/h
1641 28-10-2019 16:40:00 7.6 C 7.65 g/m*3 7.6 C 0 km/h
1642 28-10-2019 16:45:00 7.5 C 7.6 g/m*3 7.5 C 0 km/h
1643 28-10-2019 16:50:00 7.4 C 7.55 g/m*3 7.4 C 0 km/h
1644 28-10-2019 16:55:00 7.2 C 7.46 g/m*3 7.2 C 0 km/h
1645 28-10-2019 17:00:00 7.1 C 7.33 g/m*3 7.1 C 0 km/h
1646 28-10-2019 17:05:00 7 C 7.36 g/m*3 7 C 0 km/h
1647 28-10-2019 17:10:00 6.9 C 7.31 g/m*3 6.9 C 0 km/h
1648 28-10-2019 17:15:00 6.9 C 7.31 g/m*3 6.9 C 0 km/h
1649 28-10-2019 17:20:00 6.9 C 7.31 g/m*3 6.9 C 0 km/h
1650 28-10-2019 17:25:00 6.9 C 7.31 g/m*3 6.9 C 0 km/h
Sensor: Nr:Datum:Temp:Abs-Feuchte:Windchill:Wind:
Aussen-T/F 1651 28-10-2019 17:30:00 6.9 C 7.39 g/m*3 6.9 C 0 km/h
1652 28-10-2019 17:35:00 7 C 7.44 g/m*3 7 C 0 km/h
1653 28-10-2019 17:40:00 7.1 C 7.49 g/m*3 7.1 C 0 km/h
1654 28-10-2019 17:45:00 7.1 C 7.49 g/m*3 7.1 C 0 km/h
1655 28-10-2019 17:50:00 7.1 C 7.49 g/m*3 7.1 C 0 km/h
1656 28-10-2019 17:55:00 7.1 C 7.49 g/m*3 7.1 C 0 km/h
1657 28-10-2019 18:00:00 7.1 C 7.49 g/m*3 7.1 C 0 km/h
1658 28-10-2019 18:05:00 7.1 C 7.49 g/m*3 7.1 C 0 km/h
1659 28-10-2019 18:10:00 7.1 C 7.49 g/m*3 7.1 C 0 km/h
1660 28-10-2019 18:15:00 7.2 C 7.54 g/m*3 7.2 C 0 km/h
1661 28-10-2019 18:20:00 7.2 C 7.54 g/m*3 7.2 C 0 km/h
1662 28-10-2019 18:25:00 7.2 C 7.54 g/m*3 7.2 C 0 km/h
1663 28-10-2019 18:30:00 7.2 C 7.54 g/m*3 7.2 C 0 km/h
1664 28-10-2019 18:35:00 7.2 C 7.54 g/m*3 7.2 C 0 km/h
1665 28-10-2019 18:40:00 7.2 C 7.54 g/m*3 7.2 C 0 km/h
1666 28-10-2019 18:45:00 7.2 C 7.54 g/m*3 7.2 C 0 km/h
1667 28-10-2019 18:50:00 7.2 C 7.54 g/m*3 7.2 C 0 km/h
1668 28-10-2019 18:55:00 7.2 C 7.54 g/m*3 7.2 C 0 km/h
1669 28-10-2019 19:00:00 7.2 C 7.54 g/m*3 7.2 C 0 km/h
1670 28-10-2019 19:05:00 7.2 C 7.54 g/m*3 7.2 C 0 km/h
1671 28-10-2019 19:10:00 7.2 C 7.54 g/m*3 7.2 C 0 km/h
1672 28-10-2019 19:15:00 7.2 C 7.54 g/m*3 7.2 C 0 km/h
1673 28-10-2019 19:20:00 7.2 C 7.54 g/m*3 7.2 C 0 km/h
1674 28-10-2019 19:25:00 7.2 C 7.54 g/m*3 7.2 C 0 km/h
1675 28-10-2019 19:30:00 7.2 C 7.54 g/m*3 7.2 C 0 km/h
Sensor: Nr:Datum:Temp:Abs-Feuchte:Windchill:Wind:
Aussen-T/F 1676 28-10-2019 19:35:00 7.2 C 7.54 g/m*3 7.2 C 0 km/h
1677 28-10-2019 19:40:00 7.2 C 7.54 g/m*3 7.2 C 0 km/h
1678 28-10-2019 19:45:00 7.1 C 7.49 g/m*3 7.1 C 0 km/h
1679 28-10-2019 19:50:00 7.1 C 7.49 g/m*3 7.1 C 0 km/h
1680 28-10-2019 19:55:00 6.9 C 7.39 g/m*3 6.9 C 0 km/h
1681 28-10-2019 20:00:00 6.9 C 7.39 g/m*3 6.9 C 0 km/h
1682 28-10-2019 20:05:00 6.9 C 7.39 g/m*3 6.9 C 0 km/h
1683 28-10-2019 20:10:00 6.9 C 7.39 g/m*3 6.9 C 0 km/h
1684 28-10-2019 20:15:00 6.9 C 7.39 g/m*3 6.9 C 0 km/h
1685 28-10-2019 20:20:00 6.9 C 7.39 g/m*3 6.9 C 0 km/h
1686 28-10-2019 20:25:00 6.9 C 7.47 g/m*3 6.9 C 0 km/h
1687 28-10-2019 20:30:00 7 C 7.44 g/m*3 7 C 0 km/h
1688 28-10-2019 20:35:00 7.1 C 7.57 g/m*3 7.1 C 0 km/h
1689 28-10-2019 20:40:00 7.1 C 7.57 g/m*3 7.1 C 0 km/h
1690 28-10-2019 20:45:00 7.1 C 7.57 g/m*3 7.1 C 0 km/h
1691 28-10-2019 20:50:00 7.1 C 7.57 g/m*3 7.1 C 0 km/h
1692 28-10-2019 20:55:00 7.1 C 7.57 g/m*3 7.1 C 0 km/h
1693 28-10-2019 21:00:00 7.1 C 7.57 g/m*3 7.1 C 0 km/h
1694 28-10-2019 21:05:00 7.1 C 7.57 g/m*3 7.1 C 0 km/h
1695 28-10-2019 21:10:00 7.1 C 7.57 g/m*3 7.1 C 0 km/h
1696 28-10-2019 21:15:00 7 C 7.52 g/m*3 7 C 0 km/h
1697 28-10-2019 21:20:00 7 C 7.52 g/m*3 7 C 0 km/h
1698 28-10-2019 21:25:00 6.9 C 7.39 g/m*3 6.9 C 0 km/h
1699 28-10-2019 21:30:00 6.9 C 7.39 g/m*3 6.9 C 0 km/h
1700 28-10-2019 21:35:00 6.9 C 7.39 g/m*3 6.9 C 0 km/h
Sensor: Nr:Datum:Temp:Abs-Feuchte:Windchill:Wind:
Aussen-T/F 1701 28-10-2019 21:40:00 6.8 C 7.34 g/m*3 6.8 C 0 km/h
1702 28-10-2019 21:45:00 6.8 C 7.42 g/m*3 6.8 C 0 km/h
1703 28-10-2019 21:50:00 6.8 C 7.42 g/m*3 6.8 C 0 km/h
1704 28-10-2019 21:55:00 6.9 C 7.47 g/m*3 6.9 C 0 km/h
1705 28-10-2019 22:00:00 6.8 C 7.42 g/m*3 6.8 C 0 km/h
1706 28-10-2019 22:05:00 6.8 C 7.42 g/m*3 6.8 C 0 km/h
1707 28-10-2019 22:10:00 6.8 C 7.42 g/m*3 6.8 C 0 km/h
1708 28-10-2019 22:15:00 6.8 C 7.42 g/m*3 6.8 C 0 km/h
1709 28-10-2019 22:20:00 6.8 C 7.42 g/m*3 6.8 C 0 km/h
1710 28-10-2019 22:25:00 6.8 C 7.42 g/m*3 6.8 C 0 km/h
1711 28-10-2019 22:30:00 6.8 C 7.42 g/m*3 6.8 C 1.6 km/h
1712 28-10-2019 22:35:00 6.8 C 7.42 g/m*3 6.8 C 4.8 km/h
1713 28-10-2019 22:40:00 6.8 C 7.42 g/m*3 6.8 C 0 km/h
1714 28-10-2019 22:45:00 6.8 C 7.42 g/m*3 6.8 C 0 km/h
1715 28-10-2019 22:50:00 6.7 C 7.37 g/m*3 6.7 C 0 km/h
1716 28-10-2019 22:55:00 6.7 C 7.37 g/m*3 6.7 C 0 km/h
1717 28-10-2019 23:00:00 6.7 C 7.37 g/m*3 6.7 C 1.6 km/h
1718 28-10-2019 23:05:00 6.7 C 7.37 g/m*3 6.7 C 4.8 km/h
1719 28-10-2019 23:10:00 6.7 C 7.37 g/m*3 6.7 C 3.2 km/h
1720 28-10-2019 23:15:00 6.7 C 7.37 g/m*3 6.7 C 0 km/h
1721 28-10-2019 23:20:00 6.7 C 7.37 g/m*3 6.7 C 3.2 km/h
1722 28-10-2019 23:25:00 6.7 C 7.29 g/m*3 6.7 C 1.6 km/h
1723 28-10-2019 23:30:00 6.7 C 7.29 g/m*3 6.7 C 0 km/h
1724 28-10-2019 23:35:00 6.7 C 7.29 g/m*3 6.7 C 0 km/h
1725 28-10-2019 23:40:00 6.7 C 7.29 g/m*3 6.7 C 3.2 km/h
Sensor: Nr:Datum:Temp:Abs-Feuchte:Windchill:Wind:
Aussen-T/F 1726 28-10-2019 23:45:00 6.7 C 7.29 g/m*3 6.7 C 0 km/h
1727 28-10-2019 23:50:00 6.7 C 7.29 g/m*3 6.7 C 0 km/h
1728 28-10-2019 23:55:00 6.7 C 7.29 g/m*3 6.7 C 3.2 km/h
1729 29-10-2019 00:00:00 6.7 C 7.29 g/m*3 6.7 C 0 km/h
1730 29-10-2019 00:05:00 6.7 C 7.29 g/m*3 6.7 C 3.2 km/h
1731 29-10-2019 00:10:00 6.7 C 7.29 g/m*3 6.7 C 4.8 km/h
1732 29-10-2019 00:15:00 6.7 C 7.29 g/m*3 6.7 C 3.2 km/h
1733 29-10-2019 00:20:00 6.7 C 7.29 g/m*3 6.7 C 1.6 km/h
1734 29-10-2019 00:25:00 6.7 C 7.29 g/m*3 6.7 C 3.2 km/h
1735 29-10-2019 00:30:00 6.7 C 7.29 g/m*3 6.7 C 1.6 km/h
1736 29-10-2019 00:35:00 6.7 C 7.29 g/m*3 6.7 C 0 km/h
1737 29-10-2019 00:40:00 6.7 C 7.29 g/m*3 6.7 C 1.6 km/h
1738 29-10-2019 00:45:00 6.7 C 7.29 g/m*3 6.7 C 1.6 km/h
1739 29-10-2019 00:50:00 6.6 C 7.25 g/m*3 6.6 C 1.6 km/h
1740 29-10-2019 00:55:00 6.6 C 7.25 g/m*3 5.44 C 6.4 km/h
1741 29-10-2019 01:00:00 6.6 C 7.25 g/m*3 5.44 C 6.4 km/h
1742 29-10-2019 01:05:00 6.6 C 7.25 g/m*3 5.44 C 6.4 km/h
1743 29-10-2019 01:10:00 6.5 C 7.2 g/m*3 6.5 C 3.2 km/h
1744 29-10-2019 01:15:00 6.5 C 7.2 g/m*3 6.5 C 3.2 km/h
1745 29-10-2019 01:20:00 6.4 C 7.15 g/m*3 6.4 C 4.8 km/h
1746 29-10-2019 01:25:00 6.4 C 7.15 g/m*3 6.4 C 3.2 km/h
1747 29-10-2019 01:30:00 6.4 C 7.15 g/m*3 6.4 C 4.8 km/h
1748 29-10-2019 01:35:00 6.4 C 7.15 g/m*3 6.4 C 3.2 km/h
1749 29-10-2019 01:40:00 6.3 C 7.11 g/m*3 6.3 C 4.8 km/h
1750 29-10-2019 01:45:00 6.3 C 7.11 g/m*3 6.3 C 1.6 km/h
Sensor: Nr:Datum:Temp:Abs-Feuchte:Windchill:Wind:
Aussen-T/F 1751 29-10-2019 01:50:00 6.3 C 7.11 g/m*3 6.3 C 1.6 km/h
1752 29-10-2019 01:55:00 6.3 C 7.11 g/m*3 6.3 C 1.6 km/h
1753 29-10-2019 02:00:00 6.3 C 7.11 g/m*3 6.3 C 0 km/h
1754 29-10-2019 02:05:00 6.3 C 7.11 g/m*3 6.3 C 0 km/h
1755 29-10-2019 02:10:00 6.3 C 7.11 g/m*3 6.3 C 0 km/h
1756 29-10-2019 02:15:00 6.3 C 7.11 g/m*3 6.3 C 0 km/h
1757 29-10-2019 02:20:00 6.3 C 7.11 g/m*3 6.3 C 0 km/h
1758 29-10-2019 02:25:00 6.3 C 7.11 g/m*3 6.3 C 0 km/h
1759 29-10-2019 02:30:00 6.3 C 7.11 g/m*3 6.3 C 0 km/h
1760 29-10-2019 02:35:00 6.3 C 7.11 g/m*3 6.3 C 0 km/h
1761 29-10-2019 02:40:00 6.3 C 7.11 g/m*3 6.3 C 0 km/h
1762 29-10-2019 02:45:00 6.3 C 7.11 g/m*3 6.3 C 0 km/h
1763 29-10-2019 02:50:00 6.3 C 7.11 g/m*3 6.3 C 0 km/h
1764 29-10-2019 02:55:00 6.3 C 7.11 g/m*3 6.3 C 3.2 km/h
1765 29-10-2019 03:00:00 6.3 C 7.11 g/m*3 6.3 C 3.2 km/h
1766 29-10-2019 03:05:00 6.3 C 7.11 g/m*3 6.3 C 1.6 km/h
1767 29-10-2019 03:10:00 6.3 C 7.11 g/m*3 6.3 C 0 km/h
1768 29-10-2019 03:15:00 6.3 C 7.11 g/m*3 6.3 C 0 km/h
1769 29-10-2019 03:20:00 6.3 C 7.11 g/m*3 6.3 C 0 km/h
1770 29-10-2019 03:25:00 6.3 C 7.11 g/m*3 6.3 C 0 km/h
1771 29-10-2019 03:30:00 6.3 C 7.11 g/m*3 6.3 C 3.2 km/h
1772 29-10-2019 03:35:00 6.3 C 7.11 g/m*3 6.3 C 0 km/h
1773 29-10-2019 03:40:00 6.3 C 7.11 g/m*3 6.3 C 0 km/h
1774 29-10-2019 03:45:00 6.2 C 7.06 g/m*3 6.2 C 1.6 km/h
1775 29-10-2019 03:50:00 6.2 C 7.06 g/m*3 6.2 C 1.6 km/h
Sensor: Nr:Datum:Temp:Abs-Feuchte:Windchill:Wind:
Aussen-T/F 1776 29-10-2019 03:55:00 6.2 C 7.06 g/m*3 6.2 C 3.2 km/h
1777 29-10-2019 04:00:00 6.2 C 7.06 g/m*3 6.2 C 3.2 km/h
1778 29-10-2019 04:05:00 6.2 C 7.06 g/m*3 6.2 C 1.6 km/h
1779 29-10-2019 04:10:00 6.2 C 7.06 g/m*3 6.2 C 0 km/h
1780 29-10-2019 04:15:00 6.2 C 7.06 g/m*3 6.2 C 0 km/h
1781 29-10-2019 04:20:00 6.2 C 7.06 g/m*3 6.2 C 4.8 km/h
1782 29-10-2019 04:25:00 6.2 C 7.06 g/m*3 6.2 C 1.6 km/h
1783 29-10-2019 04:30:00 6.2 C 7.06 g/m*3 6.2 C 0 km/h
1784 29-10-2019 04:35:00 6.2 C 7.06 g/m*3 6.2 C 0 km/h
1785 29-10-2019 04:40:00 6.2 C 7.06 g/m*3 6.2 C 0 km/h
1786 29-10-2019 04:45:00 6.2 C 7.06 g/m*3 6.2 C 0 km/h
1787 29-10-2019 04:50:00 6.2 C 7.06 g/m*3 6.2 C 0 km/h
1788 29-10-2019 04:55:00 6.2 C 7.06 g/m*3 6.2 C 0 km/h
1789 29-10-2019 05:00:00 6.2 C 7.06 g/m*3 6.2 C 0 km/h
1790 29-10-2019 05:05:00 6.2 C 7.06 g/m*3 6.2 C 1.6 km/h
1791 29-10-2019 05:10:00 6.2 C 7.06 g/m*3 6.2 C 1.6 km/h
1792 29-10-2019 05:15:00 6.2 C 7.06 g/m*3 6.2 C 1.6 km/h
1793 29-10-2019 05:20:00 6.2 C 7.06 g/m*3 6.2 C 4.8 km/h
1794 29-10-2019 05:25:00 6.2 C 7.06 g/m*3 6.2 C 4.8 km/h
1795 29-10-2019 05:30:00 6.2 C 7.06 g/m*3 6.2 C 0 km/h
1796 29-10-2019 05:35:00 6.2 C 7.06 g/m*3 6.2 C 0 km/h
1797 29-10-2019 05:40:00 6.2 C 7.06 g/m*3 6.2 C 1.6 km/h
1798 29-10-2019 05:45:00 6.2 C 7.06 g/m*3 6.2 C 1.6 km/h
1799 29-10-2019 05:50:00 6.2 C 7.06 g/m*3 6.2 C 0 km/h
1800 29-10-2019 05:55:00 6.2 C 7.06 g/m*3 6.2 C 0 km/h
Sensor: Nr:Datum:Temp:Abs-Feuchte:Windchill:Wind:
Aussen-T/F 1801 29-10-2019 06:00:00 6.2 C 7.06 g/m*3 6.2 C 1.6 km/h
1802 29-10-2019 06:05:00 6.1 C 7.01 g/m*3 6.1 C 0 km/h
1803 29-10-2019 06:10:00 6.1 C 7.01 g/m*3 6.1 C 0 km/h
1804 29-10-2019 06:15:00 6.1 C 7.01 g/m*3 6.1 C 0 km/h
1805 29-10-2019 06:20:00 6.1 C 7.01 g/m*3 6.1 C 0 km/h
1806 29-10-2019 06:25:00 6.1 C 7.01 g/m*3 6.1 C 4.8 km/h
1807 29-10-2019 06:30:00 6.1 C 7.01 g/m*3 6.1 C 1.6 km/h
1808 29-10-2019 06:35:00 6.1 C 6.94 g/m*3 6.1 C 3.2 km/h
1809 29-10-2019 06:40:00 6.1 C 6.94 g/m*3 6.1 C 0 km/h
1810 29-10-2019 06:45:00 6.1 C 7.01 g/m*3 6.1 C 0 km/h
1811 29-10-2019 06:50:00 6.1 C 7.01 g/m*3 6.1 C 1.6 km/h
1812 29-10-2019 06:55:00 6.1 C 6.94 g/m*3 6.1 C 0 km/h
1813 29-10-2019 07:00:00 6.1 C 7.01 g/m*3 6.1 C 0 km/h
1814 29-10-2019 07:05:00 6 C 6.9 g/m*3 6 C 3.2 km/h
1815 29-10-2019 07:10:00 6 C 6.9 g/m*3 6 C 3.2 km/h
1816 29-10-2019 07:15:00 6 C 6.9 g/m*3 6 C 1.6 km/h
1817 29-10-2019 07:20:00 6 C 6.9 g/m*3 6 C 1.6 km/h
1818 29-10-2019 07:25:00 5.9 C 6.85 g/m*3 5.9 C 0 km/h
1819 29-10-2019 07:30:00 5.9 C 6.85 g/m*3 5.9 C 0 km/h
1820 29-10-2019 07:35:00 5.9 C 6.85 g/m*3 5.9 C 0 km/h
1821 29-10-2019 07:40:00 5.9 C 6.85 g/m*3 5.9 C 0 km/h
1822 29-10-2019 07:45:00 6 C 6.97 g/m*3 6 C 0 km/h
1823 29-10-2019 07:50:00 6 C 6.97 g/m*3 6 C 0 km/h
1824 29-10-2019 07:55:00 6 C 6.97 g/m*3 6 C 0 km/h
1825 29-10-2019 08:00:00 6.1 C 7.01 g/m*3 6.1 C 0 km/h
Sensor: Nr:Datum:Temp:Abs-Feuchte:Windchill:Wind:
Aussen-T/F 1826 29-10-2019 08:05:00 6.1 C 7.01 g/m*3 6.1 C 1.6 km/h
1827 29-10-2019 08:10:00 6.1 C 7.01 g/m*3 6.1 C 0 km/h
1828 29-10-2019 08:15:00 6.2 C 7.06 g/m*3 6.2 C 0 km/h
1829 29-10-2019 08:20:00 6.2 C 7.06 g/m*3 6.2 C 0 km/h
1830 29-10-2019 08:25:00 6.3 C 7.11 g/m*3 6.3 C 0 km/h
1831 29-10-2019 08:30:00 6.3 C 7.11 g/m*3 6.3 C 0 km/h
1832 29-10-2019 08:35:00 6.3 C 7.03 g/m*3 6.3 C 3.2 km/h
1833 29-10-2019 08:40:00 6.2 C 6.99 g/m*3 6.2 C 0 km/h
1834 29-10-2019 08:45:00 6.3 C 7.03 g/m*3 6.3 C 1.6 km/h
1835 29-10-2019 08:50:00 6.3 C 7.03 g/m*3 6.3 C 1.6 km/h
1836 29-10-2019 08:55:00 6.3 C 7.03 g/m*3 6.3 C 0 km/h
1837 29-10-2019 09:00:00 6.3 C 7.03 g/m*3 6.3 C 0 km/h
1838 29-10-2019 09:05:00 6.4 C 7.08 g/m*3 6.4 C 0 km/h
1839 29-10-2019 09:10:00 6.4 C 7.08 g/m*3 6.4 C 0 km/h
1840 29-10-2019 09:15:00 6.5 C 7.12 g/m*3 6.5 C 0 km/h
1841 29-10-2019 09:20:00 6.6 C 7.17 g/m*3 6.6 C 0 km/h
1842 29-10-2019 09:25:00 6.7 C 7.22 g/m*3 6.7 C 0 km/h
1843 29-10-2019 09:30:00 6.7 C 7.22 g/m*3 6.7 C 0 km/h
1844 29-10-2019 09:35:00 6.8 C 7.27 g/m*3 6.8 C 0 km/h
1845 29-10-2019 09:40:00 6.9 C 7.31 g/m*3 6.9 C 0 km/h
1846 29-10-2019 09:45:00 6.9 C 7.24 g/m*3 6.9 C 0 km/h
1847 29-10-2019 09:50:00 7 C 7.28 g/m*3 7 C 0 km/h
1848 29-10-2019 09:55:00 7.1 C 7.33 g/m*3 7.1 C 0 km/h
1849 29-10-2019 10:00:00 7.1 C 7.33 g/m*3 7.1 C 0 km/h
1850 29-10-2019 10:05:00 7.2 C 7.38 g/m*3 7.2 C 0 km/h
Sensor: Nr:Datum:Temp:Abs-Feuchte:Windchill:Wind:
Aussen-T/F 1851 29-10-2019 10:10:00 7.3 C 7.43 g/m*3 7.3 C 0 km/h
1852 29-10-2019 10:15:00 7.3 C 7.35 g/m*3 7.3 C 0 km/h
1853 29-10-2019 10:20:00 7.3 C 7.27 g/m*3 7.3 C 0 km/h
1854 29-10-2019 10:25:00 7.4 C 7.4 g/m*3 7.4 C 0 km/h
1855 29-10-2019 10:30:00 7.5 C 7.44 g/m*3 7.5 C 1.6 km/h
1856 29-10-2019 10:35:00 7.6 C 7.41 g/m*3 7.6 C 1.6 km/h
1857 29-10-2019 10:40:00 7.7 C 7.46 g/m*3 7.7 C 1.6 km/h
1858 29-10-2019 10:45:00 7.7 C 7.46 g/m*3 7.7 C 0 km/h
1859 29-10-2019 10:50:00 7.8 C 7.51 g/m*3 7.8 C 1.6 km/h
1860 29-10-2019 10:55:00 7.8 C 7.51 g/m*3 7.8 C 0 km/h
1861 29-10-2019 11:00:00 7.9 C 7.56 g/m*3 7.9 C 0 km/h
1862 29-10-2019 11:05:00 8 C 7.61 g/m*3 8 C 0 km/h
1863 29-10-2019 11:10:00 8.1 C 7.57 g/m*3 8.1 C 0 km/h
1864 29-10-2019 11:15:00 8.1 C 7.57 g/m*3 8.1 C 0 km/h
1865 29-10-2019 11:20:00 8.2 C 7.62 g/m*3 8.2 C 0 km/h
1866 29-10-2019 11:25:00 8.2 C 7.54 g/m*3 8.2 C 0 km/h
1867 29-10-2019 11:30:00 8.2 C 7.54 g/m*3 8.2 C 0 km/h
1868 29-10-2019 11:35:00 8.3 C 7.59 g/m*3 8.3 C 0 km/h
1869 29-10-2019 11:40:00 8.3 C 7.59 g/m*3 8.3 C 0 km/h
1870 29-10-2019 11:45:00 8.4 C 7.63 g/m*3 8.4 C 0 km/h
1871 29-10-2019 11:50:00 8.5 C 7.68 g/m*3 8.5 C 0 km/h
1872 29-10-2019 11:55:00 8.6 C 7.73 g/m*3 8.6 C 0 km/h
1873 29-10-2019 12:00:00 8.7 C 7.7 g/m*3 8.7 C 0 km/h
1874 29-10-2019 12:05:00 8.7 C 7.7 g/m*3 8.7 C 0 km/h
1875 29-10-2019 12:10:00 8.8 C 7.75 g/m*3 8.8 C 0 km/h
Sensor: Nr:Datum:Temp:Abs-Feuchte:Windchill:Wind:
Aussen-T/F 1876 29-10-2019 12:15:00 8.8 C 7.66 g/m*3 8.8 C 3.2 km/h
1877 29-10-2019 12:20:00 8.8 C 7.66 g/m*3 8.8 C 0 km/h
1878 29-10-2019 12:25:00 8.8 C 7.66 g/m*3 8.8 C 1.6 km/h
1879 29-10-2019 12:30:00 8.9 C 7.71 g/m*3 8.9 C 1.6 km/h
1880 29-10-2019 12:35:00 9 C 7.85 g/m*3 9 C 0 km/h
1881 29-10-2019 12:40:00 9.1 C 7.81 g/m*3 9.1 C 0 km/h
1882 29-10-2019 12:45:00 9.1 C 7.81 g/m*3 9.1 C 0 km/h
1883 29-10-2019 12:50:00 9.2 C 7.86 g/m*3 9.2 C 1.6 km/h
1884 29-10-2019 12:55:00 9.2 C 7.86 g/m*3 9.2 C 0 km/h
1885 29-10-2019 13:00:00 9.2 C 7.77 g/m*3 9.2 C 1.6 km/h
1886 29-10-2019 13:05:00 9.3 C 7.91 g/m*3 9.3 C 1.6 km/h
1887 29-10-2019 13:10:00 9.3 C 7.82 g/m*3 9.3 C 0 km/h
1888 29-10-2019 13:15:00 9.4 C 7.96 g/m*3 9.4 C 0 km/h
1889 29-10-2019 13:20:00 9.6 C 8.06 g/m*3 9.6 C 1.6 km/h
1890 29-10-2019 13:25:00 9.7 C 7.93 g/m*3 9.7 C 1.6 km/h
1891 29-10-2019 13:30:00 9.7 C 7.74 g/m*3 9.7 C 4.8 km/h
1892 29-10-2019 13:35:00 9.8 C 7.7 g/m*3 9.8 C 1.6 km/h
1893 29-10-2019 13:40:00 10 C 7.71 g/m*3 10 C 4.8 km/h
1894 29-10-2019 13:45:00 10.2 C 7.71 g/m*3 8.92 C 9.7 km/h
1895 29-10-2019 13:50:00 10.3 C 7.76 g/m*3 8.34 C 14.5 km/h
1896 29-10-2019 13:55:00 10.4 C 7.52 g/m*3 10.4 C 4.8 km/h
1897 29-10-2019 14:00:00 10.3 C 7.47 g/m*3 10.3 C 4.8 km/h
1898 29-10-2019 14:05:00 10.3 C 7.57 g/m*3 9.72 C 6.4 km/h
1899 29-10-2019 14:10:00 10.3 C 7.47 g/m*3 9.34 C 8.1 km/h
1900 29-10-2019 14:15:00 10.3 C 7.57 g/m*3 10.3 C 1.6 km/h
Sensor: Nr:Datum:Temp:Abs-Feuchte:Windchill:Wind:
Aussen-T/F 1901 29-10-2019 14:20:00 10.3 C 7.57 g/m*3 9.72 C 6.4 km/h
1902 29-10-2019 14:25:00 10.4 C 7.42 g/m*3 8.9 C 11.3 km/h
1903 29-10-2019 14:30:00 10.6 C 7.52 g/m*3 10.6 C 4.8 km/h
1904 29-10-2019 14:35:00 10.8 C 7.41 g/m*3 9.38 C 11.3 km/h
1905 29-10-2019 14:40:00 11 C 7.41 g/m*3 9.4 C 12.9 km/h
1906 29-10-2019 14:45:00 11.1 C 7.45 g/m*3 11.1 C 4.8 km/h
1907 29-10-2019 14:50:00 10.9 C 7.16 g/m*3 10.41 C 6.4 km/h
1908 29-10-2019 14:55:00 10.8 C 7.41 g/m*3 10.8 C 4.8 km/h
1909 29-10-2019 15:00:00 10.7 C 7.07 g/m*3 10.7 C 4.8 km/h
1910 29-10-2019 15:05:00 10.5 C 7.18 g/m*3 9.57 C 8.1 km/h
1911 29-10-2019 15:10:00 10.3 C 7.28 g/m*3 10.3 C 1.6 km/h
1912 29-10-2019 15:15:00 10.1 C 7.28 g/m*3 10.1 C 3.2 km/h
1913 29-10-2019 15:20:00 9.9 C 7.47 g/m*3 9.9 C 0 km/h
1914 29-10-2019 15:25:00 9.7 C 7.38 g/m*3 9.7 C 0 km/h
1915 29-10-2019 15:30:00 9.4 C 7.42 g/m*3 9.4 C 1.6 km/h
1916 29-10-2019 15:35:00 9.2 C 7.41 g/m*3 9.2 C 1.6 km/h
1917 29-10-2019 15:40:00 9 C 7.41 g/m*3 9 C 0 km/h
1918 29-10-2019 15:45:00 8.8 C 7.4 g/m*3 8.8 C 0 km/h
1919 29-10-2019 15:50:00 8.7 C 7.35 g/m*3 8.7 C 0 km/h
1920 29-10-2019 15:55:00 8.6 C 7.39 g/m*3 8.6 C 0 km/h
1921 29-10-2019 16:00:00 8.6 C 7.48 g/m*3 8.6 C 0 km/h
1922 29-10-2019 16:05:00 8.6 C 7.56 g/m*3 8.6 C 0 km/h
1923 29-10-2019 16:10:00 8.5 C 7.51 g/m*3 8.5 C 1.6 km/h
1924 29-10-2019 16:15:00 8.5 C 7.51 g/m*3 8.5 C 1.6 km/h
1925 29-10-2019 16:20:00 8.4 C 7.38 g/m*3 8.4 C 0 km/h
Sensor: Nr:Datum:Temp:Abs-Feuchte:Windchill:Wind:
Aussen-T/F 1926 29-10-2019 16:25:00 8.3 C 7.42 g/m*3 8.3 C 1.6 km/h
1927 29-10-2019 16:30:00 8.2 C 7.37 g/m*3 8.2 C 0 km/h
1928 29-10-2019 16:35:00 8.1 C 7.41 g/m*3 8.1 C 0 km/h
1929 29-10-2019 16:40:00 8.1 C 7.41 g/m*3 8.1 C 0 km/h
1930 29-10-2019 16:45:00 8.1 C 7.41 g/m*3 8.1 C 0 km/h
1931 29-10-2019 16:50:00 8 C 7.36 g/m*3 8 C 0 km/h
1932 29-10-2019 16:55:00 7.9 C 7.31 g/m*3 7.9 C 0 km/h
1933 29-10-2019 17:00:00 7.7 C 7.22 g/m*3 7.7 C 1.6 km/h
1934 29-10-2019 17:05:00 7.5 C 7.12 g/m*3 7.5 C 1.6 km/h
1935 29-10-2019 17:10:00 7.3 C 7.03 g/m*3 7.3 C 1.6 km/h
1936 29-10-2019 17:15:00 7.2 C 6.99 g/m*3 7.2 C 1.6 km/h
1937 29-10-2019 17:20:00 7.1 C 6.94 g/m*3 7.1 C 1.6 km/h
1938 29-10-2019 17:25:00 6.9 C 6.85 g/m*3 6.9 C 1.6 km/h
1939 29-10-2019 17:30:00 6.8 C 6.88 g/m*3 6.8 C 1.6 km/h
1940 29-10-2019 17:35:00 6.7 C 6.84 g/m*3 6.7 C 3.2 km/h
1941 29-10-2019 17:40:00 6.6 C 6.72 g/m*3 6.6 C 3.2 km/h
1942 29-10-2019 17:45:00 6.6 C 6.79 g/m*3 6.6 C 3.2 km/h
1943 29-10-2019 17:50:00 6.5 C 6.75 g/m*3 6.5 C 1.6 km/h
1944 29-10-2019 17:55:00 6.4 C 6.71 g/m*3 6.4 C 0 km/h
1945 29-10-2019 18:00:00 6.3 C 6.66 g/m*3 6.3 C 3.2 km/h
1946 29-10-2019 18:05:00 6.2 C 6.62 g/m*3 6.2 C 1.6 km/h
1947 29-10-2019 18:10:00 6.2 C 6.69 g/m*3 6.2 C 1.6 km/h
1948 29-10-2019 18:15:00 6.2 C 6.69 g/m*3 6.2 C 1.6 km/h
1949 29-10-2019 18:20:00 6.1 C 6.65 g/m*3 6.1 C 0 km/h
1950 29-10-2019 18:25:00 6.1 C 6.65 g/m*3 6.1 C 0 km/h
Sensor: Nr:Datum:Temp:Abs-Feuchte:Windchill:Wind:
Aussen-T/F 1951 29-10-2019 18:30:00 5.9 C 6.56 g/m*3 5.9 C 0 km/h
1952 29-10-2019 18:35:00 5.9 C 6.56 g/m*3 5.9 C 0 km/h
1953 29-10-2019 18:40:00 5.8 C 6.52 g/m*3 5.8 C 0 km/h
1954 29-10-2019 18:45:00 5.7 C 6.48 g/m*3 5.7 C 0 km/h
1955 29-10-2019 18:50:00 5.6 C 6.43 g/m*3 5.6 C 0 km/h
1956 29-10-2019 18:55:00 5.6 C 6.5 g/m*3 5.6 C 0 km/h
1957 29-10-2019 19:00:00 5.4 C 6.42 g/m*3 5.4 C 0 km/h
1958 29-10-2019 19:05:00 5.3 C 6.38 g/m*3 5.3 C 0 km/h
1959 29-10-2019 19:10:00 5.3 C 6.38 g/m*3 5.3 C 0 km/h
1960 29-10-2019 19:15:00 5.2 C 6.33 g/m*3 5.2 C 0 km/h
1961 29-10-2019 19:20:00 5.1 C 6.29 g/m*3 5.1 C 0 km/h
1962 29-10-2019 19:25:00 5 C 6.25 g/m*3 5 C 0 km/h
1963 29-10-2019 19:30:00 4.9 C 6.21 g/m*3 4.9 C 0 km/h
1964 29-10-2019 19:35:00 4.8 C 6.24 g/m*3 4.8 C 0 km/h
1965 29-10-2019 19:40:00 4.7 C 6.19 g/m*3 4.7 C 0 km/h
1966 29-10-2019 19:45:00 4.7 C 6.19 g/m*3 4.7 C 0 km/h
1967 29-10-2019 19:50:00 4.6 C 6.15 g/m*3 4.6 C 0 km/h
1968 29-10-2019 19:55:00 4.6 C 6.22 g/m*3 4.6 C 0 km/h
1969 29-10-2019 20:00:00 4.6 C 6.22 g/m*3 4.6 C 0 km/h
1970 29-10-2019 20:05:00 4.6 C 6.22 g/m*3 4.6 C 0 km/h
1971 29-10-2019 20:10:00 4.5 C 6.18 g/m*3 4.5 C 0 km/h
1972 29-10-2019 20:15:00 4.4 C 6.14 g/m*3 4.4 C 0 km/h
1973 29-10-2019 20:20:00 4.4 C 6.14 g/m*3 4.4 C 0 km/h
1974 29-10-2019 20:25:00 4.4 C 6.14 g/m*3 4.4 C 0 km/h
1975 29-10-2019 20:30:00 4.4 C 6.14 g/m*3 4.4 C 0 km/h
Sensor: Nr:Datum:Temp:Abs-Feuchte:Windchill:Wind:
Aussen-T/F 1976 29-10-2019 20:35:00 4.4 C 6.14 g/m*3 4.4 C 0 km/h
1977 29-10-2019 20:40:00 4.4 C 6.14 g/m*3 4.4 C 0 km/h
1978 29-10-2019 20:45:00 4.4 C 6.14 g/m*3 4.4 C 0 km/h
1979 29-10-2019 20:50:00 4.3 C 6.1 g/m*3 4.3 C 0 km/h
1980 29-10-2019 20:55:00 4.3 C 6.1 g/m*3 4.3 C 0 km/h
1981 29-10-2019 21:00:00 4.1 C 6.02 g/m*3 4.1 C 0 km/h
1982 29-10-2019 21:05:00 4 C 5.98 g/m*3 4 C 0 km/h
1983 29-10-2019 21:10:00 3.9 C 5.94 g/m*3 3.9 C 0 km/h
1984 29-10-2019 21:15:00 3.8 C 5.9 g/m*3 3.8 C 0 km/h
1985 29-10-2019 21:20:00 3.7 C 5.86 g/m*3 3.7 C 0 km/h
1986 29-10-2019 21:25:00 3.7 C 5.86 g/m*3 3.7 C 0 km/h
1987 29-10-2019 21:30:00 3.6 C 5.82 g/m*3 3.6 C 0 km/h
1988 29-10-2019 21:35:00 3.5 C 5.78 g/m*3 3.5 C 0 km/h
1989 29-10-2019 21:40:00 3.4 C 5.74 g/m*3 3.4 C 0 km/h
1990 29-10-2019 21:45:00 3.3 C 5.7 g/m*3 3.3 C 0 km/h
1991 29-10-2019 21:50:00 3.3 C 5.76 g/m*3 3.3 C 0 km/h
1992 29-10-2019 21:55:00 3.3 C 5.76 g/m*3 3.3 C 0 km/h
1993 29-10-2019 22:00:00 3.2 C 5.72 g/m*3 3.2 C 0 km/h
1994 29-10-2019 22:05:00 3.2 C 5.72 g/m*3 3.2 C 0 km/h
1995 29-10-2019 22:10:00 3.2 C 5.72 g/m*3 3.2 C 0 km/h
1996 29-10-2019 22:15:00 3.1 C 5.69 g/m*3 3.1 C 0 km/h
1997 29-10-2019 22:20:00 3.1 C 5.69 g/m*3 3.1 C 0 km/h
1998 29-10-2019 22:25:00 3.1 C 5.69 g/m*3 3.1 C 0 km/h
1999 29-10-2019 22:30:00 3 C 5.65 g/m*3 3 C 0 km/h
2000 29-10-2019 22:35:00 2.9 C 5.61 g/m*3 2.9 C 0 km/h
Sensor: Nr:Datum:Temp:Abs-Feuchte:Windchill:Wind:
Aussen-T/F 2001 29-10-2019 22:40:00 2.8 C 5.57 g/m*3 2.8 C 0 km/h
2002 29-10-2019 22:45:00 2.8 C 5.57 g/m*3 2.8 C 0 km/h
2003 29-10-2019 22:50:00 2.8 C 5.57 g/m*3 2.8 C 0 km/h
2004 29-10-2019 22:55:00 2.7 C 5.54 g/m*3 2.7 C 0 km/h
2005 29-10-2019 23:00:00 2.8 C 5.57 g/m*3 2.8 C 0 km/h
2006 29-10-2019 23:05:00 2.8 C 5.63 g/m*3 2.8 C 0 km/h
2007 29-10-2019 23:10:00 2.8 C 5.63 g/m*3 2.8 C 0 km/h
2008 29-10-2019 23:15:00 2.9 C 5.67 g/m*3 2.9 C 0 km/h
2009 29-10-2019 23:20:00 3 C 5.71 g/m*3 3 C 0 km/h
2010 29-10-2019 23:25:00 2.9 C 5.67 g/m*3 2.9 C 0 km/h
2011 29-10-2019 23:30:00 2.8 C 5.63 g/m*3 2.8 C 0 km/h
2012 29-10-2019 23:35:00 2.7 C 5.54 g/m*3 2.7 C 0 km/h
2013 29-10-2019 23:40:00 2.7 C 5.59 g/m*3 2.7 C 0 km/h
2014 29-10-2019 23:45:00 2.7 C 5.59 g/m*3 2.7 C 0 km/h
2015 29-10-2019 23:50:00 2.6 C 5.56 g/m*3 2.6 C 0 km/h
2016 29-10-2019 23:55:00 2.6 C 5.56 g/m*3 2.6 C 0 km/h
2017 30-10-2019 00:00:00 2.4 C 5.48 g/m*3 2.4 C 0 km/h
2018 30-10-2019 00:05:00 2.4 C 5.42 g/m*3 2.4 C 0 km/h
2019 30-10-2019 00:10:00 2.3 C 5.39 g/m*3 2.3 C 0 km/h
2020 30-10-2019 00:15:00 2.2 C 5.41 g/m*3 2.2 C 0 km/h
2021 30-10-2019 00:20:00 2.2 C 5.41 g/m*3 2.2 C 0 km/h
2022 30-10-2019 00:25:00 2.2 C 5.41 g/m*3 2.2 C 0 km/h
2023 30-10-2019 00:30:00 2.2 C 5.41 g/m*3 2.2 C 0 km/h
2024 30-10-2019 00:35:00 2.1 C 5.37 g/m*3 2.1 C 0 km/h
2025 30-10-2019 00:40:00 2.1 C 5.37 g/m*3 2.1 C 0 km/h
Sensor: Nr:Datum:Temp:Abs-Feuchte:Windchill:Wind:
Aussen-T/F 2026 30-10-2019 00:45:00 2.1 C 5.37 g/m*3 2.1 C 0 km/h
2027 30-10-2019 00:50:00 2.1 C 5.37 g/m*3 2.1 C 0 km/h
2028 30-10-2019 00:55:00 2.2 C 5.41 g/m*3 2.2 C 0 km/h
2029 30-10-2019 01:00:00 2.2 C 5.41 g/m*3 2.2 C 0 km/h
2030 30-10-2019 01:05:00 2.2 C 5.41 g/m*3 2.2 C 0 km/h
2031 30-10-2019 01:10:00 2.2 C 5.41 g/m*3 2.2 C 0 km/h
2032 30-10-2019 01:15:00 2.2 C 5.41 g/m*3 2.2 C 0 km/h
2033 30-10-2019 01:20:00 2.1 C 5.37 g/m*3 2.1 C 0 km/h
2034 30-10-2019 01:25:00 2 C 5.33 g/m*3 2 C 0 km/h
2035 30-10-2019 01:30:00 1.9 C 5.3 g/m*3 1.9 C 0 km/h
2036 30-10-2019 01:35:00 1.9 C 5.3 g/m*3 1.9 C 0 km/h
2037 30-10-2019 01:40:00 1.9 C 5.3 g/m*3 1.9 C 0 km/h
2038 30-10-2019 01:45:00 1.8 C 5.26 g/m*3 1.8 C 0 km/h
2039 30-10-2019 01:50:00 1.7 C 5.23 g/m*3 1.7 C 0 km/h
2040 30-10-2019 01:55:00 1.7 C 5.23 g/m*3 1.7 C 0 km/h
2041 30-10-2019 02:00:00 1.7 C 5.23 g/m*3 1.7 C 0 km/h
2042 30-10-2019 02:05:00 1.7 C 5.23 g/m*3 1.7 C 0 km/h
2043 30-10-2019 02:10:00 1.8 C 5.26 g/m*3 1.8 C 0 km/h
2044 30-10-2019 02:15:00 1.9 C 5.3 g/m*3 1.9 C 0 km/h
2045 30-10-2019 02:20:00 1.9 C 5.3 g/m*3 1.9 C 0 km/h
2046 30-10-2019 02:25:00 2.1 C 5.37 g/m*3 2.1 C 0 km/h
2047 30-10-2019 02:30:00 2.1 C 5.37 g/m*3 2.1 C 0 km/h
2048 30-10-2019 02:35:00 2.1 C 5.37 g/m*3 2.1 C 0 km/h
2049 30-10-2019 02:40:00 2.2 C 5.41 g/m*3 2.2 C 0 km/h
2050 30-10-2019 02:45:00 2.1 C 5.37 g/m*3 2.1 C 0 km/h
Sensor: Nr:Datum:Temp:Abs-Feuchte:Windchill:Wind:
Aussen-T/F 2051 30-10-2019 02:50:00 2.1 C 5.37 g/m*3 2.1 C 0 km/h
2052 30-10-2019 02:55:00 2.1 C 5.37 g/m*3 2.1 C 0 km/h
2053 30-10-2019 03:00:00 2 C 5.33 g/m*3 2 C 0 km/h
2054 30-10-2019 03:05:00 1.9 C 5.3 g/m*3 1.9 C 0 km/h
2055 30-10-2019 03:10:00 1.8 C 5.26 g/m*3 1.8 C 0 km/h
2056 30-10-2019 03:15:00 1.7 C 5.23 g/m*3 1.7 C 0 km/h
2057 30-10-2019 03:20:00 1.7 C 5.23 g/m*3 1.7 C 0 km/h
2058 30-10-2019 03:25:00 1.6 C 5.19 g/m*3 1.6 C 0 km/h
2059 30-10-2019 03:30:00 1.4 C 5.12 g/m*3 1.4 C 0 km/h
2060 30-10-2019 03:35:00 1.3 C 5.09 g/m*3 1.3 C 0 km/h
2061 30-10-2019 03:40:00 1.3 C 5.09 g/m*3 1.3 C 0 km/h
2062 30-10-2019 03:45:00 1.2 C 5.05 g/m*3 1.2 C 0 km/h
2063 30-10-2019 03:50:00 1.2 C 5.05 g/m*3 1.2 C 0 km/h
2064 30-10-2019 03:55:00 1.1 C 5.02 g/m*3 1.1 C 0 km/h
2065 30-10-2019 04:00:00 1 C 4.98 g/m*3 1 C 0 km/h
2066 30-10-2019 04:05:00 1 C 4.98 g/m*3 1 C 0 km/h
2067 30-10-2019 04:10:00 1 C 4.98 g/m*3 1 C 0 km/h
2068 30-10-2019 04:15:00 1.1 C 5.02 g/m*3 1.1 C 0 km/h
2069 30-10-2019 04:20:00 1.2 C 5.05 g/m*3 1.2 C 0 km/h
2070 30-10-2019 04:25:00 1.2 C 5.1 g/m*3 1.2 C 0 km/h
2071 30-10-2019 04:30:00 1.3 C 5.14 g/m*3 1.3 C 0 km/h
2072 30-10-2019 04:35:00 1.3 C 5.14 g/m*3 1.3 C 0 km/h
2073 30-10-2019 04:40:00 1.2 C 5.1 g/m*3 1.2 C 0 km/h
2074 30-10-2019 04:45:00 1.2 C 5.05 g/m*3 1.2 C 0 km/h
2075 30-10-2019 04:50:00 1.1 C 5.02 g/m*3 1.1 C 0 km/h
Sensor: Nr:Datum:Temp:Abs-Feuchte:Windchill:Wind:
Aussen-T/F 2076 30-10-2019 04:55:00 1.1 C 5.02 g/m*3 1.1 C 0 km/h
2077 30-10-2019 05:00:00 1.1 C 5.02 g/m*3 1.1 C 0 km/h
2078 30-10-2019 05:05:00 1.1 C 5.02 g/m*3 1.1 C 0 km/h
2079 30-10-2019 05:10:00 1.2 C 5.05 g/m*3 1.2 C 0 km/h
2080 30-10-2019 05:15:00 1.3 C 5.14 g/m*3 1.3 C 0 km/h
2081 30-10-2019 05:20:00 1.3 C 5.14 g/m*3 1.3 C 1.6 km/h
2082 30-10-2019 05:25:00 1.4 C 5.17 g/m*3 1.4 C 1.6 km/h
2083 30-10-2019 05:30:00 1.4 C 5.17 g/m*3 1.4 C 0 km/h
2084 30-10-2019 05:35:00 1.4 C 5.17 g/m*3 1.4 C 0 km/h
2085 30-10-2019 05:40:00 1.5 C 5.21 g/m*3 1.5 C 0 km/h
2086 30-10-2019 05:45:00 1.5 C 5.21 g/m*3 1.5 C 0 km/h
2087 30-10-2019 05:50:00 1.5 C 5.21 g/m*3 1.5 C 0 km/h
2088 30-10-2019 05:55:00 1.5 C 5.21 g/m*3 1.5 C 0 km/h
2089 30-10-2019 06:00:00 1.5 C 5.21 g/m*3 1.5 C 0 km/h
2090 30-10-2019 06:05:00 1.6 C 5.25 g/m*3 1.6 C 0 km/h
2091 30-10-2019 06:10:00 1.6 C 5.25 g/m*3 1.6 C 0 km/h
2092 30-10-2019 06:15:00 1.5 C 5.21 g/m*3 1.5 C 0 km/h
2093 30-10-2019 06:20:00 1.5 C 5.21 g/m*3 1.5 C 0 km/h
2094 30-10-2019 06:25:00 1.4 C 5.17 g/m*3 1.4 C 0 km/h
2095 30-10-2019 06:30:00 1.3 C 5.14 g/m*3 1.3 C 0 km/h
2096 30-10-2019 06:35:00 1.3 C 5.14 g/m*3 1.3 C 0 km/h
2097 30-10-2019 06:40:00 1.2 C 5.1 g/m*3 1.2 C 0 km/h
2098 30-10-2019 06:45:00 1.3 C 5.14 g/m*3 1.3 C 0 km/h
2099 30-10-2019 06:50:00 1.3 C 5.14 g/m*3 1.3 C 0 km/h
2100 30-10-2019 06:55:00 1.3 C 5.14 g/m*3 1.3 C 0 km/h
Sensor: Nr:Datum:Temp:Abs-Feuchte:Windchill:Wind:
Aussen-T/F 2101 30-10-2019 07:00:00 1.3 C 5.14 g/m*3 1.3 C 0 km/h
2102 30-10-2019 07:05:00 1.4 C 5.17 g/m*3 1.4 C 0 km/h
2103 30-10-2019 07:10:00 1.4 C 5.17 g/m*3 1.4 C 0 km/h
2104 30-10-2019 07:15:00 1.4 C 5.17 g/m*3 1.4 C 0 km/h
2105 30-10-2019 07:20:00 1.4 C 5.17 g/m*3 1.4 C 0 km/h
2106 30-10-2019 07:25:00 1.4 C 5.17 g/m*3 1.4 C 0 km/h
2107 30-10-2019 07:30:00 1.4 C 5.17 g/m*3 1.4 C 0 km/h
2108 30-10-2019 07:35:00 1.4 C 5.17 g/m*3 1.4 C 0 km/h
2109 30-10-2019 07:40:00 1.6 C 5.25 g/m*3 1.6 C 0 km/h
2110 30-10-2019 07:45:00 1.6 C 5.25 g/m*3 1.6 C 1.6 km/h
2111 30-10-2019 07:50:00 1.6 C 5.25 g/m*3 1.6 C 1.6 km/h
2112 30-10-2019 07:55:00 1.6 C 5.25 g/m*3 1.6 C 0 km/h
2113 30-10-2019 08:00:00 1.7 C 5.28 g/m*3 1.7 C 0 km/h
2114 30-10-2019 08:05:00 1.7 C 5.28 g/m*3 1.7 C 0 km/h
2115 30-10-2019 08:10:00 1.7 C 5.28 g/m*3 1.7 C 0 km/h
2116 30-10-2019 08:15:00 1.7 C 5.28 g/m*3 1.7 C 0 km/h
2117 30-10-2019 08:20:00 1.8 C 5.32 g/m*3 1.8 C 3.2 km/h
2118 30-10-2019 08:25:00 1.8 C 5.32 g/m*3 1.8 C 0 km/h
2119 30-10-2019 08:30:00 1.9 C 5.35 g/m*3 1.9 C 0 km/h
2120 30-10-2019 08:35:00 1.9 C 5.35 g/m*3 1.9 C 0 km/h
2121 30-10-2019 08:40:00 1.9 C 5.35 g/m*3 1.9 C 0 km/h
2122 30-10-2019 08:45:00 1.9 C 5.35 g/m*3 1.9 C 0 km/h
2123 30-10-2019 08:50:00 2.1 C 5.43 g/m*3 2.1 C 0 km/h
2124 30-10-2019 08:55:00 2.2 C 5.46 g/m*3 2.2 C 0 km/h
2125 30-10-2019 09:00:00 2.2 C 5.46 g/m*3 2.2 C 0 km/h
Sensor: Nr:Datum:Temp:Abs-Feuchte:Windchill:Wind:
Aussen-T/F 2126 30-10-2019 09:05:00 2.2 C 5.46 g/m*3 2.2 C 0 km/h
2127 30-10-2019 09:10:00 2.3 C 5.5 g/m*3 2.3 C 1.6 km/h
2128 30-10-2019 09:15:00 2.3 C 5.5 g/m*3 2.3 C 0 km/h
2129 30-10-2019 09:20:00 2.3 C 5.5 g/m*3 2.3 C 0 km/h
2130 30-10-2019 09:25:00 2.3 C 5.5 g/m*3 2.3 C 0 km/h
2131 30-10-2019 09:30:00 2.4 C 5.54 g/m*3 2.4 C 0 km/h
2132 30-10-2019 09:35:00 2.4 C 5.54 g/m*3 2.4 C 0 km/h
2133 30-10-2019 09:40:00 2.6 C 5.61 g/m*3 2.6 C 0 km/h
2134 30-10-2019 09:45:00 2.6 C 5.61 g/m*3 2.6 C 0 km/h
2135 30-10-2019 09:50:00 2.6 C 5.61 g/m*3 2.6 C 0 km/h
2136 30-10-2019 09:55:00 2.6 C 5.61 g/m*3 2.6 C 0 km/h
2137 30-10-2019 10:00:00 2.7 C 5.65 g/m*3 2.7 C 0 km/h
2138 30-10-2019 10:05:00 2.9 C 5.73 g/m*3 2.9 C 0 km/h
2139 30-10-2019 10:10:00 3.2 C 5.91 g/m*3 3.2 C 0 km/h
2140 30-10-2019 10:15:00 3.4 C 5.99 g/m*3 3.4 C 0 km/h
2141 30-10-2019 10:20:00 3.6 C 6.07 g/m*3 3.6 C 0 km/h
2142 30-10-2019 10:25:00 3.7 C 6.11 g/m*3 3.7 C 0 km/h
2143 30-10-2019 10:30:00 3.8 C 6.15 g/m*3 3.8 C 0 km/h
2144 30-10-2019 10:35:00 4 C 6.23 g/m*3 4 C 0 km/h
2145 30-10-2019 10:40:00 4.1 C 6.27 g/m*3 4.1 C 0 km/h
2146 30-10-2019 10:45:00 4.2 C 6.31 g/m*3 4.2 C 0 km/h
2147 30-10-2019 10:50:00 4.3 C 6.36 g/m*3 4.3 C 0 km/h
2148 30-10-2019 10:55:00 4.4 C 6.4 g/m*3 4.4 C 0 km/h
2149 30-10-2019 11:00:00 4.6 C 6.48 g/m*3 4.6 C 0 km/h
2150 30-10-2019 11:05:00 4.7 C 6.53 g/m*3 4.7 C 0 km/h
Sensor: Nr:Datum:Temp:Abs-Feuchte:Windchill:Wind:
Aussen-T/F 2151 30-10-2019 11:10:00 4.7 C 6.53 g/m*3 4.7 C 0 km/h
2152 30-10-2019 11:15:00 4.8 C 6.57 g/m*3 4.8 C 0 km/h
2153 30-10-2019 11:20:00 4.9 C 6.62 g/m*3 4.9 C 0 km/h
2154 30-10-2019 11:25:00 4.9 C 6.62 g/m*3 4.9 C 1.6 km/h
2155 30-10-2019 11:30:00 4.9 C 6.62 g/m*3 4.9 C 1.6 km/h
2156 30-10-2019 11:35:00 5 C 6.66 g/m*3 5 C 0 km/h
2157 30-10-2019 11:40:00 5.1 C 6.7 g/m*3 5.1 C 1.6 km/h
2158 30-10-2019 11:45:00 5.2 C 6.75 g/m*3 5.2 C 1.6 km/h
2159 30-10-2019 11:50:00 5.2 C 6.75 g/m*3 5.2 C 0 km/h
2160 30-10-2019 11:55:00 5.3 C 6.79 g/m*3 5.3 C 1.6 km/h
2161 30-10-2019 12:00:00 5.3 C 6.79 g/m*3 5.3 C 1.6 km/h
2162 30-10-2019 12:05:00 5.4 C 6.84 g/m*3 5.4 C 0 km/h
2163 30-10-2019 12:10:00 5.5 C 6.81 g/m*3 5.5 C 0 km/h
2164 30-10-2019 12:15:00 5.6 C 6.86 g/m*3 5.6 C 0 km/h
2165 30-10-2019 12:20:00 5.7 C 6.9 g/m*3 5.7 C 0 km/h
2166 30-10-2019 12:25:00 5.7 C 6.9 g/m*3 5.7 C 0 km/h
2167 30-10-2019 12:30:00 5.8 C 6.95 g/m*3 5.8 C 0 km/h
2168 30-10-2019 12:35:00 5.8 C 6.95 g/m*3 5.8 C 0 km/h
2169 30-10-2019 12:40:00 5.8 C 6.95 g/m*3 5.8 C 0 km/h
2170 30-10-2019 12:45:00 5.9 C 6.99 g/m*3 5.9 C 0 km/h
2171 30-10-2019 12:50:00 6 C 6.97 g/m*3 6 C 1.6 km/h
2172 30-10-2019 12:55:00 6.1 C 6.94 g/m*3 6.1 C 0 km/h
2173 30-10-2019 13:00:00 6.1 C 6.87 g/m*3 6.1 C 1.6 km/h
2174 30-10-2019 13:05:00 6.2 C 6.91 g/m*3 6.2 C 0 km/h
2175 30-10-2019 13:10:00 6.2 C 6.84 g/m*3 6.2 C 1.6 km/h
Sensor: Nr:Datum:Temp:Abs-Feuchte:Windchill:Wind:
Aussen-T/F 2176 30-10-2019 13:15:00 6.3 C 6.88 g/m*3 6.3 C 0 km/h
2177 30-10-2019 13:20:00 6.4 C 6.93 g/m*3 6.4 C 1.6 km/h
2178 30-10-2019 13:25:00 6.5 C 6.9 g/m*3 6.5 C 1.6 km/h
2179 30-10-2019 13:30:00 6.7 C 6.91 g/m*3 6.7 C 3.2 km/h
2180 30-10-2019 13:35:00 6.8 C 6.88 g/m*3 6.8 C 3.2 km/h
2181 30-10-2019 13:40:00 6.9 C 6.93 g/m*3 6.9 C 0 km/h
2182 30-10-2019 13:45:00 7.1 C 6.86 g/m*3 6.02 C 6.4 km/h
2183 30-10-2019 13:50:00 7.2 C 6.91 g/m*3 6.13 C 6.4 km/h
2184 30-10-2019 13:55:00 7.2 C 6.75 g/m*3 6.13 C 6.4 km/h
2185 30-10-2019 14:00:00 7.3 C 6.79 g/m*3 5.81 C 8.1 km/h
2186 30-10-2019 14:05:00 7.4 C 6.92 g/m*3 7.4 C 1.6 km/h
2187 30-10-2019 14:10:00 7.4 C 6.84 g/m*3 7.4 C 1.6 km/h
2188 30-10-2019 14:15:00 7.5 C 6.8 g/m*3 7.5 C 3.2 km/h
2189 30-10-2019 14:20:00 7.5 C 6.8 g/m*3 7.5 C 1.6 km/h
2190 30-10-2019 14:25:00 7.6 C 6.69 g/m*3 7.6 C 4.8 km/h
2191 30-10-2019 14:30:00 7.6 C 6.69 g/m*3 7.6 C 0 km/h
2192 30-10-2019 14:35:00 7.7 C 6.81 g/m*3 7.7 C 4.8 km/h
2193 30-10-2019 14:40:00 7.7 C 6.81 g/m*3 7.7 C 3.2 km/h
2194 30-10-2019 14:45:00 7.7 C 6.81 g/m*3 7.7 C 1.6 km/h
2195 30-10-2019 14:50:00 7.8 C 6.77 g/m*3 7.8 C 1.6 km/h
2196 30-10-2019 14:55:00 7.8 C 6.86 g/m*3 7.8 C 0 km/h
2197 30-10-2019 15:00:00 7.8 C 6.86 g/m*3 7.8 C 0 km/h
2198 30-10-2019 15:05:00 7.8 C 6.77 g/m*3 7.8 C 1.6 km/h
2199 30-10-2019 15:10:00 7.8 C 6.69 g/m*3 7.8 C 1.6 km/h
2200 30-10-2019 15:15:00 7.8 C 6.86 g/m*3 7.8 C 0 km/h
Sensor: Nr:Datum:Temp:Abs-Feuchte:Windchill:Wind:
Aussen-T/F 2201 30-10-2019 15:20:00 7.8 C 6.86 g/m*3 7.8 C 0 km/h
2202 30-10-2019 15:25:00 7.8 C 6.77 g/m*3 7.8 C 1.6 km/h
2203 30-10-2019 15:30:00 7.8 C 6.86 g/m*3 7.8 C 0 km/h
2204 30-10-2019 15:35:00 7.8 C 6.94 g/m*3 7.8 C 0 km/h
2205 30-10-2019 15:40:00 7.7 C 6.89 g/m*3 7.7 C 0 km/h
2206 30-10-2019 15:45:00 7.7 C 6.97 g/m*3 7.7 C 0 km/h
2207 30-10-2019 15:50:00 7.6 C 6.93 g/m*3 7.6 C 0 km/h
2208 30-10-2019 15:55:00 7.6 C 6.93 g/m*3 7.6 C 0 km/h
2209 30-10-2019 16:00:00 7.5 C 6.96 g/m*3 7.5 C 0 km/h
2210 30-10-2019 16:05:00 7.4 C 6.92 g/m*3 7.4 C 0 km/h
2211 30-10-2019 16:10:00 7.3 C 6.87 g/m*3 7.3 C 0 km/h
2212 30-10-2019 16:15:00 7.3 C 6.87 g/m*3 7.3 C 0 km/h
2213 30-10-2019 16:20:00 7.2 C 6.91 g/m*3 7.2 C 0 km/h
2214 30-10-2019 16:25:00 7.1 C 6.86 g/m*3 7.1 C 0 km/h
2215 30-10-2019 16:30:00 6.9 C 6.77 g/m*3 6.9 C 0 km/h
2216 30-10-2019 16:35:00 6.9 C 6.77 g/m*3 6.9 C 0 km/h
2217 30-10-2019 16:40:00 6.8 C 6.81 g/m*3 6.8 C 0 km/h
2218 30-10-2019 16:45:00 6.7 C 6.76 g/m*3 6.7 C 0 km/h
2219 30-10-2019 16:50:00 6.6 C 6.72 g/m*3 6.6 C 0 km/h
2220 30-10-2019 16:55:00 6.5 C 6.67 g/m*3 6.5 C 0 km/h
2221 30-10-2019 17:00:00 6.4 C 6.63 g/m*3 6.4 C 0 km/h
2222 30-10-2019 17:05:00 6.3 C 6.59 g/m*3 6.3 C 0 km/h
2223 30-10-2019 17:10:00 6.2 C 6.55 g/m*3 6.2 C 0 km/h
2224 30-10-2019 17:15:00 6.1 C 6.5 g/m*3 6.1 C 0 km/h
2225 30-10-2019 17:20:00 5.9 C 6.42 g/m*3 5.9 C 0 km/h
Sensor: Nr:Datum:Temp:Abs-Feuchte:Windchill:Wind:
Aussen-T/F 2226 30-10-2019 17:25:00 5.8 C 6.38 g/m*3 5.8 C 0 km/h
2227 30-10-2019 17:30:00 5.7 C 6.33 g/m*3 5.7 C 0 km/h
2228 30-10-2019 17:35:00 5.6 C 6.29 g/m*3 5.6 C 0 km/h
2229 30-10-2019 17:40:00 5.5 C 6.25 g/m*3 5.5 C 0 km/h
2230 30-10-2019 17:45:00 5.4 C 6.21 g/m*3 5.4 C 0 km/h
2231 30-10-2019 17:50:00 5.2 C 6.2 g/m*3 5.2 C 0 km/h
2232 30-10-2019 17:55:00 5.1 C 6.16 g/m*3 5.1 C 0 km/h
2233 30-10-2019 18:00:00 5 C 6.12 g/m*3 5 C 1.6 km/h
2234 30-10-2019 18:05:00 4.8 C 6.04 g/m*3 4.8 C 0 km/h
2235 30-10-2019 18:10:00 4.7 C 6 g/m*3 4.7 C 0 km/h
2236 30-10-2019 18:15:00 4.7 C 6 g/m*3 4.7 C 0 km/h
2237 30-10-2019 18:20:00 4.6 C 5.96 g/m*3 4.6 C 0 km/h
2238 30-10-2019 18:25:00 4.5 C 5.98 g/m*3 4.5 C 0 km/h
2239 30-10-2019 18:30:00 4.4 C 5.94 g/m*3 4.4 C 0 km/h
2240 30-10-2019 18:35:00 4.3 C 5.9 g/m*3 4.3 C 0 km/h
2241 30-10-2019 18:40:00 4.2 C 5.86 g/m*3 4.2 C 0 km/h
2242 30-10-2019 18:45:00 4.2 C 5.86 g/m*3 4.2 C 1.6 km/h
2243 30-10-2019 18:50:00 4.1 C 5.82 g/m*3 4.1 C 0 km/h
2244 30-10-2019 18:55:00 4.1 C 5.82 g/m*3 4.1 C 0 km/h
2245 30-10-2019 19:00:00 4.1 C 5.82 g/m*3 4.1 C 0 km/h
2246 30-10-2019 19:05:00 4 C 5.79 g/m*3 4 C 0 km/h
2247 30-10-2019 19:10:00 3.9 C 5.75 g/m*3 3.9 C 0 km/h
2248 30-10-2019 19:15:00 3.8 C 5.77 g/m*3 3.8 C 0 km/h
2249 30-10-2019 19:20:00 3.8 C 5.77 g/m*3 3.8 C 0 km/h
2250 30-10-2019 19:25:00 3.8 C 5.77 g/m*3 3.8 C 0 km/h
Sensor: Nr:Datum:Temp:Abs-Feuchte:Windchill:Wind:
Aussen-T/F 2251 30-10-2019 19:30:00 3.8 C 5.77 g/m*3 3.8 C 0 km/h
2252 30-10-2019 19:35:00 3.8 C 5.77 g/m*3 3.8 C 0 km/h
2253 30-10-2019 19:40:00 3.7 C 5.73 g/m*3 3.7 C 0 km/h
2254 30-10-2019 19:45:00 3.7 C 5.73 g/m*3 3.7 C 0 km/h
2255 30-10-2019 19:50:00 3.6 C 5.76 g/m*3 3.6 C 0 km/h
2256 30-10-2019 19:55:00 3.6 C 5.76 g/m*3 3.6 C 0 km/h
2257 30-10-2019 20:00:00 3.5 C 5.72 g/m*3 3.5 C 0 km/h
2258 30-10-2019 20:05:00 3.4 C 5.68 g/m*3 3.4 C 0 km/h
2259 30-10-2019 20:10:00 3.4 C 5.68 g/m*3 1.75 C 6.4 km/h
2260 30-10-2019 20:15:00 3.4 C 5.68 g/m*3 3.4 C 0 km/h
2261 30-10-2019 20:20:00 3.3 C 5.64 g/m*3 3.3 C 0 km/h
2262 30-10-2019 20:25:00 3.3 C 5.64 g/m*3 3.3 C 0 km/h
2263 30-10-2019 20:30:00 3.3 C 5.7 g/m*3 3.3 C 0 km/h
2264 30-10-2019 20:35:00 3.2 C 5.66 g/m*3 3.2 C 1.6 km/h
2265 30-10-2019 20:40:00 3.2 C 5.66 g/m*3 3.2 C 0 km/h
2266 30-10-2019 20:45:00 3.1 C 5.57 g/m*3 3.1 C 0 km/h
2267 30-10-2019 20:50:00 2.9 C 5.49 g/m*3 2.9 C 0 km/h
2268 30-10-2019 20:55:00 2.8 C 5.51 g/m*3 2.8 C 0 km/h
2269 30-10-2019 21:00:00 2.7 C 5.48 g/m*3 2.7 C 0 km/h
2270 30-10-2019 21:05:00 2.8 C 5.51 g/m*3 2.8 C 0 km/h
2271 30-10-2019 21:10:00 2.8 C 5.51 g/m*3 2.8 C 0 km/h
2272 30-10-2019 21:15:00 2.8 C 5.51 g/m*3 2.8 C 0 km/h
2273 30-10-2019 21:20:00 2.7 C 5.48 g/m*3 2.7 C 0 km/h
2274 30-10-2019 21:25:00 2.7 C 5.48 g/m*3 2.7 C 0 km/h
2275 30-10-2019 21:30:00 2.6 C 5.44 g/m*3 2.6 C 3.2 km/h
Sensor: Nr:Datum:Temp:Abs-Feuchte:Windchill:Wind:
Aussen-T/F 2276 30-10-2019 21:35:00 2.6 C 5.5 g/m*3 2.6 C 1.6 km/h
2277 30-10-2019 21:40:00 2.7 C 5.54 g/m*3 2.7 C 1.6 km/h
2278 30-10-2019 21:45:00 2.7 C 5.54 g/m*3 2.7 C 0 km/h
2279 30-10-2019 21:50:00 2.7 C 5.54 g/m*3 2.7 C 0 km/h
2280 30-10-2019 21:55:00 2.7 C 5.54 g/m*3 2.7 C 0 km/h
2281 30-10-2019 22:00:00 2.6 C 5.5 g/m*3 2.6 C 0 km/h
2282 30-10-2019 22:05:00 2.6 C 5.5 g/m*3 2.6 C 0 km/h
2283 30-10-2019 22:10:00 2.4 C 5.37 g/m*3 2.4 C 0 km/h
2284 30-10-2019 22:15:00 2.4 C 5.37 g/m*3 2.4 C 0 km/h
2285 30-10-2019 22:20:00 2.2 C 5.29 g/m*3 2.2 C 0 km/h
2286 30-10-2019 22:25:00 2.2 C 5.29 g/m*3 2.2 C 0 km/h
2287 30-10-2019 22:30:00 2.1 C 5.31 g/m*3 2.1 C 0 km/h
2288 30-10-2019 22:35:00 2.1 C 5.31 g/m*3 2.1 C 0 km/h
2289 30-10-2019 22:40:00 2.1 C 5.31 g/m*3 2.1 C 0 km/h
2290 30-10-2019 22:45:00 2.1 C 5.31 g/m*3 2.1 C 0 km/h
2291 30-10-2019 22:50:00 2.1 C 5.31 g/m*3 2.1 C 1.6 km/h
2292 30-10-2019 22:55:00 2.1 C 5.31 g/m*3 2.1 C 0 km/h
2293 30-10-2019 23:00:00 2.1 C 5.31 g/m*3 2.1 C 0 km/h
2294 30-10-2019 23:05:00 2.1 C 5.31 g/m*3 2.1 C 0 km/h
2295 30-10-2019 23:10:00 2.1 C 5.31 g/m*3 2.1 C 0 km/h
2296 30-10-2019 23:15:00 1.9 C 5.24 g/m*3 1.9 C 0 km/h
2297 30-10-2019 23:20:00 1.9 C 5.24 g/m*3 1.9 C 0 km/h
2298 30-10-2019 23:25:00 1.8 C 5.21 g/m*3 1.8 C 0 km/h
2299 30-10-2019 23:30:00 1.8 C 5.21 g/m*3 1.8 C 0 km/h
2300 30-10-2019 23:35:00 1.7 C 5.17 g/m*3 1.7 C 0 km/h
Sensor: Nr:Datum:Temp:Abs-Feuchte:Windchill:Wind:
Aussen-T/F 2301 30-10-2019 23:40:00 1.7 C 5.17 g/m*3 1.7 C 0 km/h
2302 30-10-2019 23:45:00 1.6 C 5.14 g/m*3 1.6 C 0 km/h
2303 30-10-2019 23:50:00 1.6 C 5.14 g/m*3 1.6 C 0 km/h
2304 30-10-2019 23:55:00 1.4 C 5.07 g/m*3 1.4 C 0 km/h
2305 31-10-2019 00:00:00 1.3 C 5.03 g/m*3 1.3 C 0 km/h
2306 31-10-2019 00:05:00 1.2 C 5 g/m*3 1.2 C 0 km/h
2307 31-10-2019 00:10:00 1.2 C 5 g/m*3 1.2 C 0 km/h
2308 31-10-2019 00:15:00 1.1 C 4.96 g/m*3 1.1 C 0 km/h
2309 31-10-2019 00:20:00 1.1 C 4.96 g/m*3 1.1 C 0 km/h
2310 31-10-2019 00:25:00 1 C 4.93 g/m*3 1 C 0 km/h
2311 31-10-2019 00:30:00 0.9 C 4.9 g/m*3 0.9 C 0 km/h
2312 31-10-2019 00:35:00 0.9 C 4.9 g/m*3 0.9 C 0 km/h
2313 31-10-2019 00:40:00 0.9 C 4.9 g/m*3 0.9 C 0 km/h
2314 31-10-2019 00:45:00 0.9 C 4.9 g/m*3 0.9 C 0 km/h
2315 31-10-2019 00:50:00 0.9 C 4.9 g/m*3 0.9 C 0 km/h
2316 31-10-2019 00:55:00 0.9 C 4.9 g/m*3 0.9 C 0 km/h
2317 31-10-2019 01:00:00 0.9 C 4.9 g/m*3 0.9 C 0 km/h
2318 31-10-2019 01:05:00 0.9 C 4.95 g/m*3 0.9 C 0 km/h
2319 31-10-2019 01:10:00 0.9 C 4.95 g/m*3 0.9 C 0 km/h
2320 31-10-2019 01:15:00 0.9 C 4.95 g/m*3 0.9 C 0 km/h
2321 31-10-2019 01:20:00 0.9 C 4.95 g/m*3 0.9 C 0 km/h
2322 31-10-2019 01:25:00 0.9 C 4.95 g/m*3 0.9 C 0 km/h
2323 31-10-2019 01:30:00 0.9 C 4.95 g/m*3 0.9 C 0 km/h
2324 31-10-2019 01:35:00 0.9 C 4.95 g/m*3 0.9 C 0 km/h
2325 31-10-2019 01:40:00 0.9 C 4.95 g/m*3 0.9 C 0 km/h
Sensor: Nr:Datum:Temp:Abs-Feuchte:Windchill:Wind:
Aussen-T/F 2326 31-10-2019 01:45:00 0.9 C 4.95 g/m*3 0.9 C 0 km/h
2327 31-10-2019 01:50:00 0.9 C 4.95 g/m*3 0.9 C 0 km/h
2328 31-10-2019 01:55:00 0.8 C 4.91 g/m*3 0.8 C 0 km/h
2329 31-10-2019 02:00:00 0.8 C 4.91 g/m*3 0.8 C 0 km/h
2330 31-10-2019 02:05:00 0.7 C 4.88 g/m*3 0.7 C 0 km/h
2331 31-10-2019 02:10:00 0.7 C 4.88 g/m*3 0.7 C 0 km/h
2332 31-10-2019 02:15:00 0.7 C 4.88 g/m*3 0.7 C 0 km/h
2333 31-10-2019 02:20:00 0.6 C 4.85 g/m*3 0.6 C 0 km/h
2334 31-10-2019 02:25:00 0.5 C 4.81 g/m*3 0.5 C 0 km/h
2335 31-10-2019 02:30:00 0.5 C 4.81 g/m*3 0.5 C 0 km/h
2336 31-10-2019 02:35:00 0.5 C 4.81 g/m*3 0.5 C 0 km/h
2337 31-10-2019 02:40:00 0.4 C 4.78 g/m*3 0.4 C 0 km/h
2338 31-10-2019 02:45:00 0.4 C 4.78 g/m*3 0.4 C 0 km/h
2339 31-10-2019 02:50:00 0.3 C 4.75 g/m*3 0.3 C 0 km/h
2340 31-10-2019 02:55:00 0.3 C 4.75 g/m*3 0.3 C 0 km/h
2341 31-10-2019 03:00:00 0.3 C 4.75 g/m*3 0.3 C 0 km/h
2342 31-10-2019 03:05:00 0.3 C 4.75 g/m*3 0.3 C 0 km/h
2343 31-10-2019 03:10:00 0.3 C 4.75 g/m*3 0.3 C 0 km/h
2344 31-10-2019 03:15:00 0.4 C 4.78 g/m*3 0.4 C 0 km/h
2345 31-10-2019 03:20:00 0.3 C 4.75 g/m*3 0.3 C 0 km/h
2346 31-10-2019 03:25:00 0.3 C 4.75 g/m*3 0.3 C 0 km/h
2347 31-10-2019 03:30:00 0.2 C 4.72 g/m*3 0.2 C 0 km/h
2348 31-10-2019 03:35:00 0.2 C 4.72 g/m*3 0.2 C 0 km/h
2349 31-10-2019 03:40:00 0.2 C 4.72 g/m*3 0.2 C 0 km/h
2350 31-10-2019 03:45:00 0.3 C 4.75 g/m*3 0.3 C 0 km/h
Sensor: Nr:Datum:Temp:Abs-Feuchte:Windchill:Wind:
Aussen-T/F 2351 31-10-2019 03:50:00 0.3 C 4.75 g/m*3 0.3 C 0 km/h
2352 31-10-2019 03:55:00 0.3 C 4.75 g/m*3 0.3 C 0 km/h
2353 31-10-2019 04:00:00 0.3 C 4.75 g/m*3 0.3 C 0 km/h
2354 31-10-2019 04:05:00 0.2 C 4.72 g/m*3 0.2 C 0 km/h
2355 31-10-2019 04:10:00 0.1 C 4.68 g/m*3 0.1 C 0 km/h
2356 31-10-2019 04:15:00 0 C 4.65 g/m*3 0 C 0 km/h
2357 31-10-2019 04:20:00 0 C 4.65 g/m*3 0 C 0 km/h
2358 31-10-2019 04:25:00 0 C 4.65 g/m*3 0 C 0 km/h
2359 31-10-2019 04:30:00 0.1 C 4.68 g/m*3 0.1 C 0 km/h
2360 31-10-2019 04:35:00 0.1 C 4.68 g/m*3 0.1 C 0 km/h
2361 31-10-2019 04:40:00 0.1 C 4.68 g/m*3 0.1 C 0 km/h
2362 31-10-2019 04:45:00 0 C 4.65 g/m*3 0 C 0 km/h
2363 31-10-2019 04:50:00 0 C 4.65 g/m*3 0 C 0 km/h
2364 31-10-2019 04:55:00 -0.1 C 4.62 g/m*3 -0.1 C 0 km/h
2365 31-10-2019 05:00:00 -0.1 C 4.62 g/m*3 -0.1 C 0 km/h
2366 31-10-2019 05:05:00 -0.2 C 4.59 g/m*3 -0.2 C 0 km/h
2367 31-10-2019 05:10:00 -0.2 C 4.59 g/m*3 -0.2 C 0 km/h
2368 31-10-2019 05:15:00 -0.3 C 4.56 g/m*3 -0.3 C 0 km/h
2369 31-10-2019 05:20:00 -0.3 C 4.56 g/m*3 -0.3 C 0 km/h
2370 31-10-2019 05:25:00 -0.3 C 4.56 g/m*3 -0.3 C 0 km/h
2371 31-10-2019 05:30:00 -0.3 C 4.56 g/m*3 -0.3 C 0 km/h
2372 31-10-2019 05:35:00 -0.4 C 4.52 g/m*3 -0.4 C 0 km/h
2373 31-10-2019 05:40:00 -0.4 C 4.52 g/m*3 -0.4 C 0 km/h
2374 31-10-2019 05:45:00 -0.4 C 4.52 g/m*3 -0.4 C 0 km/h
2375 31-10-2019 05:50:00 -0.5 C 4.49 g/m*3 -0.5 C 0 km/h
Sensor: Nr:Datum:Temp:Abs-Feuchte:Windchill:Wind:
Aussen-T/F 2376 31-10-2019 05:55:00 -0.5 C 4.49 g/m*3 -0.5 C 0 km/h
2377 31-10-2019 06:00:00 -0.5 C 4.49 g/m*3 -0.5 C 0 km/h
2378 31-10-2019 06:05:00 -0.5 C 4.49 g/m*3 -0.5 C 0 km/h
2379 31-10-2019 06:10:00 -0.5 C 4.49 g/m*3 -0.5 C 0 km/h
2380 31-10-2019 06:15:00 -0.5 C 4.49 g/m*3 -0.5 C 0 km/h
2381 31-10-2019 06:20:00 -0.4 C 4.52 g/m*3 -0.4 C 0 km/h
2382 31-10-2019 06:25:00 -0.5 C 4.49 g/m*3 -0.5 C 0 km/h
2383 31-10-2019 06:30:00 -0.5 C 4.49 g/m*3 -0.5 C 0 km/h
2384 31-10-2019 06:35:00 -0.5 C 4.49 g/m*3 -0.5 C 0 km/h
2385 31-10-2019 06:40:00 -0.5 C 4.49 g/m*3 -0.5 C 0 km/h
2386 31-10-2019 06:45:00 -0.5 C 4.49 g/m*3 -0.5 C 0 km/h
2387 31-10-2019 06:50:00 -0.6 C 4.46 g/m*3 -0.6 C 0 km/h
2388 31-10-2019 06:55:00 -0.6 C 4.46 g/m*3 -0.6 C 0 km/h
2389 31-10-2019 07:00:00 -0.6 C 4.46 g/m*3 -0.6 C 0 km/h
2390 31-10-2019 07:05:00 -0.7 C 4.43 g/m*3 -0.7 C 0 km/h
2391 31-10-2019 07:10:00 -0.7 C 4.43 g/m*3 -0.7 C 0 km/h
2392 31-10-2019 07:15:00 -0.7 C 4.43 g/m*3 -0.7 C 0 km/h
2393 31-10-2019 07:20:00 -0.8 C 4.4 g/m*3 -0.8 C 0 km/h
2394 31-10-2019 07:25:00 -0.8 C 4.4 g/m*3 -0.8 C 0 km/h
2395 31-10-2019 07:30:00 -0.8 C 4.45 g/m*3 -0.8 C 0 km/h
2396 31-10-2019 07:35:00 -0.7 C 4.48 g/m*3 -0.7 C 0 km/h
2397 31-10-2019 07:40:00 -0.8 C 4.45 g/m*3 -0.8 C 0 km/h
2398 31-10-2019 07:45:00 -0.8 C 4.4 g/m*3 -0.8 C 0 km/h
2399 31-10-2019 07:50:00 -0.8 C 4.4 g/m*3 -0.8 C 0 km/h
2400 31-10-2019 07:55:00 -0.8 C 4.4 g/m*3 -0.8 C 0 km/h
Sensor: Nr:Datum:Temp:Abs-Feuchte:Windchill:Wind:
Aussen-T/F 2401 31-10-2019 08:00:00 -0.8 C 4.4 g/m*3 -0.8 C 0 km/h
2402 31-10-2019 08:05:00 -0.8 C 4.4 g/m*3 -0.8 C 0 km/h
2403 31-10-2019 08:10:00 -0.7 C 4.43 g/m*3 -0.7 C 0 km/h
2404 31-10-2019 08:15:00 -0.7 C 4.43 g/m*3 -0.7 C 0 km/h
2405 31-10-2019 08:20:00 -0.6 C 4.46 g/m*3 -0.6 C 0 km/h
2406 31-10-2019 08:25:00 -0.6 C 4.51 g/m*3 -0.6 C 0 km/h
2407 31-10-2019 08:30:00 -0.6 C 4.51 g/m*3 -0.6 C 0 km/h
2408 31-10-2019 08:35:00 -0.6 C 4.51 g/m*3 -0.6 C 0 km/h
2409 31-10-2019 08:40:00 -0.6 C 4.51 g/m*3 -0.6 C 0 km/h
2410 31-10-2019 08:45:00 -0.5 C 4.54 g/m*3 -0.5 C 0 km/h
2411 31-10-2019 08:50:00 -0.5 C 4.54 g/m*3 -0.5 C 0 km/h
2412 31-10-2019 08:55:00 -0.4 C 4.57 g/m*3 -0.4 C 0 km/h
2413 31-10-2019 09:00:00 -0.4 C 4.57 g/m*3 -0.4 C 0 km/h
2414 31-10-2019 09:05:00 -0.3 C 4.6 g/m*3 -0.3 C 0 km/h
2415 31-10-2019 09:10:00 -0.2 C 4.64 g/m*3 -0.2 C 0 km/h
2416 31-10-2019 09:15:00 -0.1 C 4.67 g/m*3 -0.1 C 0 km/h
2417 31-10-2019 09:20:00 0 C 4.7 g/m*3 0 C 0 km/h
2418 31-10-2019 09:25:00 0.1 C 4.73 g/m*3 0.1 C 0 km/h
2419 31-10-2019 09:30:00 0.1 C 4.73 g/m*3 0.1 C 0 km/h
2420 31-10-2019 09:35:00 0.2 C 4.77 g/m*3 0.2 C 0 km/h
2421 31-10-2019 09:40:00 0.2 C 4.77 g/m*3 0.2 C 0 km/h
2422 31-10-2019 09:45:00 0.3 C 4.8 g/m*3 0.3 C 0 km/h
2423 31-10-2019 09:50:00 0.3 C 4.8 g/m*3 0.3 C 0 km/h
2424 31-10-2019 09:55:00 0.4 C 4.83 g/m*3 0.4 C 0 km/h
2425 31-10-2019 10:00:00 0.4 C 4.83 g/m*3 0.4 C 0 km/h
Sensor: Nr:Datum:Temp:Abs-Feuchte:Windchill:Wind:
Aussen-T/F 2426 31-10-2019 10:05:00 0.6 C 4.9 g/m*3 0.6 C 0 km/h
2427 31-10-2019 10:10:00 0.7 C 4.93 g/m*3 0.7 C 0 km/h
2428 31-10-2019 10:15:00 0.8 C 4.97 g/m*3 0.8 C 0 km/h
2429 31-10-2019 10:20:00 0.8 C 4.97 g/m*3 0.8 C 0 km/h
2430 31-10-2019 10:25:00 1 C 5.03 g/m*3 1 C 1.6 km/h
2431 31-10-2019 10:30:00 1.1 C 5.07 g/m*3 1.1 C 1.6 km/h
2432 31-10-2019 10:35:00 1.3 C 5.14 g/m*3 1.3 C 1.6 km/h
2433 31-10-2019 10:40:00 1.4 C 5.17 g/m*3 1.4 C 1.6 km/h
2434 31-10-2019 10:45:00 1.6 C 5.25 g/m*3 1.6 C 1.6 km/h
2435 31-10-2019 10:50:00 1.8 C 5.37 g/m*3 1.8 C 1.6 km/h
2436 31-10-2019 10:55:00 2.1 C 5.43 g/m*3 2.1 C 1.6 km/h
2437 31-10-2019 11:00:00 2.2 C 5.52 g/m*3 2.2 C 1.6 km/h
2438 31-10-2019 11:05:00 2.3 C 5.5 g/m*3 2.3 C 0 km/h
2439 31-10-2019 11:10:00 2.4 C 5.6 g/m*3 2.4 C 0 km/h
2440 31-10-2019 11:15:00 2.6 C 5.67 g/m*3 2.6 C 0 km/h
2441 31-10-2019 11:20:00 2.7 C 5.65 g/m*3 2.7 C 1.6 km/h
2442 31-10-2019 11:25:00 2.8 C 5.75 g/m*3 2.8 C 0 km/h
2443 31-10-2019 11:30:00 2.9 C 5.79 g/m*3 2.9 C 0 km/h
2444 31-10-2019 11:35:00 3.1 C 5.87 g/m*3 3.1 C 1.6 km/h
2445 31-10-2019 11:40:00 3.2 C 5.91 g/m*3 3.2 C 0 km/h
2446 31-10-2019 11:45:00 3.3 C 5.95 g/m*3 3.3 C 0 km/h
2447 31-10-2019 11:50:00 3.4 C 5.99 g/m*3 3.4 C 0 km/h
2448 31-10-2019 11:55:00 3.4 C 5.99 g/m*3 3.4 C 1.6 km/h
2449 31-10-2019 12:00:00 3.6 C 6.07 g/m*3 3.6 C 3.2 km/h
2450 31-10-2019 12:05:00 3.7 C 6.11 g/m*3 3.7 C 1.6 km/h
Sensor: Nr:Datum:Temp:Abs-Feuchte:Windchill:Wind:
Aussen-T/F 2451 31-10-2019 12:10:00 3.8 C 6.15 g/m*3 3.8 C 0 km/h
2452 31-10-2019 12:15:00 3.9 C 6.19 g/m*3 3.9 C 0 km/h
2453 31-10-2019 12:20:00 4.1 C 6.27 g/m*3 4.1 C 0 km/h
2454 31-10-2019 12:25:00 4.2 C 6.31 g/m*3 4.2 C 0 km/h
2455 31-10-2019 12:30:00 4.2 C 6.31 g/m*3 4.2 C 3.2 km/h
2456 31-10-2019 12:35:00 4.3 C 6.29 g/m*3 4.3 C 1.6 km/h
2457 31-10-2019 12:40:00 4.4 C 6.4 g/m*3 4.4 C 1.6 km/h
2458 31-10-2019 12:45:00 4.5 C 6.44 g/m*3 4.5 C 0 km/h
2459 31-10-2019 12:50:00 4.6 C 6.42 g/m*3 4.6 C 1.6 km/h
2460 31-10-2019 12:55:00 4.7 C 6.46 g/m*3 4.7 C 1.6 km/h
2461 31-10-2019 13:00:00 4.8 C 6.5 g/m*3 4.8 C 1.6 km/h
2462 31-10-2019 13:05:00 4.9 C 6.55 g/m*3 4.9 C 1.6 km/h
2463 31-10-2019 13:10:00 5.1 C 6.63 g/m*3 5.1 C 1.6 km/h
2464 31-10-2019 13:15:00 5.2 C 6.68 g/m*3 5.2 C 4.8 km/h
2465 31-10-2019 13:20:00 5.4 C 6.77 g/m*3 3.58 C 8.1 km/h
2466 31-10-2019 13:25:00 5.6 C 6.79 g/m*3 3.44 C 9.7 km/h
2467 31-10-2019 13:30:00 5.7 C 6.69 g/m*3 3.56 C 9.7 km/h
2468 31-10-2019 13:35:00 5.9 C 6.78 g/m*3 5.9 C 0 km/h
2469 31-10-2019 13:40:00 5.9 C 6.63 g/m*3 4.63 C 6.4 km/h
2470 31-10-2019 13:45:00 6.1 C 6.65 g/m*3 4.86 C 6.4 km/h
2471 31-10-2019 13:50:00 6.3 C 6.74 g/m*3 6.3 C 4.8 km/h
2472 31-10-2019 13:55:00 6.4 C 6.78 g/m*3 6.4 C 0 km/h
2473 31-10-2019 14:00:00 6.5 C 6.82 g/m*3 6.5 C 1.6 km/h
2474 31-10-2019 14:05:00 6.5 C 6.67 g/m*3 5.33 C 6.4 km/h
2475 31-10-2019 14:10:00 6.7 C 6.53 g/m*3 4.75 C 9.7 km/h
Sensor: Nr:Datum:Temp:Abs-Feuchte:Windchill:Wind:
Aussen-T/F 2476 31-10-2019 14:15:00 7.1 C 6.71 g/m*3 7.1 C 4.8 km/h
2477 31-10-2019 14:20:00 7.1 C 6.63 g/m*3 7.1 C 1.6 km/h
2478 31-10-2019 14:25:00 7.3 C 6.4 g/m*3 7.3 C 4.8 km/h
2479 31-10-2019 14:30:00 7.7 C 6.57 g/m*3 7.7 C 4.8 km/h
2480 31-10-2019 14:35:00 7.8 C 6.77 g/m*3 7.8 C 1.6 km/h
2481 31-10-2019 14:40:00 7.8 C 6.86 g/m*3 7.8 C 0 km/h
2482 31-10-2019 14:45:00 7.7 C 6.81 g/m*3 7.7 C 0 km/h
2483 31-10-2019 14:50:00 7.6 C 6.53 g/m*3 6.6 C 6.4 km/h
2484 31-10-2019 14:55:00 7.7 C 6.49 g/m*3 7.7 C 4.8 km/h
2485 31-10-2019 15:00:00 7.9 C 6.49 g/m*3 6.52 C 8.1 km/h
2486 31-10-2019 15:05:00 8 C 6.78 g/m*3 8 C 0 km/h
2487 31-10-2019 15:10:00 7.8 C 6.69 g/m*3 7.8 C 3.2 km/h
2488 31-10-2019 15:15:00 7.7 C 6.73 g/m*3 7.7 C 1.6 km/h
2489 31-10-2019 15:20:00 7.5 C 6.64 g/m*3 7.5 C 1.6 km/h
2490 31-10-2019 15:25:00 7.4 C 6.6 g/m*3 6.37 C 6.4 km/h
2491 31-10-2019 15:30:00 7.4 C 6.6 g/m*3 7.4 C 4.8 km/h
2492 31-10-2019 15:35:00 7.3 C 6.64 g/m*3 7.3 C 1.6 km/h
2493 31-10-2019 15:40:00 7.3 C 6.72 g/m*3 7.3 C 0 km/h
2494 31-10-2019 15:45:00 7.1 C 6.63 g/m*3 7.1 C 0 km/h
2495 31-10-2019 15:50:00 7 C 6.66 g/m*3 7 C 1.6 km/h
2496 31-10-2019 15:55:00 6.9 C 6.62 g/m*3 6.9 C 1.6 km/h
2497 31-10-2019 16:00:00 6.8 C 6.58 g/m*3 6.8 C 0 km/h
2498 31-10-2019 16:05:00 6.6 C 6.49 g/m*3 6.6 C 1.6 km/h
2499 31-10-2019 16:10:00 6.4 C 6.48 g/m*3 6.4 C 1.6 km/h
2500 31-10-2019 16:15:00 6.4 C 6.48 g/m*3 6.4 C 1.6 km/h
Sensor: Nr:Datum:Temp:Abs-Feuchte:Windchill:Wind:
Aussen-T/F 2501 31-10-2019 16:20:00 6.3 C 6.51 g/m*3 6.3 C 1.6 km/h
2502 31-10-2019 16:25:00 6.2 C 6.47 g/m*3 6.2 C 1.6 km/h
2503 31-10-2019 16:30:00 6.1 C 6.43 g/m*3 6.1 C 3.2 km/h
2504 31-10-2019 16:35:00 6 C 6.39 g/m*3 6 C 1.6 km/h
2505 31-10-2019 16:40:00 5.8 C 6.3 g/m*3 5.8 C 3.2 km/h
2506 31-10-2019 16:45:00 5.8 C 6.3 g/m*3 5.8 C 1.6 km/h
2507 31-10-2019 16:50:00 5.6 C 6.22 g/m*3 5.6 C 1.6 km/h
2508 31-10-2019 16:55:00 5.5 C 6.11 g/m*3 5.5 C 1.6 km/h
2509 31-10-2019 17:00:00 5.3 C 6.03 g/m*3 5.3 C 1.6 km/h
2510 31-10-2019 17:05:00 5.2 C 5.99 g/m*3 5.2 C 1.6 km/h
2511 31-10-2019 17:10:00 5.1 C 6.02 g/m*3 5.1 C 1.6 km/h
2512 31-10-2019 17:15:00 4.9 C 5.94 g/m*3 4.9 C 0 km/h
2513 31-10-2019 17:20:00 4.8 C 5.9 g/m*3 4.8 C 0 km/h
2514 31-10-2019 17:25:00 4.7 C 5.93 g/m*3 4.7 C 1.6 km/h
2515 31-10-2019 17:30:00 4.6 C 5.89 g/m*3 4.6 C 0 km/h
2516 31-10-2019 17:35:00 4.4 C 5.81 g/m*3 4.4 C 0 km/h
2517 31-10-2019 17:40:00 4.3 C 5.77 g/m*3 4.3 C 0 km/h
2518 31-10-2019 17:45:00 4.2 C 5.73 g/m*3 4.2 C 1.6 km/h
2519 31-10-2019 17:50:00 4.1 C 5.7 g/m*3 4.1 C 1.6 km/h
2520 31-10-2019 17:55:00 4 C 5.66 g/m*3 4 C 0 km/h
2521 31-10-2019 18:00:00 3.9 C 5.62 g/m*3 3.9 C 0 km/h
2522 31-10-2019 18:05:00 3.9 C 5.62 g/m*3 3.9 C 0 km/h
2523 31-10-2019 18:10:00 3.8 C 5.58 g/m*3 3.8 C 0 km/h
2524 31-10-2019 18:15:00 3.8 C 5.58 g/m*3 3.8 C 0 km/h
2525 31-10-2019 18:20:00 3.8 C 5.58 g/m*3 3.8 C 0 km/h
Sensor: Nr:Datum:Temp:Abs-Feuchte:Windchill:Wind:
Aussen-T/F 2526 31-10-2019 18:25:00 3.7 C 5.55 g/m*3 3.7 C 0 km/h
2527 31-10-2019 18:30:00 3.7 C 5.55 g/m*3 3.7 C 0 km/h
2528 31-10-2019 18:35:00 3.7 C 5.55 g/m*3 3.7 C 0 km/h
2529 31-10-2019 18:40:00 3.6 C 5.51 g/m*3 3.6 C 0 km/h
2530 31-10-2019 18:45:00 3.6 C 5.51 g/m*3 3.6 C 0 km/h
2531 31-10-2019 18:50:00 3.5 C 5.47 g/m*3 3.5 C 0 km/h
2532 31-10-2019 18:55:00 3.5 C 5.53 g/m*3 3.5 C 0 km/h
2533 31-10-2019 19:00:00 3.4 C 5.5 g/m*3 3.4 C 0 km/h
2534 31-10-2019 19:05:00 3.4 C 5.5 g/m*3 3.4 C 0 km/h
2535 31-10-2019 19:10:00 3.4 C 5.5 g/m*3 3.4 C 0 km/h
2536 31-10-2019 19:15:00 3.4 C 5.5 g/m*3 3.4 C 0 km/h
2537 31-10-2019 19:20:00 3.3 C 5.46 g/m*3 3.3 C 0 km/h
2538 31-10-2019 19:25:00 3.2 C 5.42 g/m*3 3.2 C 0 km/h
2539 31-10-2019 19:30:00 3.2 C 5.42 g/m*3 3.2 C 0 km/h
2540 31-10-2019 19:35:00 3.1 C 5.45 g/m*3 3.1 C 0 km/h
2541 31-10-2019 19:40:00 3 C 5.41 g/m*3 3 C 0 km/h
2542 31-10-2019 19:45:00 2.9 C 5.37 g/m*3 2.9 C 0 km/h
2543 31-10-2019 19:50:00 2.9 C 5.37 g/m*3 2.9 C 0 km/h
2544 31-10-2019 19:55:00 2.9 C 5.37 g/m*3 2.9 C 0 km/h
2545 31-10-2019 20:00:00 2.8 C 5.34 g/m*3 2.8 C 0 km/h
2546 31-10-2019 20:05:00 2.7 C 5.3 g/m*3 2.7 C 0 km/h
2547 31-10-2019 20:10:00 2.6 C 5.27 g/m*3 2.6 C 0 km/h
2548 31-10-2019 20:15:00 2.5 C 5.23 g/m*3 2.5 C 0 km/h
2549 31-10-2019 20:20:00 2.4 C 5.25 g/m*3 2.4 C 0 km/h
2550 31-10-2019 20:25:00 2.3 C 5.22 g/m*3 2.3 C 0 km/h
Sensor: Nr:Datum:Temp:Abs-Feuchte:Windchill:Wind:
Aussen-T/F 2551 31-10-2019 20:30:00 2.3 C 5.22 g/m*3 2.3 C 0 km/h
2552 31-10-2019 20:35:00 2.2 C 5.18 g/m*3 2.2 C 0 km/h
2553 31-10-2019 20:40:00 2.1 C 5.2 g/m*3 2.1 C 0 km/h
2554 31-10-2019 20:45:00 2.1 C 5.2 g/m*3 2.1 C 0 km/h
2555 31-10-2019 20:50:00 2 C 5.17 g/m*3 2 C 0 km/h
2556 31-10-2019 20:55:00 1.9 C 5.13 g/m*3 1.9 C 0 km/h
2557 31-10-2019 21:00:00 1.9 C 5.13 g/m*3 1.9 C 0 km/h
2558 31-10-2019 21:05:00 1.8 C 5.1 g/m*3 1.8 C 0 km/h
2559 31-10-2019 21:10:00 1.8 C 5.15 g/m*3 1.8 C 0 km/h
2560 31-10-2019 21:15:00 1.8 C 5.1 g/m*3 1.8 C 0 km/h
2561 31-10-2019 21:20:00 1.8 C 5.15 g/m*3 1.8 C 0 km/h
2562 31-10-2019 21:25:00 1.7 C 5.12 g/m*3 1.7 C 0 km/h
2563 31-10-2019 21:30:00 1.7 C 5.12 g/m*3 1.7 C 0 km/h
2564 31-10-2019 21:35:00 1.7 C 5.12 g/m*3 1.7 C 0 km/h
2565 31-10-2019 21:40:00 1.6 C 5.08 g/m*3 1.6 C 0 km/h
2566 31-10-2019 21:45:00 1.6 C 5.08 g/m*3 1.6 C 0 km/h
2567 31-10-2019 21:50:00 1.6 C 5.08 g/m*3 1.6 C 0 km/h
2568 31-10-2019 21:55:00 1.6 C 5.08 g/m*3 1.6 C 0 km/h
2569 31-10-2019 22:00:00 1.6 C 5.08 g/m*3 1.6 C 0 km/h
2570 31-10-2019 22:05:00 1.7 C 5.17 g/m*3 1.7 C 0 km/h
2571 31-10-2019 22:10:00 1.7 C 5.17 g/m*3 1.7 C 0 km/h
2572 31-10-2019 22:15:00 1.7 C 5.12 g/m*3 1.7 C 0 km/h
2573 31-10-2019 22:20:00 1.6 C 5.08 g/m*3 1.6 C 0 km/h
2574 31-10-2019 22:25:00 1.5 C 5.05 g/m*3 1.5 C 0 km/h
2575 31-10-2019 22:30:00 1.4 C 5.01 g/m*3 1.4 C 0 km/h
Sensor: Nr:Datum:Temp:Abs-Feuchte:Windchill:Wind:
Aussen-T/F 2576 31-10-2019 22:35:00 1.4 C 5.01 g/m*3 1.4 C 0 km/h
2577 31-10-2019 22:40:00 1.3 C 4.98 g/m*3 1.3 C 0 km/h
2578 31-10-2019 22:45:00 1.3 C 4.98 g/m*3 1.3 C 0 km/h
2579 31-10-2019 22:50:00 1.3 C 4.98 g/m*3 1.3 C 0 km/h
2580 31-10-2019 22:55:00 1.3 C 5.03 g/m*3 1.3 C 0 km/h
2581 31-10-2019 23:00:00 1.3 C 5.03 g/m*3 1.3 C 0 km/h
2582 31-10-2019 23:05:00 1.3 C 5.03 g/m*3 1.3 C 0 km/h
2583 31-10-2019 23:10:00 1.4 C 5.07 g/m*3 1.4 C 0 km/h
2584 31-10-2019 23:15:00 1.4 C 5.07 g/m*3 1.4 C 0 km/h
2585 31-10-2019 23:20:00 1.4 C 5.07 g/m*3 1.4 C 0 km/h
2586 31-10-2019 23:25:00 1.4 C 5.07 g/m*3 1.4 C 0 km/h
2587 31-10-2019 23:30:00 1.3 C 5.03 g/m*3 1.3 C 0 km/h
2588 31-10-2019 23:35:00 1.3 C 5.03 g/m*3 1.3 C 0 km/h
2589 31-10-2019 23:40:00 1.3 C 5.03 g/m*3 1.3 C 0 km/h
2590 31-10-2019 23:45:00 1.2 C 5 g/m*3 1.2 C 0 km/h
2591 31-10-2019 23:50:00 1.2 C 5 g/m*3 1.2 C 0 km/h
2592 31-10-2019 23:55:00 1.2 C 5 g/m*3 1.2 C 0 km/h
2593 01-11-2019 00:00:00 1.1 C 4.96 g/m*3 1.1 C 0 km/h
2594 01-11-2019 00:05:00 1.1 C 4.96 g/m*3 1.1 C 0 km/h
2595 01-11-2019 00:10:00 1.1 C 4.96 g/m*3 1.1 C 0 km/h
2596 01-11-2019 00:15:00 1 C 4.93 g/m*3 1 C 0 km/h
2597 01-11-2019 00:20:00 0.9 C 4.9 g/m*3 0.9 C 0 km/h
2598 01-11-2019 00:25:00 0.8 C 4.86 g/m*3 0.8 C 0 km/h
2599 01-11-2019 00:30:00 0.8 C 4.86 g/m*3 0.8 C 0 km/h
2600 01-11-2019 00:35:00 0.8 C 4.86 g/m*3 0.8 C 0 km/h
Sensor: Nr:Datum:Temp:Abs-Feuchte:Windchill:Wind:
Aussen-T/F 2601 01-11-2019 00:40:00 0.8 C 4.86 g/m*3 0.8 C 0 km/h
2602 01-11-2019 00:45:00 0.8 C 4.86 g/m*3 0.8 C 0 km/h
2603 01-11-2019 00:50:00 0.7 C 4.83 g/m*3 0.7 C 0 km/h
2604 01-11-2019 00:55:00 0.7 C 4.83 g/m*3 0.7 C 0 km/h
2605 01-11-2019 01:00:00 0.7 C 4.83 g/m*3 0.7 C 0 km/h
2606 01-11-2019 01:05:00 0.6 C 4.8 g/m*3 0.6 C 0 km/h
2607 01-11-2019 01:10:00 0.6 C 4.8 g/m*3 0.6 C 0 km/h
2608 01-11-2019 01:15:00 0.6 C 4.8 g/m*3 0.6 C 0 km/h
2609 01-11-2019 01:20:00 0.6 C 4.8 g/m*3 0.6 C 0 km/h
2610 01-11-2019 01:25:00 0.6 C 4.8 g/m*3 0.6 C 0 km/h
2611 01-11-2019 01:30:00 0.6 C 4.8 g/m*3 0.6 C 0 km/h
2612 01-11-2019 01:35:00 0.5 C 4.76 g/m*3 0.5 C 0 km/h
2613 01-11-2019 01:40:00 0.6 C 4.85 g/m*3 0.6 C 0 km/h
2614 01-11-2019 01:45:00 0.6 C 4.85 g/m*3 0.6 C 0 km/h
2615 01-11-2019 01:50:00 0.6 C 4.85 g/m*3 0.6 C 0 km/h
2616 01-11-2019 01:55:00 0.6 C 4.85 g/m*3 0.6 C 0 km/h
2617 01-11-2019 02:00:00 0.6 C 4.85 g/m*3 0.6 C 0 km/h
2618 01-11-2019 02:05:00 0.6 C 4.8 g/m*3 0.6 C 0 km/h
2619 01-11-2019 02:10:00 0.6 C 4.85 g/m*3 0.6 C 0 km/h
2620 01-11-2019 02:15:00 0.6 C 4.85 g/m*3 0.6 C 0 km/h
2621 01-11-2019 02:20:00 0.6 C 4.85 g/m*3 0.6 C 0 km/h
2622 01-11-2019 02:25:00 0.6 C 4.85 g/m*3 0.6 C 0 km/h
2623 01-11-2019 02:30:00 0.6 C 4.85 g/m*3 0.6 C 0 km/h
2624 01-11-2019 02:35:00 0.5 C 4.81 g/m*3 0.5 C 0 km/h
2625 01-11-2019 02:40:00 0.5 C 4.81 g/m*3 0.5 C 0 km/h
Sensor: Nr:Datum:Temp:Abs-Feuchte:Windchill:Wind:
Aussen-T/F 2626 01-11-2019 02:45:00 0.5 C 4.81 g/m*3 0.5 C 0 km/h
2627 01-11-2019 02:50:00 0.5 C 4.81 g/m*3 0.5 C 0 km/h
2628 01-11-2019 02:55:00 0.5 C 4.81 g/m*3 0.5 C 0 km/h
2629 01-11-2019 03:00:00 0.5 C 4.81 g/m*3 0.5 C 0 km/h
2630 01-11-2019 03:05:00 0.4 C 4.78 g/m*3 0.4 C 0 km/h
2631 01-11-2019 03:10:00 0.4 C 4.78 g/m*3 0.4 C 0 km/h
2632 01-11-2019 03:15:00 0.5 C 4.81 g/m*3 0.5 C 0 km/h
2633 01-11-2019 03:20:00 0.5 C 4.81 g/m*3 0.5 C 0 km/h
2634 01-11-2019 03:25:00 0.5 C 4.81 g/m*3 0.5 C 0 km/h
2635 01-11-2019 03:30:00 0.5 C 4.81 g/m*3 0.5 C 0 km/h
2636 01-11-2019 03:35:00 0.4 C 4.78 g/m*3 0.4 C 0 km/h
2637 01-11-2019 03:40:00 0.4 C 4.78 g/m*3 0.4 C 0 km/h
2638 01-11-2019 03:45:00 0.4 C 4.78 g/m*3 0.4 C 0 km/h
2639 01-11-2019 03:50:00 0.4 C 4.78 g/m*3 0.4 C 0 km/h
2640 01-11-2019 03:55:00 0.4 C 4.78 g/m*3 0.4 C 0 km/h
2641 01-11-2019 04:00:00 0.6 C 4.85 g/m*3 0.6 C 0 km/h
2642 01-11-2019 04:05:00 0.6 C 4.85 g/m*3 0.6 C 0 km/h
2643 01-11-2019 04:10:00 0.7 C 4.88 g/m*3 0.7 C 0 km/h
2644 01-11-2019 04:15:00 0.8 C 4.91 g/m*3 0.8 C 0 km/h
2645 01-11-2019 04:20:00 0.9 C 5 g/m*3 0.9 C 0 km/h
2646 01-11-2019 04:25:00 1 C 5.03 g/m*3 1 C 0 km/h
2647 01-11-2019 04:30:00 1.1 C 5.02 g/m*3 1.1 C 0 km/h
2648 01-11-2019 04:35:00 1.2 C 5.05 g/m*3 1.2 C 0 km/h
2649 01-11-2019 04:40:00 1.2 C 5.1 g/m*3 1.2 C 0 km/h
2650 01-11-2019 04:45:00 1.3 C 5.14 g/m*3 1.3 C 0 km/h
Sensor: Nr:Datum:Temp:Abs-Feuchte:Windchill:Wind:
Aussen-T/F 2651 01-11-2019 04:50:00 1.4 C 5.17 g/m*3 1.4 C 0 km/h
2652 01-11-2019 04:55:00 1.6 C 5.25 g/m*3 1.6 C 0 km/h
2653 01-11-2019 05:00:00 1.7 C 5.28 g/m*3 1.7 C 0 km/h
2654 01-11-2019 05:05:00 1.8 C 5.32 g/m*3 1.8 C 0 km/h
2655 01-11-2019 05:10:00 1.9 C 5.35 g/m*3 1.9 C 0 km/h
2656 01-11-2019 05:15:00 2 C 5.39 g/m*3 2 C 0 km/h
2657 01-11-2019 05:20:00 2.1 C 5.43 g/m*3 2.1 C 0 km/h
2658 01-11-2019 05:25:00 2.2 C 5.46 g/m*3 2.2 C 0 km/h
2659 01-11-2019 05:30:00 2.2 C 5.46 g/m*3 2.2 C 0 km/h
2660 01-11-2019 05:35:00 2.3 C 5.5 g/m*3 2.3 C 0 km/h
2661 01-11-2019 05:40:00 2.3 C 5.5 g/m*3 2.3 C 0 km/h
2662 01-11-2019 05:45:00 2.4 C 5.54 g/m*3 2.4 C 0 km/h
2663 01-11-2019 05:50:00 2.5 C 5.58 g/m*3 2.5 C 0 km/h
2664 01-11-2019 05:55:00 2.6 C 5.61 g/m*3 2.6 C 0 km/h
2665 01-11-2019 06:00:00 2.6 C 5.61 g/m*3 2.6 C 0 km/h
2666 01-11-2019 06:05:00 2.7 C 5.65 g/m*3 2.7 C 0 km/h
2667 01-11-2019 06:10:00 2.7 C 5.65 g/m*3 2.7 C 0 km/h
2668 01-11-2019 06:15:00 2.8 C 5.69 g/m*3 2.8 C 0 km/h
2669 01-11-2019 06:20:00 2.8 C 5.69 g/m*3 2.8 C 0 km/h
2670 01-11-2019 06:25:00 2.8 C 5.69 g/m*3 2.8 C 0 km/h
2671 01-11-2019 06:30:00 2.8 C 5.69 g/m*3 2.8 C 0 km/h
2672 01-11-2019 06:35:00 2.9 C 5.73 g/m*3 2.9 C 0 km/h
2673 01-11-2019 06:40:00 2.9 C 5.73 g/m*3 2.9 C 0 km/h
2674 01-11-2019 06:45:00 3 C 5.77 g/m*3 3 C 0 km/h
2675 01-11-2019 06:50:00 3.1 C 5.81 g/m*3 3.1 C 0 km/h
Sensor: Nr:Datum:Temp:Abs-Feuchte:Windchill:Wind:
Aussen-T/F 2676 01-11-2019 06:55:00 3.2 C 5.85 g/m*3 3.2 C 0 km/h
2677 01-11-2019 07:00:00 3.2 C 5.85 g/m*3 3.2 C 0 km/h
2678 01-11-2019 07:05:00 3.3 C 5.88 g/m*3 3.3 C 0 km/h
2679 01-11-2019 07:10:00 3.3 C 5.88 g/m*3 3.3 C 0 km/h
2680 01-11-2019 07:15:00 3.4 C 5.92 g/m*3 3.4 C 0 km/h
2681 01-11-2019 07:20:00 3.4 C 5.92 g/m*3 3.4 C 0 km/h
2682 01-11-2019 07:25:00 3.5 C 5.96 g/m*3 3.5 C 0 km/h
2683 01-11-2019 07:30:00 3.6 C 6 g/m*3 3.6 C 0 km/h
2684 01-11-2019 07:35:00 3.7 C 6.04 g/m*3 3.7 C 0 km/h
2685 01-11-2019 07:40:00 3.7 C 6.04 g/m*3 3.7 C 0 km/h
2686 01-11-2019 07:45:00 3.8 C 6.09 g/m*3 3.8 C 0 km/h
2687 01-11-2019 07:50:00 3.8 C 6.09 g/m*3 3.8 C 0 km/h
2688 01-11-2019 07:55:00 3.9 C 6.13 g/m*3 3.9 C 0 km/h
2689 01-11-2019 08:00:00 3.9 C 6.13 g/m*3 3.9 C 0 km/h
2690 01-11-2019 08:05:00 4.1 C 6.21 g/m*3 4.1 C 0 km/h
2691 01-11-2019 08:10:00 4.1 C 6.21 g/m*3 4.1 C 0 km/h
2692 01-11-2019 08:15:00 4.2 C 6.25 g/m*3 4.2 C 0 km/h
2693 01-11-2019 08:20:00 4.2 C 6.25 g/m*3 4.2 C 0 km/h
2694 01-11-2019 08:25:00 4.3 C 6.29 g/m*3 4.3 C 0 km/h
2695 01-11-2019 08:30:00 4.3 C 6.29 g/m*3 4.3 C 0 km/h
2696 01-11-2019 08:35:00 4.4 C 6.33 g/m*3 4.4 C 0 km/h
2697 01-11-2019 08:40:00 4.6 C 6.42 g/m*3 4.6 C 0 km/h
2698 01-11-2019 08:45:00 4.7 C 6.46 g/m*3 4.7 C 0 km/h
2699 01-11-2019 08:50:00 4.7 C 6.46 g/m*3 4.7 C 0 km/h
2700 01-11-2019 08:55:00 4.8 C 6.5 g/m*3 4.8 C 0 km/h
Sensor: Nr:Datum:Temp:Abs-Feuchte:Windchill:Wind:
Aussen-T/F 2701 01-11-2019 09:00:00 4.9 C 6.55 g/m*3 4.9 C 0 km/h
2702 01-11-2019 09:05:00 5.1 C 6.63 g/m*3 5.1 C 0 km/h
2703 01-11-2019 09:10:00 5.1 C 6.63 g/m*3 5.1 C 0 km/h
2704 01-11-2019 09:15:00 5.2 C 6.68 g/m*3 5.2 C 0 km/h
2705 01-11-2019 09:20:00 5.3 C 6.72 g/m*3 5.3 C 0 km/h
2706 01-11-2019 09:25:00 5.3 C 6.72 g/m*3 5.3 C 0 km/h
2707 01-11-2019 09:30:00 5.5 C 6.81 g/m*3 5.5 C 0 km/h
2708 01-11-2019 09:35:00 5.6 C 6.86 g/m*3 5.6 C 0 km/h
2709 01-11-2019 09:40:00 5.6 C 6.86 g/m*3 5.6 C 0 km/h
2710 01-11-2019 09:45:00 5.7 C 6.9 g/m*3 5.7 C 0 km/h
2711 01-11-2019 09:50:00 5.8 C 6.95 g/m*3 5.8 C 0 km/h
2712 01-11-2019 09:55:00 5.8 C 6.95 g/m*3 5.8 C 0 km/h
2713 01-11-2019 10:00:00 5.9 C 6.99 g/m*3 5.9 C 0 km/h
2714 01-11-2019 10:05:00 6 C 7.04 g/m*3 6 C 0 km/h
2715 01-11-2019 10:10:00 6.1 C 7.09 g/m*3 6.1 C 0 km/h
2716 01-11-2019 10:15:00 6.2 C 7.13 g/m*3 6.2 C 0 km/h
2717 01-11-2019 10:20:00 6.3 C 7.18 g/m*3 6.3 C 3.2 km/h
2718 01-11-2019 10:25:00 6.4 C 7.23 g/m*3 6.4 C 0 km/h
2719 01-11-2019 10:30:00 6.4 C 7.23 g/m*3 6.4 C 0 km/h
2720 01-11-2019 10:35:00 6.5 C 7.27 g/m*3 6.5 C 4.8 km/h
2721 01-11-2019 10:40:00 6.6 C 7.32 g/m*3 6.6 C 0 km/h
2722 01-11-2019 10:45:00 6.7 C 7.37 g/m*3 6.7 C 1.6 km/h
2723 01-11-2019 10:50:00 6.7 C 7.37 g/m*3 6.7 C 0 km/h
2724 01-11-2019 10:55:00 6.8 C 7.42 g/m*3 6.8 C 0 km/h
2725 01-11-2019 11:00:00 6.9 C 7.47 g/m*3 6.9 C 1.6 km/h
Sensor: Nr:Datum:Temp:Abs-Feuchte:Windchill:Wind:
Aussen-T/F 2726 01-11-2019 11:05:00 7.1 C 7.57 g/m*3 7.1 C 0 km/h
2727 01-11-2019 11:10:00 7.1 C 7.57 g/m*3 7.1 C 3.2 km/h
2728 01-11-2019 11:15:00 7.2 C 7.54 g/m*3 7.2 C 3.2 km/h
2729 01-11-2019 11:20:00 7.2 C 7.54 g/m*3 7.2 C 3.2 km/h
2730 01-11-2019 11:25:00 7.3 C 7.58 g/m*3 7.3 C 4.8 km/h
2731 01-11-2019 11:30:00 7.3 C 7.51 g/m*3 6.25 C 6.4 km/h
2732 01-11-2019 11:35:00 7.3 C 7.51 g/m*3 7.3 C 0 km/h
2733 01-11-2019 11:40:00 7.4 C 7.55 g/m*3 7.4 C 0 km/h
2734 01-11-2019 11:45:00 7.5 C 7.6 g/m*3 7.5 C 0 km/h
2735 01-11-2019 11:50:00 7.6 C 7.57 g/m*3 7.6 C 0 km/h
2736 01-11-2019 11:55:00 7.6 C 7.57 g/m*3 7.6 C 0 km/h
2737 01-11-2019 12:00:00 7.7 C 7.62 g/m*3 7.7 C 0 km/h
2738 01-11-2019 12:05:00 7.8 C 7.67 g/m*3 7.8 C 0 km/h
2739 01-11-2019 12:10:00 7.9 C 7.72 g/m*3 7.9 C 0 km/h
2740 01-11-2019 12:15:00 8 C 7.77 g/m*3 8 C 0 km/h
2741 01-11-2019 12:20:00 8.1 C 7.82 g/m*3 8.1 C 3.2 km/h
2742 01-11-2019 12:25:00 8.1 C 7.74 g/m*3 8.1 C 4.8 km/h
2743 01-11-2019 12:30:00 8.2 C 7.79 g/m*3 8.2 C 3.2 km/h
2744 01-11-2019 12:35:00 8.3 C 7.84 g/m*3 6.99 C 8.1 km/h
2745 01-11-2019 12:40:00 8.2 C 7.7 g/m*3 6.87 C 8.1 km/h
2746 01-11-2019 12:45:00 8.2 C 7.79 g/m*3 8.2 C 4.8 km/h
2747 01-11-2019 12:50:00 8.3 C 7.84 g/m*3 7.41 C 6.4 km/h
2748 01-11-2019 12:55:00 8.3 C 7.84 g/m*3 8.3 C 1.6 km/h
2749 01-11-2019 13:00:00 8.3 C 7.84 g/m*3 8.3 C 1.6 km/h
2750 01-11-2019 13:05:00 8.4 C 7.89 g/m*3 8.4 C 3.2 km/h
Sensor: Nr:Datum:Temp:Abs-Feuchte:Windchill:Wind:
Aussen-T/F 2751 01-11-2019 13:10:00 8.3 C 7.75 g/m*3 8.3 C 3.2 km/h
2752 01-11-2019 13:15:00 8.4 C 7.89 g/m*3 8.4 C 0 km/h
2753 01-11-2019 13:20:00 8.5 C 7.94 g/m*3 8.5 C 1.6 km/h
2754 01-11-2019 13:25:00 8.6 C 7.99 g/m*3 8.6 C 0 km/h
2755 01-11-2019 13:30:00 8.6 C 7.99 g/m*3 8.6 C 1.6 km/h
2756 01-11-2019 13:35:00 8.6 C 7.99 g/m*3 8.6 C 0 km/h
2757 01-11-2019 13:40:00 8.6 C 7.99 g/m*3 8.6 C 0 km/h
2758 01-11-2019 13:45:00 8.7 C 8.04 g/m*3 8.7 C 0 km/h
2759 01-11-2019 13:50:00 8.7 C 8.04 g/m*3 8.7 C 1.6 km/h
2760 01-11-2019 13:55:00 8.7 C 8.13 g/m*3 8.7 C 0 km/h
2761 01-11-2019 14:00:00 8.7 C 8.13 g/m*3 8.7 C 1.6 km/h
2762 01-11-2019 14:05:00 8.7 C 8.13 g/m*3 8.7 C 0 km/h
2763 01-11-2019 14:10:00 8.7 C 8.13 g/m*3 8.7 C 0 km/h
2764 01-11-2019 14:15:00 8.7 C 8.13 g/m*3 8.7 C 3.2 km/h
2765 01-11-2019 14:20:00 8.7 C 8.13 g/m*3 8.7 C 1.6 km/h
2766 01-11-2019 14:25:00 8.7 C 8.22 g/m*3 8.7 C 3.2 km/h
2767 01-11-2019 14:30:00 8.7 C 8.22 g/m*3 8.7 C 0 km/h
2768 01-11-2019 14:35:00 8.7 C 8.22 g/m*3 8.7 C 1.6 km/h
2769 01-11-2019 14:40:00 8.8 C 8.27 g/m*3 8.8 C 1.6 km/h
2770 01-11-2019 14:45:00 8.8 C 8.27 g/m*3 8.8 C 0 km/h
2771 01-11-2019 14:50:00 8.8 C 8.27 g/m*3 8.8 C 0 km/h
2772 01-11-2019 14:55:00 8.8 C 8.27 g/m*3 8.8 C 3.2 km/h
2773 01-11-2019 15:00:00 8.7 C 8.22 g/m*3 8.7 C 0 km/h
2774 01-11-2019 15:05:00 8.7 C 8.22 g/m*3 8.7 C 0 km/h
2775 01-11-2019 15:10:00 8.7 C 8.22 g/m*3 8.7 C 3.2 km/h
Sensor: Nr:Datum:Temp:Abs-Feuchte:Windchill:Wind:
Aussen-T/F 2776 01-11-2019 15:15:00 8.7 C 8.3 g/m*3 8.7 C 3.2 km/h
2777 01-11-2019 15:20:00 8.7 C 8.3 g/m*3 8.7 C 0 km/h
2778 01-11-2019 15:25:00 8.7 C 8.3 g/m*3 8.7 C 0 km/h
2779 01-11-2019 15:30:00 8.7 C 8.22 g/m*3 8.7 C 1.6 km/h
2780 01-11-2019 15:35:00 8.7 C 8.3 g/m*3 8.7 C 1.6 km/h
2781 01-11-2019 15:40:00 8.7 C 8.3 g/m*3 8.7 C 4.8 km/h
2782 01-11-2019 15:45:00 8.7 C 8.3 g/m*3 8.7 C 0 km/h
2783 01-11-2019 15:50:00 8.7 C 8.3 g/m*3 8.7 C 3.2 km/h
2784 01-11-2019 15:55:00 8.7 C 8.3 g/m*3 8.7 C 0 km/h
2785 01-11-2019 16:00:00 8.8 C 8.36 g/m*3 8.8 C 0 km/h
2786 01-11-2019 16:05:00 8.8 C 8.36 g/m*3 8.8 C 0 km/h
2787 01-11-2019 16:10:00 8.8 C 8.36 g/m*3 8.8 C 0 km/h
2788 01-11-2019 16:15:00 8.8 C 8.36 g/m*3 8.8 C 0 km/h
2789 01-11-2019 16:20:00 8.8 C 8.36 g/m*3 8.8 C 0 km/h
2790 01-11-2019 16:25:00 8.8 C 8.36 g/m*3 8.8 C 0 km/h
2791 01-11-2019 16:30:00 8.8 C 8.36 g/m*3 8.8 C 0 km/h
2792 01-11-2019 16:35:00 8.8 C 8.36 g/m*3 8.8 C 0 km/h
2793 01-11-2019 16:40:00 8.8 C 8.36 g/m*3 8.8 C 0 km/h
2794 01-11-2019 16:45:00 8.8 C 8.36 g/m*3 8.8 C 0 km/h
2795 01-11-2019 16:50:00 8.8 C 8.36 g/m*3 8.8 C 0 km/h
2796 01-11-2019 16:55:00 8.8 C 8.36 g/m*3 8.8 C 0 km/h
2797 01-11-2019 17:00:00 8.8 C 8.36 g/m*3 8.8 C 0 km/h
2798 01-11-2019 17:05:00 8.8 C 8.36 g/m*3 8.8 C 0 km/h
2799 01-11-2019 17:10:00 8.8 C 8.36 g/m*3 8.8 C 0 km/h
2800 01-11-2019 17:15:00 8.8 C 8.36 g/m*3 8.8 C 3.2 km/h
Sensor: Nr:Datum:Temp:Abs-Feuchte:Windchill:Wind:
Aussen-T/F 2801 01-11-2019 17:20:00 8.8 C 8.36 g/m*3 8.8 C 3.2 km/h
2802 01-11-2019 17:25:00 8.9 C 8.41 g/m*3 8.9 C 0 km/h
2803 01-11-2019 17:30:00 8.9 C 8.41 g/m*3 8.9 C 1.6 km/h
2804 01-11-2019 17:35:00 8.9 C 8.41 g/m*3 8.9 C 1.6 km/h
2805 01-11-2019 17:40:00 8.9 C 8.41 g/m*3 8.9 C 1.6 km/h
2806 01-11-2019 17:45:00 8.9 C 8.41 g/m*3 8.9 C 1.6 km/h
2807 01-11-2019 17:50:00 8.9 C 8.41 g/m*3 8.9 C 0 km/h
2808 01-11-2019 17:55:00 8.9 C 8.41 g/m*3 8.9 C 1.6 km/h
2809 01-11-2019 18:00:00 8.9 C 8.41 g/m*3 8.9 C 1.6 km/h
2810 01-11-2019 18:05:00 8.9 C 8.41 g/m*3 8.9 C 0 km/h
2811 01-11-2019 18:10:00 8.9 C 8.41 g/m*3 8.9 C 1.6 km/h
2812 01-11-2019 18:15:00 8.9 C 8.41 g/m*3 8.9 C 1.6 km/h
2813 01-11-2019 18:20:00 8.9 C 8.41 g/m*3 8.9 C 0 km/h
2814 01-11-2019 18:25:00 8.9 C 8.41 g/m*3 8.9 C 0 km/h
2815 01-11-2019 18:30:00 8.9 C 8.41 g/m*3 8.9 C 0 km/h
2816 01-11-2019 18:35:00 8.9 C 8.41 g/m*3 8.9 C 0 km/h
2817 01-11-2019 18:40:00 8.8 C 8.36 g/m*3 8.8 C 0 km/h
2818 01-11-2019 18:45:00 8.8 C 8.36 g/m*3 8.8 C 0 km/h
2819 01-11-2019 18:50:00 8.8 C 8.44 g/m*3 8.8 C 0 km/h
2820 01-11-2019 18:55:00 8.8 C 8.44 g/m*3 8.8 C 0 km/h
2821 01-11-2019 19:00:00 8.8 C 8.44 g/m*3 8.8 C 0 km/h
2822 01-11-2019 19:05:00 8.8 C 8.44 g/m*3 8.8 C 0 km/h
2823 01-11-2019 19:10:00 8.9 C 8.5 g/m*3 8.9 C 0 km/h
2824 01-11-2019 19:15:00 8.9 C 8.5 g/m*3 8.9 C 0 km/h
2825 01-11-2019 19:20:00 8.9 C 8.5 g/m*3 8.9 C 0 km/h
Sensor: Nr:Datum:Temp:Abs-Feuchte:Windchill:Wind:
Aussen-T/F 2826 01-11-2019 19:25:00 8.9 C 8.5 g/m*3 8.9 C 0 km/h
2827 01-11-2019 19:30:00 8.9 C 8.5 g/m*3 8.9 C 0 km/h
2828 01-11-2019 19:35:00 9 C 8.55 g/m*3 9 C 0 km/h
2829 01-11-2019 19:40:00 9 C 8.55 g/m*3 9 C 0 km/h
2830 01-11-2019 19:45:00 9 C 8.55 g/m*3 9 C 0 km/h
2831 01-11-2019 19:50:00 9.1 C 8.61 g/m*3 9.1 C 0 km/h
2832 01-11-2019 19:55:00 9 C 8.55 g/m*3 9 C 0 km/h
2833 01-11-2019 20:00:00 9.1 C 8.61 g/m*3 9.1 C 0 km/h
2834 01-11-2019 20:05:00 9.1 C 8.61 g/m*3 9.1 C 0 km/h
2835 01-11-2019 20:10:00 9.1 C 8.61 g/m*3 9.1 C 0 km/h
2836 01-11-2019 20:15:00 9.2 C 8.66 g/m*3 9.2 C 0 km/h
2837 01-11-2019 20:20:00 9.2 C 8.66 g/m*3 9.2 C 0 km/h
2838 01-11-2019 20:25:00 9.2 C 8.66 g/m*3 9.2 C 0 km/h
2839 01-11-2019 20:30:00 9.2 C 8.66 g/m*3 9.2 C 0 km/h
2840 01-11-2019 20:35:00 9.3 C 8.72 g/m*3 9.3 C 0 km/h
2841 01-11-2019 20:40:00 9.3 C 8.72 g/m*3 9.3 C 0 km/h
2842 01-11-2019 20:45:00 9.3 C 8.72 g/m*3 9.3 C 0 km/h
2843 01-11-2019 20:50:00 9.3 C 8.72 g/m*3 9.3 C 0 km/h
2844 01-11-2019 20:55:00 9.4 C 8.77 g/m*3 9.4 C 0 km/h
2845 01-11-2019 21:00:00 9.4 C 8.77 g/m*3 9.4 C 0 km/h
2846 01-11-2019 21:05:00 9.5 C 8.83 g/m*3 9.5 C 0 km/h
2847 01-11-2019 21:10:00 9.5 C 8.83 g/m*3 9.5 C 0 km/h
2848 01-11-2019 21:15:00 9.6 C 8.89 g/m*3 9.6 C 0 km/h
2849 01-11-2019 21:20:00 9.6 C 8.89 g/m*3 9.6 C 0 km/h
2850 01-11-2019 21:25:00 9.6 C 8.89 g/m*3 9.6 C 0 km/h
Sensor: Nr:Datum:Temp:Abs-Feuchte:Windchill:Wind:
Aussen-T/F 2851 01-11-2019 21:30:00 9.7 C 8.94 g/m*3 9.7 C 0 km/h
2852 01-11-2019 21:35:00 9.7 C 8.94 g/m*3 9.7 C 0 km/h
2853 01-11-2019 21:40:00 9.7 C 8.94 g/m*3 9.7 C 0 km/h
2854 01-11-2019 21:45:00 9.8 C 9 g/m*3 9.8 C 0 km/h
2855 01-11-2019 21:50:00 9.8 C 9 g/m*3 9.8 C 0 km/h
2856 01-11-2019 21:55:00 9.8 C 9.09 g/m*3 9.8 C 0 km/h
2857 01-11-2019 22:00:00 9.9 C 9.15 g/m*3 9.9 C 0 km/h
2858 01-11-2019 22:05:00 9.9 C 9.15 g/m*3 9.9 C 0 km/h
2859 01-11-2019 22:10:00 10 C 9.21 g/m*3 10 C 0 km/h
2860 01-11-2019 22:15:00 10.1 C 9.27 g/m*3 10.1 C 0 km/h
2861 01-11-2019 22:20:00 10.1 C 9.27 g/m*3 10.1 C 0 km/h
2862 01-11-2019 22:25:00 10.2 C 9.33 g/m*3 10.2 C 0 km/h
2863 01-11-2019 22:30:00 10.2 C 9.33 g/m*3 10.2 C 3.2 km/h
2864 01-11-2019 22:35:00 10.2 C 9.33 g/m*3 10.2 C 0 km/h
2865 01-11-2019 22:40:00 10.2 C 9.33 g/m*3 10.2 C 0 km/h
2866 01-11-2019 22:45:00 10.3 C 9.39 g/m*3 10.3 C 0 km/h
2867 01-11-2019 22:50:00 10.3 C 9.39 g/m*3 10.3 C 0 km/h
2868 01-11-2019 22:55:00 10.4 C 9.44 g/m*3 10.4 C 0 km/h
2869 01-11-2019 23:00:00 10.4 C 9.44 g/m*3 10.4 C 0 km/h
2870 01-11-2019 23:05:00 10.4 C 9.44 g/m*3 10.4 C 0 km/h
2871 01-11-2019 23:10:00 10.4 C 9.44 g/m*3 10.4 C 0 km/h
2872 01-11-2019 23:15:00 10.4 C 9.44 g/m*3 10.4 C 0 km/h
2873 01-11-2019 23:20:00 10.5 C 9.5 g/m*3 10.5 C 0 km/h
2874 01-11-2019 23:25:00 10.5 C 9.5 g/m*3 10.5 C 0 km/h
2875 01-11-2019 23:30:00 10.6 C 9.57 g/m*3 10.6 C 0 km/h
Sensor: Nr:Datum:Temp:Abs-Feuchte:Windchill:Wind:
Aussen-T/F 2876 01-11-2019 23:35:00 10.6 C 9.57 g/m*3 10.6 C 0 km/h
2877 01-11-2019 23:40:00 10.6 C 9.57 g/m*3 10.6 C 0 km/h
2878 01-11-2019 23:45:00 10.6 C 9.57 g/m*3 10.6 C 0 km/h
2879 01-11-2019 23:50:00 10.6 C 9.57 g/m*3 10.6 C 0 km/h
2880 01-11-2019 23:55:00 10.7 C 9.63 g/m*3 10.7 C 0 km/h
2881 02-11-2019 00:00:00 10.7 C 9.63 g/m*3 10.7 C 0 km/h
2882 02-11-2019 00:05:00 10.8 C 9.69 g/m*3 10.8 C 0 km/h
2883 02-11-2019 00:10:00 10.9 C 9.75 g/m*3 10.9 C 0 km/h
2884 02-11-2019 00:15:00 11.1 C 9.87 g/m*3 11.1 C 0 km/h
2885 02-11-2019 00:20:00 11.2 C 9.93 g/m*3 11.2 C 0 km/h
2886 02-11-2019 00:25:00 11.2 C 9.93 g/m*3 11.2 C 0 km/h
2887 02-11-2019 00:30:00 11.3 C 10 g/m*3 11.3 C 0 km/h
2888 02-11-2019 00:35:00 11.3 C 10 g/m*3 11.3 C 0 km/h
2889 02-11-2019 00:40:00 11.4 C 10.06 g/m*3 11.4 C 0 km/h
2890 02-11-2019 00:45:00 11.4 C 10.06 g/m*3 11.4 C 0 km/h
2891 02-11-2019 00:50:00 11.4 C 10.06 g/m*3 11.4 C 0 km/h
2892 02-11-2019 00:55:00 11.5 C 10.12 g/m*3 11.5 C 0 km/h
2893 02-11-2019 01:00:00 11.6 C 10.19 g/m*3 11.6 C 0 km/h
2894 02-11-2019 01:05:00 11.7 C 10.25 g/m*3 11.7 C 1.6 km/h
2895 02-11-2019 01:10:00 11.8 C 10.31 g/m*3 11.8 C 0 km/h
2896 02-11-2019 01:15:00 11.9 C 10.38 g/m*3 11.9 C 0 km/h
2897 02-11-2019 01:20:00 11.9 C 10.38 g/m*3 11.9 C 1.6 km/h
2898 02-11-2019 01:25:00 12.1 C 10.51 g/m*3 12.1 C 0 km/h
2899 02-11-2019 01:30:00 12.1 C 10.51 g/m*3 12.1 C 0 km/h
2900 02-11-2019 01:35:00 12.1 C 10.51 g/m*3 12.1 C 1.6 km/h
Sensor: Nr:Datum:Temp:Abs-Feuchte:Windchill:Wind:
Aussen-T/F 2901 02-11-2019 01:40:00 12.1 C 10.51 g/m*3 12.1 C 0 km/h
2902 02-11-2019 01:45:00 12.1 C 10.51 g/m*3 12.1 C 3.2 km/h
2903 02-11-2019 01:50:00 12.1 C 10.51 g/m*3 12.1 C 1.6 km/h
2904 02-11-2019 01:55:00 12.1 C 10.51 g/m*3 12.1 C 1.6 km/h
2905 02-11-2019 02:00:00 12.1 C 10.51 g/m*3 12.1 C 0 km/h
2906 02-11-2019 02:05:00 12.2 C 10.58 g/m*3 12.2 C 4.8 km/h
2907 02-11-2019 02:10:00 12.1 C 10.51 g/m*3 12.1 C 0 km/h
2908 02-11-2019 02:15:00 12.3 C 10.64 g/m*3 12.3 C 6.4 km/h
2909 02-11-2019 02:20:00 12.3 C 10.64 g/m*3 12.3 C 0 km/h
2910 02-11-2019 02:25:00 12.2 C 10.58 g/m*3 12.2 C 0 km/h
2911 02-11-2019 02:30:00 12.2 C 10.58 g/m*3 12.2 C 0 km/h
2912 02-11-2019 02:35:00 12.2 C 10.58 g/m*3 12.2 C 0 km/h
2913 02-11-2019 02:40:00 12.2 C 10.58 g/m*3 12.2 C 1.6 km/h
2914 02-11-2019 02:45:00 12.2 C 10.58 g/m*3 12.2 C 0 km/h
2915 02-11-2019 02:50:00 12.3 C 10.64 g/m*3 12.3 C 1.6 km/h
2916 02-11-2019 02:55:00 12.3 C 10.64 g/m*3 12.3 C 1.6 km/h
2917 02-11-2019 03:00:00 12.2 C 10.58 g/m*3 12.2 C 0 km/h
2918 02-11-2019 03:05:00 12.1 C 10.51 g/m*3 12.1 C 0 km/h
2919 02-11-2019 03:10:00 12.2 C 10.58 g/m*3 12.2 C 1.6 km/h
2920 02-11-2019 03:15:00 12.3 C 10.64 g/m*3 12.3 C 3.2 km/h
2921 02-11-2019 03:20:00 12.3 C 10.64 g/m*3 12.3 C 1.6 km/h
2922 02-11-2019 03:25:00 12.4 C 10.71 g/m*3 12.4 C 4.8 km/h
2923 02-11-2019 03:30:00 12.4 C 10.71 g/m*3 12.4 C 3.2 km/h
2924 02-11-2019 03:35:00 12.4 C 10.71 g/m*3 12.4 C 0 km/h
2925 02-11-2019 03:40:00 12.3 C 10.64 g/m*3 12.3 C 3.2 km/h
Sensor: Nr:Datum:Temp:Abs-Feuchte:Windchill:Wind:
Aussen-T/F 2926 02-11-2019 03:45:00 12.3 C 10.64 g/m*3 12.3 C 4.8 km/h
2927 02-11-2019 03:50:00 12.3 C 10.64 g/m*3 12.3 C 3.2 km/h
2928 02-11-2019 03:55:00 12.2 C 10.58 g/m*3 12.2 C 0 km/h
2929 02-11-2019 04:00:00 12.1 C 10.51 g/m*3 12.1 C 3.2 km/h
2930 02-11-2019 04:05:00 12.2 C 10.58 g/m*3 12.2 C 3.2 km/h
2931 02-11-2019 04:10:00 12.2 C 10.58 g/m*3 12.2 C 3.2 km/h
2932 02-11-2019 04:15:00 12.2 C 10.58 g/m*3 12.2 C 1.6 km/h
2933 02-11-2019 04:20:00 12.2 C 10.58 g/m*3 12.2 C 0 km/h
2934 02-11-2019 04:25:00 12.2 C 10.58 g/m*3 12.2 C 3.2 km/h
2935 02-11-2019 04:30:00 12.3 C 10.64 g/m*3 12.3 C 0 km/h
2936 02-11-2019 04:35:00 12.3 C 10.64 g/m*3 12.3 C 1.6 km/h
2937 02-11-2019 04:40:00 12.4 C 10.71 g/m*3 12.4 C 1.6 km/h
2938 02-11-2019 04:45:00 12.3 C 10.64 g/m*3 12.3 C 1.6 km/h
2939 02-11-2019 04:50:00 12.3 C 10.64 g/m*3 12.3 C 0 km/h
2940 02-11-2019 04:55:00 12.3 C 10.64 g/m*3 12.3 C 4.8 km/h
2941 02-11-2019 05:00:00 12.4 C 10.71 g/m*3 12.4 C 0 km/h
2942 02-11-2019 05:05:00 12.4 C 10.71 g/m*3 12.4 C 0 km/h
2943 02-11-2019 05:10:00 12.6 C 10.84 g/m*3 12.6 C 0 km/h
2944 02-11-2019 05:15:00 12.6 C 10.84 g/m*3 12.6 C 3.2 km/h
2945 02-11-2019 05:20:00 12.7 C 10.91 g/m*3 12.7 C 3.2 km/h
2946 02-11-2019 05:25:00 12.7 C 10.91 g/m*3 12.7 C 1.6 km/h
2947 02-11-2019 05:30:00 12.7 C 10.91 g/m*3 12.7 C 0 km/h
2948 02-11-2019 05:35:00 12.7 C 10.91 g/m*3 12.7 C 4.8 km/h
2949 02-11-2019 05:40:00 12.7 C 10.91 g/m*3 12.7 C 0 km/h
2950 02-11-2019 05:45:00 12.8 C 10.98 g/m*3 12.8 C 1.6 km/h
Sensor: Nr:Datum:Temp:Abs-Feuchte:Windchill:Wind:
Aussen-T/F 2951 02-11-2019 05:50:00 12.8 C 10.98 g/m*3 12.8 C 0 km/h
2952 02-11-2019 05:55:00 12.8 C 10.98 g/m*3 12.8 C 3.2 km/h
2953 02-11-2019 06:00:00 12.8 C 10.98 g/m*3 12.8 C 3.2 km/h
2954 02-11-2019 06:05:00 12.9 C 11.05 g/m*3 12.9 C 0 km/h
2955 02-11-2019 06:10:00 12.9 C 11.05 g/m*3 12.9 C 3.2 km/h
2956 02-11-2019 06:15:00 13.1 C 11.18 g/m*3 13.1 C 1.6 km/h
2957 02-11-2019 06:20:00 13.1 C 11.18 g/m*3 13.1 C 0 km/h
2958 02-11-2019 06:25:00 13 C 11.11 g/m*3 13 C 3.2 km/h
2959 02-11-2019 06:30:00 13.1 C 11.18 g/m*3 13.1 C 3.2 km/h
2960 02-11-2019 06:35:00 13.2 C 11.25 g/m*3 13.2 C 9.7 km/h
2961 02-11-2019 06:40:00 13.2 C 11.25 g/m*3 13.2 C 3.2 km/h
2962 02-11-2019 06:45:00 13.2 C 11.25 g/m*3 13.2 C 1.6 km/h
2963 02-11-2019 06:50:00 13.3 C 11.32 g/m*3 13.3 C 4.8 km/h
2964 02-11-2019 06:55:00 13.4 C 11.39 g/m*3 13.4 C 1.6 km/h
2965 02-11-2019 07:00:00 13.5 C 11.46 g/m*3 13.5 C 0 km/h
2966 02-11-2019 07:05:00 13.5 C 11.46 g/m*3 13.5 C 0 km/h
2967 02-11-2019 07:10:00 13.5 C 11.46 g/m*3 13.5 C 0 km/h
2968 02-11-2019 07:15:00 13.4 C 11.39 g/m*3 13.4 C 1.6 km/h
2969 02-11-2019 07:20:00 13.4 C 11.39 g/m*3 13.4 C 0 km/h
2970 02-11-2019 07:25:00 13.4 C 11.39 g/m*3 13.4 C 0 km/h
2971 02-11-2019 07:30:00 13.3 C 11.32 g/m*3 13.3 C 0 km/h
2972 02-11-2019 07:35:00 13.4 C 11.39 g/m*3 13.4 C 0 km/h
2973 02-11-2019 07:40:00 13.4 C 11.39 g/m*3 13.4 C 0 km/h
2974 02-11-2019 07:45:00 13.6 C 11.53 g/m*3 13.6 C 3.2 km/h
2975 02-11-2019 07:50:00 13.7 C 11.6 g/m*3 13.7 C 3.2 km/h
Sensor: Nr:Datum:Temp:Abs-Feuchte:Windchill:Wind:
Aussen-T/F 2976 02-11-2019 07:55:00 13.7 C 11.6 g/m*3 13.7 C 3.2 km/h
2977 02-11-2019 08:00:00 13.7 C 11.6 g/m*3 13.7 C 4.8 km/h
2978 02-11-2019 08:05:00 13.8 C 11.68 g/m*3 13.8 C 1.6 km/h
2979 02-11-2019 08:10:00 13.8 C 11.68 g/m*3 13.8 C 0 km/h
2980 02-11-2019 08:15:00 13.8 C 11.68 g/m*3 13.8 C 0 km/h
2981 02-11-2019 08:20:00 13.8 C 11.68 g/m*3 13.8 C 4.8 km/h
2982 02-11-2019 08:25:00 13.8 C 11.68 g/m*3 13.8 C 1.6 km/h
2983 02-11-2019 08:30:00 13.8 C 11.68 g/m*3 13.8 C 0 km/h
2984 02-11-2019 08:35:00 13.9 C 11.75 g/m*3 13.9 C 0 km/h
2985 02-11-2019 08:40:00 13.9 C 11.75 g/m*3 13.9 C 8.1 km/h
2986 02-11-2019 08:45:00 13.9 C 11.75 g/m*3 13.9 C 1.6 km/h
2987 02-11-2019 08:50:00 13.9 C 11.75 g/m*3 13.9 C 1.6 km/h
2988 02-11-2019 08:55:00 14 C 11.82 g/m*3 14 C 3.2 km/h
2989 02-11-2019 09:00:00 14.1 C 11.89 g/m*3 14.1 C 1.6 km/h
2990 02-11-2019 09:05:00 14.1 C 11.89 g/m*3 14.1 C 9.7 km/h
2991 02-11-2019 09:10:00 14.2 C 11.97 g/m*3 14.2 C 9.7 km/h
2992 02-11-2019 09:15:00 14.2 C 11.97 g/m*3 14.2 C 9.7 km/h
2993 02-11-2019 09:20:00 14.3 C 12.04 g/m*3 14.3 C 16.1 km/h
2994 02-11-2019 09:25:00 14.3 C 12.04 g/m*3 14.3 C 6.4 km/h
2995 02-11-2019 09:30:00 14.3 C 12.04 g/m*3 14.3 C 16.1 km/h
2996 02-11-2019 09:35:00 14.3 C 12.04 g/m*3 14.3 C 11.3 km/h
2997 02-11-2019 09:40:00 14.4 C 12.11 g/m*3 14.4 C 14.5 km/h
2998 02-11-2019 09:45:00 14.4 C 12.11 g/m*3 14.4 C 14.5 km/h
2999 02-11-2019 09:50:00 14.5 C 12.06 g/m*3 14.5 C 17.7 km/h
3000 02-11-2019 09:55:00 14.6 C 12.14 g/m*3 14.6 C 19.3 km/h
Sensor: Nr:Datum:Temp:Abs-Feuchte:Windchill:Wind:
Aussen-T/F 3001 02-11-2019 10:00:00 14.6 C 11.89 g/m*3 14.6 C 22.5 km/h
3002 02-11-2019 10:05:00 14.7 C 11.96 g/m*3 14.7 C 12.9 km/h
3003 02-11-2019 10:10:00 14.8 C 12.03 g/m*3 14.8 C 14.5 km/h
3004 02-11-2019 10:15:00 14.9 C 11.98 g/m*3 14.9 C 17.7 km/h
3005 02-11-2019 10:20:00 15.1 C 12 g/m*3 15.1 C 16.1 km/h
3006 02-11-2019 10:25:00 15.2 C 12.07 g/m*3 15.2 C 12.9 km/h
3007 02-11-2019 10:30:00 15.1 C 11.87 g/m*3 15.1 C 20.9 km/h
3008 02-11-2019 10:35:00 14.9 C 11.73 g/m*3 14.9 C 8.1 km/h
3009 02-11-2019 10:40:00 14.9 C 11.85 g/m*3 14.9 C 4.8 km/h
3010 02-11-2019 10:45:00 14.9 C 11.73 g/m*3 14.9 C 9.7 km/h
3011 02-11-2019 10:50:00 14.9 C 11.73 g/m*3 14.9 C 14.5 km/h
3012 02-11-2019 10:55:00 15.1 C 11.61 g/m*3 15.1 C 20.9 km/h
3013 02-11-2019 11:00:00 15.3 C 11.75 g/m*3 15.3 C 24.1 km/h
3014 02-11-2019 11:05:00 15.4 C 11.56 g/m*3 15.4 C 14.5 km/h
3015 02-11-2019 11:10:00 15.5 C 11.63 g/m*3 15.5 C 14.5 km/h
3016 02-11-2019 11:15:00 15.5 C 11.37 g/m*3 15.5 C 24.1 km/h
3017 02-11-2019 11:20:00 15.6 C 11.57 g/m*3 15.6 C 9.7 km/h
3018 02-11-2019 11:25:00 15.7 C 11.64 g/m*3 15.7 C 11.3 km/h
3019 02-11-2019 11:30:00 15.8 C 11.44 g/m*3 15.8 C 16.1 km/h
3020 02-11-2019 11:35:00 15.9 C 11.51 g/m*3 15.9 C 12.9 km/h
3021 02-11-2019 11:40:00 16 C 11.58 g/m*3 16 C 11.3 km/h
3022 02-11-2019 11:45:00 16 C 11.58 g/m*3 16 C 17.7 km/h
3023 02-11-2019 11:50:00 16.1 C 11.65 g/m*3 16.1 C 19.3 km/h
3024 02-11-2019 11:55:00 16.1 C 11.51 g/m*3 16.1 C 22.5 km/h
3025 02-11-2019 12:00:00 16.1 C 11.38 g/m*3 16.1 C 22.5 km/h
Sensor: Nr:Datum:Temp:Abs-Feuchte:Windchill:Wind:
Aussen-T/F 3026 02-11-2019 12:05:00 16.1 C 11.38 g/m*3 16.1 C 16.1 km/h
3027 02-11-2019 12:10:00 16.1 C 11.24 g/m*3 16.1 C 17.7 km/h
3028 02-11-2019 12:15:00 16.2 C 11.45 g/m*3 16.2 C 19.3 km/h
3029 02-11-2019 12:20:00 16.2 C 11.17 g/m*3 16.2 C 20.9 km/h
3030 02-11-2019 12:25:00 16.2 C 11.17 g/m*3 16.2 C 19.3 km/h
3031 02-11-2019 12:30:00 16.2 C 11.17 g/m*3 16.2 C 24.1 km/h
3032 02-11-2019 12:35:00 16.1 C 10.97 g/m*3 16.1 C 17.7 km/h
3033 02-11-2019 12:40:00 16.2 C 10.89 g/m*3 16.2 C 11.3 km/h
3034 02-11-2019 12:45:00 16.2 C 10.76 g/m*3 16.2 C 22.5 km/h
3035 02-11-2019 12:50:00 16.2 C 10.48 g/m*3 16.2 C 25.7 km/h
3036 02-11-2019 12:55:00 16.1 C 10.55 g/m*3 16.1 C 25.7 km/h
3037 02-11-2019 13:00:00 16.1 C 10.55 g/m*3 16.1 C 12.9 km/h
3038 02-11-2019 13:05:00 16.1 C 10.55 g/m*3 16.1 C 12.9 km/h
3039 02-11-2019 13:10:00 16.1 C 10.42 g/m*3 16.1 C 14.5 km/h
3040 02-11-2019 13:15:00 16.1 C 10.69 g/m*3 16.1 C 8.1 km/h
3041 02-11-2019 13:20:00 16.1 C 10.55 g/m*3 16.1 C 11.3 km/h
3042 02-11-2019 13:25:00 16.2 C 10.48 g/m*3 16.2 C 11.3 km/h
3043 02-11-2019 13:30:00 16.1 C 10.14 g/m*3 16.1 C 25.7 km/h
3044 02-11-2019 13:35:00 16.1 C 10.14 g/m*3 16.1 C 19.3 km/h
3045 02-11-2019 13:40:00 16 C 10.08 g/m*3 16 C 19.3 km/h
3046 02-11-2019 13:45:00 15.9 C 9.89 g/m*3 15.9 C 14.5 km/h
3047 02-11-2019 13:50:00 15.9 C 10.02 g/m*3 15.9 C 14.5 km/h
3048 02-11-2019 13:55:00 15.8 C 9.96 g/m*3 15.8 C 16.1 km/h
3049 02-11-2019 14:00:00 15.8 C 9.83 g/m*3 15.8 C 12.9 km/h
3050 02-11-2019 14:05:00 15.8 C 9.96 g/m*3 15.8 C 9.7 km/h
Sensor: Nr:Datum:Temp:Abs-Feuchte:Windchill:Wind:
Aussen-T/F 3051 02-11-2019 14:10:00 15.7 C 10.03 g/m*3 15.7 C 8.1 km/h
3052 02-11-2019 14:15:00 15.8 C 10.36 g/m*3 15.8 C 11.3 km/h
3053 02-11-2019 14:20:00 15.8 C 10.23 g/m*3 15.8 C 4.8 km/h
3054 02-11-2019 14:25:00 15.8 C 9.96 g/m*3 15.8 C 9.7 km/h
3055 02-11-2019 14:30:00 15.9 C 10.16 g/m*3 15.9 C 8.1 km/h
3056 02-11-2019 14:35:00 15.9 C 9.89 g/m*3 15.9 C 11.3 km/h
3057 02-11-2019 14:40:00 15.8 C 10.1 g/m*3 15.8 C 8.1 km/h
3058 02-11-2019 14:45:00 15.8 C 9.83 g/m*3 15.8 C 12.9 km/h
3059 02-11-2019 14:50:00 15.8 C 9.83 g/m*3 15.8 C 14.5 km/h
3060 02-11-2019 14:55:00 15.7 C 9.9 g/m*3 15.7 C 12.9 km/h
3061 02-11-2019 15:00:00 15.6 C 9.71 g/m*3 15.6 C 14.5 km/h
3062 02-11-2019 15:05:00 15.5 C 9.78 g/m*3 15.5 C 9.7 km/h
3063 02-11-2019 15:10:00 15.4 C 9.99 g/m*3 15.4 C 1.6 km/h
3064 02-11-2019 15:15:00 15.3 C 10.06 g/m*3 15.3 C 8.1 km/h
3065 02-11-2019 15:20:00 15.2 C 10.25 g/m*3 15.2 C 6.4 km/h
3066 02-11-2019 15:25:00 15.2 C 9.86 g/m*3 15.2 C 3.2 km/h
3067 02-11-2019 15:30:00 15.1 C 9.93 g/m*3 15.1 C 1.6 km/h
3068 02-11-2019 15:35:00 15 C 10.13 g/m*3 15 C 6.4 km/h
3069 02-11-2019 15:40:00 14.9 C 10.2 g/m*3 14.9 C 0 km/h
3070 02-11-2019 15:45:00 14.8 C 10.13 g/m*3 14.8 C 6.4 km/h
3071 02-11-2019 15:50:00 14.7 C 9.82 g/m*3 14.7 C 4.8 km/h
3072 02-11-2019 15:55:00 14.6 C 9.76 g/m*3 14.6 C 1.6 km/h
3073 02-11-2019 16:00:00 14.7 C 10.07 g/m*3 14.7 C 0 km/h
3074 02-11-2019 16:05:00 14.6 C 9.89 g/m*3 14.6 C 9.7 km/h
3075 02-11-2019 16:10:00 14.6 C 9.89 g/m*3 14.6 C 9.7 km/h
Sensor: Nr:Datum:Temp:Abs-Feuchte:Windchill:Wind:
Aussen-T/F 3076 02-11-2019 16:15:00 14.6 C 9.89 g/m*3 14.6 C 1.6 km/h
3077 02-11-2019 16:20:00 14.5 C 9.95 g/m*3 14.5 C 4.8 km/h
3078 02-11-2019 16:25:00 14.4 C 9.77 g/m*3 14.4 C 12.9 km/h
3079 02-11-2019 16:30:00 14.5 C 9.7 g/m*3 14.5 C 11.3 km/h
3080 02-11-2019 16:35:00 14.5 C 9.83 g/m*3 14.5 C 11.3 km/h
3081 02-11-2019 16:40:00 14.5 C 9.58 g/m*3 14.5 C 8.1 km/h
3082 02-11-2019 16:45:00 14.5 C 9.45 g/m*3 14.5 C 8.1 km/h
3083 02-11-2019 16:50:00 14.6 C 9.39 g/m*3 14.6 C 14.5 km/h
3084 02-11-2019 16:55:00 14.7 C 9.57 g/m*3 14.7 C 4.8 km/h
3085 02-11-2019 17:00:00 14.6 C 9.39 g/m*3 14.6 C 12.9 km/h
3086 02-11-2019 17:05:00 14.6 C 9.39 g/m*3 14.6 C 12.9 km/h
3087 02-11-2019 17:10:00 14.6 C 9.39 g/m*3 14.6 C 12.9 km/h
3088 02-11-2019 17:15:00 14.6 C 9.64 g/m*3 14.6 C 12.9 km/h
3089 02-11-2019 17:20:00 14.4 C 9.64 g/m*3 14.4 C 14.5 km/h
3090 02-11-2019 17:25:00 14.3 C 9.95 g/m*3 14.3 C 16.1 km/h
3091 02-11-2019 17:30:00 13.9 C 9.95 g/m*3 13.9 C 12.9 km/h
3092 02-11-2019 17:35:00 13.4 C 10 g/m*3 13.4 C 9.7 km/h
3093 02-11-2019 17:40:00 13.1 C 9.93 g/m*3 13.1 C 4.8 km/h
3094 02-11-2019 17:45:00 12.8 C 9.74 g/m*3 12.8 C 8.1 km/h
3095 02-11-2019 17:50:00 12.6 C 9.62 g/m*3 12.6 C 11.3 km/h
3096 02-11-2019 17:55:00 12.5 C 9.68 g/m*3 12.5 C 6.4 km/h
3097 02-11-2019 18:00:00 12.4 C 9.62 g/m*3 12.4 C 1.6 km/h
3098 02-11-2019 18:05:00 12.3 C 9.66 g/m*3 12.3 C 3.2 km/h
3099 02-11-2019 18:10:00 12.2 C 9.6 g/m*3 12.2 C 6.4 km/h
3100 02-11-2019 18:15:00 12.1 C 9.54 g/m*3 12.1 C 1.6 km/h
Sensor: Nr:Datum:Temp:Abs-Feuchte:Windchill:Wind:
Aussen-T/F 3101 02-11-2019 18:20:00 12.1 C 9.65 g/m*3 12.1 C 1.6 km/h
3102 02-11-2019 18:25:00 11.9 C 9.53 g/m*3 11.9 C 3.2 km/h
3103 02-11-2019 18:30:00 11.8 C 9.47 g/m*3 11.8 C 6.4 km/h
3104 02-11-2019 18:35:00 11.7 C 9.52 g/m*3 11.7 C 0 km/h
3105 02-11-2019 18:40:00 11.7 C 9.52 g/m*3 11.7 C 1.6 km/h
3106 02-11-2019 18:45:00 11.6 C 9.46 g/m*3 11.6 C 1.6 km/h
3107 02-11-2019 18:50:00 11.6 C 9.46 g/m*3 11.6 C 1.6 km/h
3108 02-11-2019 18:55:00 11.5 C 9.5 g/m*3 11.5 C 3.2 km/h
3109 02-11-2019 19:00:00 11.5 C 9.5 g/m*3 11.5 C 1.6 km/h
3110 02-11-2019 19:05:00 11.4 C 9.44 g/m*3 11.4 C 3.2 km/h
3111 02-11-2019 19:10:00 11.4 C 9.44 g/m*3 11.4 C 1.6 km/h
3112 02-11-2019 19:15:00 11.4 C 9.44 g/m*3 11.4 C 1.6 km/h
3113 02-11-2019 19:20:00 11.4 C 9.44 g/m*3 11.4 C 3.2 km/h
3114 02-11-2019 19:25:00 11.5 C 9.5 g/m*3 11.5 C 1.6 km/h
3115 02-11-2019 19:30:00 11.5 C 9.5 g/m*3 11.5 C 3.2 km/h
3116 02-11-2019 19:35:00 11.5 C 9.5 g/m*3 11.5 C 3.2 km/h
3117 02-11-2019 19:40:00 11.4 C 9.34 g/m*3 11.4 C 3.2 km/h
3118 02-11-2019 19:45:00 11.4 C 9.34 g/m*3 11.4 C 0 km/h
3119 02-11-2019 19:50:00 11.4 C 9.44 g/m*3 11.4 C 1.6 km/h
3120 02-11-2019 19:55:00 11.3 C 9.38 g/m*3 11.3 C 1.6 km/h
3121 02-11-2019 20:00:00 11.3 C 9.38 g/m*3 11.3 C 1.6 km/h
3122 02-11-2019 20:05:00 11.2 C 9.33 g/m*3 11.2 C 3.2 km/h
3123 02-11-2019 20:10:00 11.2 C 9.33 g/m*3 11.2 C 0 km/h
3124 02-11-2019 20:15:00 11.3 C 9.38 g/m*3 11.3 C 9.7 km/h
3125 02-11-2019 20:20:00 11.3 C 9.38 g/m*3 11.3 C 1.6 km/h
Sensor: Nr:Datum:Temp:Abs-Feuchte:Windchill:Wind:
Aussen-T/F 3126 02-11-2019 20:25:00 11.3 C 9.28 g/m*3 11.3 C 4.8 km/h
3127 02-11-2019 20:30:00 11.3 C 9.28 g/m*3 11.3 C 3.2 km/h
3128 02-11-2019 20:35:00 11.3 C 9.28 g/m*3 11.3 C 4.8 km/h
3129 02-11-2019 20:40:00 11.3 C 9.28 g/m*3 11.3 C 8.1 km/h
3130 02-11-2019 20:45:00 11.4 C 9.24 g/m*3 11.4 C 6.4 km/h
3131 02-11-2019 20:50:00 11.4 C 9.24 g/m*3 11.4 C 1.6 km/h
3132 02-11-2019 20:55:00 11.4 C 9.24 g/m*3 11.4 C 3.2 km/h
3133 02-11-2019 21:00:00 11.3 C 9.18 g/m*3 11.3 C 1.6 km/h
3134 02-11-2019 21:05:00 11.2 C 9.12 g/m*3 11.2 C 9.7 km/h
3135 02-11-2019 21:10:00 11.2 C 9.02 g/m*3 11.2 C 6.4 km/h
3136 02-11-2019 21:15:00 11.2 C 9.02 g/m*3 11.2 C 4.8 km/h
3137 02-11-2019 21:20:00 11.2 C 9.02 g/m*3 11.2 C 11.3 km/h
3138 02-11-2019 21:25:00 11.1 C 8.96 g/m*3 11.1 C 1.6 km/h
3139 02-11-2019 21:30:00 11.1 C 8.86 g/m*3 11.1 C 1.6 km/h
3140 02-11-2019 21:35:00 11.1 C 8.86 g/m*3 11.1 C 4.8 km/h
3141 02-11-2019 21:40:00 11.1 C 8.86 g/m*3 11.1 C 4.8 km/h
3142 02-11-2019 21:45:00 11.1 C 8.86 g/m*3 11.1 C 4.8 km/h
3143 02-11-2019 21:50:00 11.1 C 8.86 g/m*3 11.1 C 1.6 km/h
3144 02-11-2019 21:55:00 11.1 C 8.86 g/m*3 11.1 C 1.6 km/h
3145 02-11-2019 22:00:00 11.1 C 8.96 g/m*3 11.1 C 1.6 km/h
3146 02-11-2019 22:05:00 11.1 C 8.96 g/m*3 11.1 C 0 km/h
3147 02-11-2019 22:10:00 11.1 C 8.86 g/m*3 11.1 C 3.2 km/h
3148 02-11-2019 22:15:00 11.1 C 8.86 g/m*3 11.1 C 1.6 km/h
3149 02-11-2019 22:20:00 11.1 C 8.86 g/m*3 11.1 C 0 km/h
3150 02-11-2019 22:25:00 11.1 C 8.86 g/m*3 11.1 C 1.6 km/h
Sensor: Nr:Datum:Temp:Abs-Feuchte:Windchill:Wind:
Aussen-T/F 3151 02-11-2019 22:30:00 11.1 C 8.86 g/m*3 11.1 C 0 km/h
3152 02-11-2019 22:35:00 10.9 C 8.85 g/m*3 10.9 C 0 km/h
3153 02-11-2019 22:40:00 10.9 C 8.75 g/m*3 10.9 C 1.6 km/h
3154 02-11-2019 22:45:00 10.8 C 8.7 g/m*3 10.8 C 3.2 km/h
3155 02-11-2019 22:50:00 10.8 C 8.8 g/m*3 10.8 C 0 km/h
3156 02-11-2019 22:55:00 10.7 C 8.74 g/m*3 10.7 C 0 km/h
3157 02-11-2019 23:00:00 10.6 C 8.69 g/m*3 10.6 C 0 km/h
3158 02-11-2019 23:05:00 10.6 C 8.78 g/m*3 10.6 C 0 km/h
3159 02-11-2019 23:10:00 10.4 C 8.67 g/m*3 10.4 C 0 km/h
3160 02-11-2019 23:15:00 10.4 C 8.67 g/m*3 10.4 C 1.6 km/h
3161 02-11-2019 23:20:00 10.3 C 8.62 g/m*3 10.3 C 0 km/h
3162 02-11-2019 23:25:00 10.3 C 8.71 g/m*3 9.34 C 8.1 km/h
3163 02-11-2019 23:30:00 10.4 C 8.67 g/m*3 9.16 C 9.7 km/h
3164 02-11-2019 23:35:00 10.6 C 8.69 g/m*3 10.06 C 6.4 km/h
3165 02-11-2019 23:40:00 10.7 C 8.64 g/m*3 10.7 C 1.6 km/h
3166 02-11-2019 23:45:00 10.8 C 8.7 g/m*3 10.8 C 3.2 km/h
3167 02-11-2019 23:50:00 10.8 C 8.6 g/m*3 9.64 C 9.7 km/h
3168 02-11-2019 23:55:00 10.9 C 8.65 g/m*3 10.9 C 3.2 km/h
3169 03-11-2019 00:00:00 10.9 C 8.55 g/m*3 10.9 C 1.6 km/h
3170 03-11-2019 00:05:00 10.8 C 8.6 g/m*3 10.8 C 0 km/h
3171 03-11-2019 00:10:00 10.8 C 8.6 g/m*3 10.8 C 0 km/h
3172 03-11-2019 00:15:00 10.7 C 8.55 g/m*3 10.7 C 1.6 km/h
3173 03-11-2019 00:20:00 10.6 C 8.59 g/m*3 10.6 C 1.6 km/h
3174 03-11-2019 00:25:00 10.6 C 8.59 g/m*3 10.6 C 0 km/h
3175 03-11-2019 00:30:00 10.4 C 8.58 g/m*3 10.4 C 1.6 km/h
Sensor: Nr:Datum:Temp:Abs-Feuchte:Windchill:Wind:
Aussen-T/F 3176 03-11-2019 00:35:00 10.3 C 8.52 g/m*3 10.3 C 0 km/h
3177 03-11-2019 00:40:00 10.2 C 8.47 g/m*3 10.2 C 0 km/h
3178 03-11-2019 00:45:00 10.2 C 8.47 g/m*3 10.2 C 0 km/h
3179 03-11-2019 00:50:00 10.1 C 8.51 g/m*3 10.1 C 0 km/h
3180 03-11-2019 00:55:00 10.1 C 8.51 g/m*3 10.1 C 0 km/h
3181 03-11-2019 01:00:00 10.1 C 8.51 g/m*3 10.1 C 0 km/h
3182 03-11-2019 01:05:00 10.2 C 8.56 g/m*3 10.2 C 0 km/h
3183 03-11-2019 01:10:00 10.3 C 8.71 g/m*3 10.3 C 0 km/h
3184 03-11-2019 01:15:00 10.4 C 8.77 g/m*3 10.4 C 0 km/h
3185 03-11-2019 01:20:00 10.4 C 8.67 g/m*3 10.4 C 4.8 km/h
3186 03-11-2019 01:25:00 10.4 C 8.67 g/m*3 10.4 C 0 km/h
3187 03-11-2019 01:30:00 10.4 C 8.67 g/m*3 10.4 C 0 km/h
3188 03-11-2019 01:35:00 10.6 C 8.78 g/m*3 10.6 C 0 km/h
3189 03-11-2019 01:40:00 10.6 C 8.78 g/m*3 10.6 C 0 km/h
3190 03-11-2019 01:45:00 10.6 C 8.78 g/m*3 10.6 C 0 km/h
3191 03-11-2019 01:50:00 10.5 C 8.73 g/m*3 10.5 C 0 km/h
3192 03-11-2019 01:55:00 10.5 C 8.73 g/m*3 10.5 C 0 km/h
3193 03-11-2019 02:00:00 10.4 C 8.77 g/m*3 10.4 C 0 km/h
3194 03-11-2019 02:05:00 10.4 C 8.67 g/m*3 10.4 C 0 km/h
3195 03-11-2019 02:10:00 10.3 C 8.71 g/m*3 10.3 C 0 km/h
3196 03-11-2019 02:15:00 10.2 C 8.66 g/m*3 10.2 C 0 km/h
3197 03-11-2019 02:20:00 10.1 C 8.61 g/m*3 10.1 C 0 km/h
3198 03-11-2019 02:25:00 9.9 C 8.5 g/m*3 9.9 C 0 km/h
3199 03-11-2019 02:30:00 9.8 C 8.44 g/m*3 9.8 C 0 km/h
3200 03-11-2019 02:35:00 9.8 C 8.54 g/m*3 9.8 C 0 km/h
Sensor: Nr:Datum:Temp:Abs-Feuchte:Windchill:Wind:
Aussen-T/F 3201 03-11-2019 02:40:00 9.8 C 8.54 g/m*3 9.8 C 3.2 km/h
3202 03-11-2019 02:45:00 9.9 C 8.59 g/m*3 9.9 C 0 km/h
3203 03-11-2019 02:50:00 9.9 C 8.68 g/m*3 9.9 C 0 km/h
3204 03-11-2019 02:55:00 9.9 C 8.68 g/m*3 9.9 C 0 km/h
3205 03-11-2019 03:00:00 9.9 C 8.68 g/m*3 9.9 C 0 km/h
3206 03-11-2019 03:05:00 9.9 C 8.68 g/m*3 9.9 C 0 km/h
3207 03-11-2019 03:10:00 9.9 C 8.68 g/m*3 9.9 C 1.6 km/h
3208 03-11-2019 03:15:00 9.9 C 8.68 g/m*3 9.9 C 3.2 km/h
3209 03-11-2019 03:20:00 10.1 C 8.79 g/m*3 10.1 C 1.6 km/h
3210 03-11-2019 03:25:00 10.1 C 8.79 g/m*3 10.1 C 0 km/h
3211 03-11-2019 03:30:00 10.1 C 8.79 g/m*3 10.1 C 0 km/h
3212 03-11-2019 03:35:00 10 C 8.74 g/m*3 10 C 0 km/h
3213 03-11-2019 03:40:00 10 C 8.74 g/m*3 10 C 0 km/h
3214 03-11-2019 03:45:00 10 C 8.74 g/m*3 10 C 0 km/h
3215 03-11-2019 03:50:00 10 C 8.83 g/m*3 10 C 3.2 km/h
3216 03-11-2019 03:55:00 10.1 C 8.89 g/m*3 10.1 C 0 km/h
3217 03-11-2019 04:00:00 10.1 C 8.89 g/m*3 10.1 C 3.2 km/h
3218 03-11-2019 04:05:00 10.2 C 8.95 g/m*3 10.2 C 0 km/h
3219 03-11-2019 04:10:00 10.3 C 9 g/m*3 10.3 C 3.2 km/h
3220 03-11-2019 04:15:00 10.3 C 9 g/m*3 10.3 C 0 km/h
3221 03-11-2019 04:20:00 10.3 C 9 g/m*3 10.3 C 1.6 km/h
3222 03-11-2019 04:25:00 10.3 C 9 g/m*3 10.3 C 0 km/h
3223 03-11-2019 04:30:00 10.3 C 9 g/m*3 10.3 C 0 km/h
3224 03-11-2019 04:35:00 10.3 C 9.1 g/m*3 10.3 C 0 km/h
3225 03-11-2019 04:40:00 10.3 C 9.1 g/m*3 10.3 C 0 km/h
Sensor: Nr:Datum:Temp:Abs-Feuchte:Windchill:Wind:
Aussen-T/F 3226 03-11-2019 04:45:00 10.3 C 9.1 g/m*3 10.3 C 0 km/h
3227 03-11-2019 04:50:00 10.3 C 9.1 g/m*3 10.3 C 0 km/h
3228 03-11-2019 04:55:00 10.2 C 8.95 g/m*3 10.2 C 0 km/h
3229 03-11-2019 05:00:00